<?xml version="1.0" encoding="UTF-8" standalone="no" ?>
<gpx xmlns="http://www.topografix.com/GPX/1/1" xmlns:xsi="http://www.w3.org/2001/XMLSchema-instance" xsi:schemaLocation="http://www.topografix.com/GPX/1/1 http://www.topografix.com/GPX/1/1/gpx.xsd" version="1.1" creator="VisuGPX - https://www.visugpx.com">
  <metadata>
    <name>Treuskoad -- EHPAD Chateauneuf</name>
  </metadata>
  <trk>
    <name><![CDATA[Treuskoad -- EHPAD Chateauneuf_1]]></name>
    <trkseg>
      <trkpt lat="48.19095" lon="-3.81383">
        <ele>138</ele>
        <time>2020-05-17T16:41:47.220Z</time>
      </trkpt>
      <trkpt lat="48.19082" lon="-3.81388">
        <ele>138</ele>
        <time>2020-05-17T16:41:48.220Z</time>
      </trkpt>
      <trkpt lat="48.1909" lon="-3.81388">
        <ele>138</ele>
        <time>2020-05-17T16:41:49.220Z</time>
      </trkpt>
      <trkpt lat="48.19088" lon="-3.81388">
        <ele>138</ele>
        <time>2020-05-17T16:41:50.220Z</time>
      </trkpt>
      <trkpt lat="48.19082" lon="-3.81388">
        <ele>138</ele>
        <time>2020-05-17T16:41:51.219Z</time>
      </trkpt>
      <trkpt lat="48.1908" lon="-3.8139">
        <ele>137</ele>
        <time>2020-05-17T16:41:52.220Z</time>
      </trkpt>
      <trkpt lat="48.19079" lon="-3.81391">
        <ele>136</ele>
        <time>2020-05-17T16:41:53.220Z</time>
      </trkpt>
      <trkpt lat="48.19078" lon="-3.81394">
        <ele>136</ele>
        <time>2020-05-17T16:41:54.220Z</time>
      </trkpt>
      <trkpt lat="48.19076" lon="-3.81398">
        <ele>135</ele>
        <time>2020-05-17T16:41:55.220Z</time>
      </trkpt>
      <trkpt lat="48.19077" lon="-3.81402">
        <ele>135</ele>
        <time>2020-05-17T16:41:56.220Z</time>
      </trkpt>
      <trkpt lat="48.19078" lon="-3.81406">
        <ele>134</ele>
        <time>2020-05-17T16:41:57.220Z</time>
      </trkpt>
      <trkpt lat="48.19078" lon="-3.8141">
        <ele>134</ele>
        <time>2020-05-17T16:41:58.220Z</time>
      </trkpt>
      <trkpt lat="48.19079" lon="-3.81414">
        <ele>133</ele>
        <time>2020-05-17T16:41:59.220Z</time>
      </trkpt>
      <trkpt lat="48.19079" lon="-3.81418">
        <ele>133</ele>
        <time>2020-05-17T16:42:00.220Z</time>
      </trkpt>
      <trkpt lat="48.19081" lon="-3.81422">
        <ele>133</ele>
        <time>2020-05-17T16:42:01.220Z</time>
      </trkpt>
      <trkpt lat="48.19083" lon="-3.81426">
        <ele>132</ele>
        <time>2020-05-17T16:42:02.220Z</time>
      </trkpt>
      <trkpt lat="48.19085" lon="-3.8143">
        <ele>132</ele>
        <time>2020-05-17T16:42:03.220Z</time>
      </trkpt>
      <trkpt lat="48.19087" lon="-3.81432">
        <ele>131</ele>
        <time>2020-05-17T16:42:04.220Z</time>
      </trkpt>
      <trkpt lat="48.19091" lon="-3.81434">
        <ele>130</ele>
        <time>2020-05-17T16:42:05.220Z</time>
      </trkpt>
      <trkpt lat="48.19095" lon="-3.81436">
        <ele>130</ele>
        <time>2020-05-17T16:42:06.219Z</time>
      </trkpt>
      <trkpt lat="48.191" lon="-3.81438">
        <ele>129</ele>
        <time>2020-05-17T16:42:07.220Z</time>
      </trkpt>
      <trkpt lat="48.19105" lon="-3.81439">
        <ele>129</ele>
        <time>2020-05-17T16:42:08.219Z</time>
      </trkpt>
      <trkpt lat="48.1911" lon="-3.81439">
        <ele>128</ele>
        <time>2020-05-17T16:42:09.220Z</time>
      </trkpt>
      <trkpt lat="48.19114" lon="-3.81438">
        <ele>128</ele>
        <time>2020-05-17T16:42:10.220Z</time>
      </trkpt>
      <trkpt lat="48.19118" lon="-3.81437">
        <ele>128</ele>
        <time>2020-05-17T16:42:11.219Z</time>
      </trkpt>
      <trkpt lat="48.19121" lon="-3.81436">
        <ele>128</ele>
        <time>2020-05-17T16:42:12.219Z</time>
      </trkpt>
      <trkpt lat="48.19124" lon="-3.81434">
        <ele>128</ele>
        <time>2020-05-17T16:42:13.219Z</time>
      </trkpt>
      <trkpt lat="48.19128" lon="-3.81433">
        <ele>127</ele>
        <time>2020-05-17T16:42:14.219Z</time>
      </trkpt>
      <trkpt lat="48.19131" lon="-3.81432">
        <ele>127</ele>
        <time>2020-05-17T16:42:15.219Z</time>
      </trkpt>
      <trkpt lat="48.19135" lon="-3.81432">
        <ele>127</ele>
        <time>2020-05-17T16:42:16.220Z</time>
      </trkpt>
      <trkpt lat="48.19138" lon="-3.81431">
        <ele>127</ele>
        <time>2020-05-17T16:42:17.220Z</time>
      </trkpt>
      <trkpt lat="48.19142" lon="-3.8143">
        <ele>127</ele>
        <time>2020-05-17T16:42:18.220Z</time>
      </trkpt>
      <trkpt lat="48.19145" lon="-3.81429">
        <ele>127</ele>
        <time>2020-05-17T16:42:19.220Z</time>
      </trkpt>
      <trkpt lat="48.19148" lon="-3.81428">
        <ele>127</ele>
        <time>2020-05-17T16:42:20.220Z</time>
      </trkpt>
      <trkpt lat="48.19151" lon="-3.81427">
        <ele>127</ele>
        <time>2020-05-17T16:42:21.220Z</time>
      </trkpt>
      <trkpt lat="48.19154" lon="-3.81427">
        <ele>127</ele>
        <time>2020-05-17T16:42:22.220Z</time>
      </trkpt>
      <trkpt lat="48.19158" lon="-3.81427">
        <ele>126</ele>
        <time>2020-05-17T16:42:23.220Z</time>
      </trkpt>
      <trkpt lat="48.19161" lon="-3.81427">
        <ele>126</ele>
        <time>2020-05-17T16:42:24.220Z</time>
      </trkpt>
      <trkpt lat="48.19165" lon="-3.81427">
        <ele>126</ele>
        <time>2020-05-17T16:42:25.220Z</time>
      </trkpt>
      <trkpt lat="48.19169" lon="-3.81428">
        <ele>126</ele>
        <time>2020-05-17T16:42:26.220Z</time>
      </trkpt>
      <trkpt lat="48.19173" lon="-3.81428">
        <ele>126</ele>
        <time>2020-05-17T16:42:27.220Z</time>
      </trkpt>
      <trkpt lat="48.19177" lon="-3.81428">
        <ele>126</ele>
        <time>2020-05-17T16:42:28.220Z</time>
      </trkpt>
      <trkpt lat="48.19181" lon="-3.81429">
        <ele>126</ele>
        <time>2020-05-17T16:42:29.220Z</time>
      </trkpt>
      <trkpt lat="48.19185" lon="-3.81431">
        <ele>125</ele>
        <time>2020-05-17T16:42:30.220Z</time>
      </trkpt>
      <trkpt lat="48.19188" lon="-3.81432">
        <ele>125</ele>
        <time>2020-05-17T16:42:31.220Z</time>
      </trkpt>
      <trkpt lat="48.19192" lon="-3.81432">
        <ele>124</ele>
        <time>2020-05-17T16:42:32.220Z</time>
      </trkpt>
      <trkpt lat="48.19197" lon="-3.81433">
        <ele>123</ele>
        <time>2020-05-17T16:42:33.220Z</time>
      </trkpt>
      <trkpt lat="48.19202" lon="-3.81434">
        <ele>123</ele>
        <time>2020-05-17T16:42:34.220Z</time>
      </trkpt>
      <trkpt lat="48.19206" lon="-3.81435">
        <ele>122</ele>
        <time>2020-05-17T16:42:35.220Z</time>
      </trkpt>
      <trkpt lat="48.1921" lon="-3.81437">
        <ele>122</ele>
        <time>2020-05-17T16:42:36.220Z</time>
      </trkpt>
      <trkpt lat="48.19215" lon="-3.81438">
        <ele>121</ele>
        <time>2020-05-17T16:42:37.220Z</time>
      </trkpt>
      <trkpt lat="48.19219" lon="-3.81439">
        <ele>121</ele>
        <time>2020-05-17T16:42:38.220Z</time>
      </trkpt>
      <trkpt lat="48.19223" lon="-3.81441">
        <ele>120</ele>
        <time>2020-05-17T16:42:39.220Z</time>
      </trkpt>
      <trkpt lat="48.19228" lon="-3.81443">
        <ele>119</ele>
        <time>2020-05-17T16:42:40.220Z</time>
      </trkpt>
      <trkpt lat="48.19231" lon="-3.81445">
        <ele>119</ele>
        <time>2020-05-17T16:42:41.220Z</time>
      </trkpt>
      <trkpt lat="48.19235" lon="-3.81447">
        <ele>118</ele>
        <time>2020-05-17T16:42:42.220Z</time>
      </trkpt>
      <trkpt lat="48.19238" lon="-3.81449">
        <ele>118</ele>
        <time>2020-05-17T16:42:43.219Z</time>
      </trkpt>
      <trkpt lat="48.19242" lon="-3.81451">
        <ele>117</ele>
        <time>2020-05-17T16:42:44.220Z</time>
      </trkpt>
      <trkpt lat="48.19245" lon="-3.81453">
        <ele>117</ele>
        <time>2020-05-17T16:42:45.220Z</time>
      </trkpt>
      <trkpt lat="48.19248" lon="-3.81454">
        <ele>116</ele>
        <time>2020-05-17T16:42:46.220Z</time>
      </trkpt>
      <trkpt lat="48.19251" lon="-3.81455">
        <ele>116</ele>
        <time>2020-05-17T16:42:47.220Z</time>
      </trkpt>
      <trkpt lat="48.19255" lon="-3.81456">
        <ele>115</ele>
        <time>2020-05-17T16:42:48.220Z</time>
      </trkpt>
      <trkpt lat="48.19259" lon="-3.81457">
        <ele>115</ele>
        <time>2020-05-17T16:42:49.220Z</time>
      </trkpt>
      <trkpt lat="48.19263" lon="-3.81459">
        <ele>114</ele>
        <time>2020-05-17T16:42:50.220Z</time>
      </trkpt>
      <trkpt lat="48.19267" lon="-3.8146">
        <ele>114</ele>
        <time>2020-05-17T16:42:51.220Z</time>
      </trkpt>
      <trkpt lat="48.19271" lon="-3.81461">
        <ele>113</ele>
        <time>2020-05-17T16:42:52.219Z</time>
      </trkpt>
      <trkpt lat="48.19276" lon="-3.81461">
        <ele>113</ele>
        <time>2020-05-17T16:42:53.220Z</time>
      </trkpt>
      <trkpt lat="48.19281" lon="-3.81462">
        <ele>113</ele>
        <time>2020-05-17T16:42:54.219Z</time>
      </trkpt>
      <trkpt lat="48.19286" lon="-3.81462">
        <ele>113</ele>
        <time>2020-05-17T16:42:55.220Z</time>
      </trkpt>
      <trkpt lat="48.19291" lon="-3.81462">
        <ele>113</ele>
        <time>2020-05-17T16:42:56.220Z</time>
      </trkpt>
      <trkpt lat="48.19295" lon="-3.81462">
        <ele>113</ele>
        <time>2020-05-17T16:42:57.219Z</time>
      </trkpt>
      <trkpt lat="48.193" lon="-3.81462">
        <ele>113</ele>
        <time>2020-05-17T16:42:58.220Z</time>
      </trkpt>
      <trkpt lat="48.19304" lon="-3.81461">
        <ele>113</ele>
        <time>2020-05-17T16:42:59.220Z</time>
      </trkpt>
      <trkpt lat="48.19309" lon="-3.81461">
        <ele>113</ele>
        <time>2020-05-17T16:43:00.219Z</time>
      </trkpt>
      <trkpt lat="48.19313" lon="-3.81461">
        <ele>113</ele>
        <time>2020-05-17T16:43:01.220Z</time>
      </trkpt>
      <trkpt lat="48.19317" lon="-3.8146">
        <ele>113</ele>
        <time>2020-05-17T16:43:02.220Z</time>
      </trkpt>
      <trkpt lat="48.19321" lon="-3.8146">
        <ele>113</ele>
        <time>2020-05-17T16:43:03.219Z</time>
      </trkpt>
      <trkpt lat="48.19324" lon="-3.81459">
        <ele>113</ele>
        <time>2020-05-17T16:43:04.220Z</time>
      </trkpt>
      <trkpt lat="48.19327" lon="-3.81459">
        <ele>113</ele>
        <time>2020-05-17T16:43:05.220Z</time>
      </trkpt>
      <trkpt lat="48.1933" lon="-3.81459">
        <ele>112</ele>
        <time>2020-05-17T16:43:06.220Z</time>
      </trkpt>
      <trkpt lat="48.19331" lon="-3.81459">
        <ele>112</ele>
        <time>2020-05-17T16:43:07.220Z</time>
      </trkpt>
      <trkpt lat="48.19334" lon="-3.81459">
        <ele>111</ele>
        <time>2020-05-17T16:43:08.219Z</time>
      </trkpt>
      <trkpt lat="48.19336" lon="-3.8146">
        <ele>111</ele>
        <time>2020-05-17T16:43:09.220Z</time>
      </trkpt>
      <trkpt lat="48.19338" lon="-3.81461">
        <ele>111</ele>
        <time>2020-05-17T16:43:10.220Z</time>
      </trkpt>
      <trkpt lat="48.1934" lon="-3.81462">
        <ele>111</ele>
        <time>2020-05-17T16:43:11.220Z</time>
      </trkpt>
      <trkpt lat="48.19342" lon="-3.81464">
        <ele>111</ele>
        <time>2020-05-17T16:43:12.220Z</time>
      </trkpt>
      <trkpt lat="48.19344" lon="-3.81467">
        <ele>110</ele>
        <time>2020-05-17T16:43:13.220Z</time>
      </trkpt>
      <trkpt lat="48.19345" lon="-3.8147">
        <ele>110</ele>
        <time>2020-05-17T16:43:14.220Z</time>
      </trkpt>
      <trkpt lat="48.19347" lon="-3.81472">
        <ele>110</ele>
        <time>2020-05-17T16:43:15.220Z</time>
      </trkpt>
      <trkpt lat="48.19349" lon="-3.81475">
        <ele>110</ele>
        <time>2020-05-17T16:43:16.220Z</time>
      </trkpt>
      <trkpt lat="48.19351" lon="-3.81478">
        <ele>110</ele>
        <time>2020-05-17T16:43:17.220Z</time>
      </trkpt>
      <trkpt lat="48.19353" lon="-3.81481">
        <ele>110</ele>
        <time>2020-05-17T16:43:18.219Z</time>
      </trkpt>
      <trkpt lat="48.19355" lon="-3.81483">
        <ele>110</ele>
        <time>2020-05-17T16:43:19.220Z</time>
      </trkpt>
      <trkpt lat="48.19356" lon="-3.81486">
        <ele>111</ele>
        <time>2020-05-17T16:43:20.220Z</time>
      </trkpt>
      <trkpt lat="48.19359" lon="-3.81487">
        <ele>111</ele>
        <time>2020-05-17T16:43:21.220Z</time>
      </trkpt>
      <trkpt lat="48.19361" lon="-3.81489">
        <ele>111</ele>
        <time>2020-05-17T16:43:22.220Z</time>
      </trkpt>
      <trkpt lat="48.19362" lon="-3.81491">
        <ele>112</ele>
        <time>2020-05-17T16:43:23.220Z</time>
      </trkpt>
      <trkpt lat="48.19364" lon="-3.81492">
        <ele>112</ele>
        <time>2020-05-17T16:43:24.219Z</time>
      </trkpt>
      <trkpt lat="48.19366" lon="-3.81494">
        <ele>113</ele>
        <time>2020-05-17T16:43:25.220Z</time>
      </trkpt>
      <trkpt lat="48.19368" lon="-3.81496">
        <ele>113</ele>
        <time>2020-05-17T16:43:26.220Z</time>
      </trkpt>
      <trkpt lat="48.1937" lon="-3.81498">
        <ele>114</ele>
        <time>2020-05-17T16:43:27.219Z</time>
      </trkpt>
      <trkpt lat="48.19372" lon="-3.815">
        <ele>114</ele>
        <time>2020-05-17T16:43:28.219Z</time>
      </trkpt>
      <trkpt lat="48.19374" lon="-3.81503">
        <ele>115</ele>
        <time>2020-05-17T16:43:29.220Z</time>
      </trkpt>
      <trkpt lat="48.19376" lon="-3.81505">
        <ele>115</ele>
        <time>2020-05-17T16:43:30.219Z</time>
      </trkpt>
      <trkpt lat="48.19378" lon="-3.81507">
        <ele>116</ele>
        <time>2020-05-17T16:43:31.220Z</time>
      </trkpt>
      <trkpt lat="48.1938" lon="-3.8151">
        <ele>116</ele>
        <time>2020-05-17T16:43:32.220Z</time>
      </trkpt>
      <trkpt lat="48.19382" lon="-3.81511">
        <ele>117</ele>
        <time>2020-05-17T16:43:33.220Z</time>
      </trkpt>
      <trkpt lat="48.19383" lon="-3.81513">
        <ele>117</ele>
        <time>2020-05-17T16:43:34.220Z</time>
      </trkpt>
      <trkpt lat="48.19386" lon="-3.81515">
        <ele>117</ele>
        <time>2020-05-17T16:43:35.220Z</time>
      </trkpt>
      <trkpt lat="48.19388" lon="-3.81516">
        <ele>118</ele>
        <time>2020-05-17T16:43:36.219Z</time>
      </trkpt>
      <trkpt lat="48.1939" lon="-3.81517">
        <ele>118</ele>
        <time>2020-05-17T16:43:37.219Z</time>
      </trkpt>
      <trkpt lat="48.19391" lon="-3.81519">
        <ele>119</ele>
        <time>2020-05-17T16:43:38.220Z</time>
      </trkpt>
      <trkpt lat="48.19393" lon="-3.8152">
        <ele>119</ele>
        <time>2020-05-17T16:43:39.220Z</time>
      </trkpt>
      <trkpt lat="48.19395" lon="-3.81522">
        <ele>119</ele>
        <time>2020-05-17T16:43:40.220Z</time>
      </trkpt>
      <trkpt lat="48.19397" lon="-3.81523">
        <ele>120</ele>
        <time>2020-05-17T16:43:41.219Z</time>
      </trkpt>
      <trkpt lat="48.19399" lon="-3.81525">
        <ele>121</ele>
        <time>2020-05-17T16:43:42.220Z</time>
      </trkpt>
      <trkpt lat="48.19401" lon="-3.81526">
        <ele>121</ele>
        <time>2020-05-17T16:43:43.220Z</time>
      </trkpt>
      <trkpt lat="48.19402" lon="-3.81528">
        <ele>121</ele>
        <time>2020-05-17T16:43:44.220Z</time>
      </trkpt>
      <trkpt lat="48.19404" lon="-3.81529">
        <ele>122</ele>
        <time>2020-05-17T16:43:45.220Z</time>
      </trkpt>
      <trkpt lat="48.19406" lon="-3.81531">
        <ele>122</ele>
        <time>2020-05-17T16:43:46.220Z</time>
      </trkpt>
      <trkpt lat="48.19408" lon="-3.81533">
        <ele>123</ele>
        <time>2020-05-17T16:43:47.220Z</time>
      </trkpt>
      <trkpt lat="48.1941" lon="-3.81534">
        <ele>124</ele>
        <time>2020-05-17T16:43:48.220Z</time>
      </trkpt>
      <trkpt lat="48.19412" lon="-3.81536">
        <ele>124</ele>
        <time>2020-05-17T16:43:49.220Z</time>
      </trkpt>
      <trkpt lat="48.19414" lon="-3.81538">
        <ele>124</ele>
        <time>2020-05-17T16:43:50.220Z</time>
      </trkpt>
      <trkpt lat="48.19416" lon="-3.81539">
        <ele>125</ele>
        <time>2020-05-17T16:43:51.220Z</time>
      </trkpt>
      <trkpt lat="48.19418" lon="-3.81541">
        <ele>125</ele>
        <time>2020-05-17T16:43:52.220Z</time>
      </trkpt>
      <trkpt lat="48.1942" lon="-3.81543">
        <ele>126</ele>
        <time>2020-05-17T16:43:53.219Z</time>
      </trkpt>
      <trkpt lat="48.19422" lon="-3.81545">
        <ele>126</ele>
        <time>2020-05-17T16:43:54.220Z</time>
      </trkpt>
      <trkpt lat="48.19424" lon="-3.81548">
        <ele>126</ele>
        <time>2020-05-17T16:43:55.220Z</time>
      </trkpt>
      <trkpt lat="48.19426" lon="-3.81551">
        <ele>126</ele>
        <time>2020-05-17T16:43:56.220Z</time>
      </trkpt>
      <trkpt lat="48.19428" lon="-3.81553">
        <ele>126</ele>
        <time>2020-05-17T16:43:57.220Z</time>
      </trkpt>
      <trkpt lat="48.1943" lon="-3.81556">
        <ele>127</ele>
        <time>2020-05-17T16:43:58.219Z</time>
      </trkpt>
      <trkpt lat="48.19432" lon="-3.81558">
        <ele>127</ele>
        <time>2020-05-17T16:43:59.220Z</time>
      </trkpt>
      <trkpt lat="48.19435" lon="-3.8156">
        <ele>127</ele>
        <time>2020-05-17T16:44:00.220Z</time>
      </trkpt>
      <trkpt lat="48.19437" lon="-3.81562">
        <ele>127</ele>
        <time>2020-05-17T16:44:01.220Z</time>
      </trkpt>
      <trkpt lat="48.19439" lon="-3.81564">
        <ele>127</ele>
        <time>2020-05-17T16:44:02.219Z</time>
      </trkpt>
      <trkpt lat="48.19441" lon="-3.81566">
        <ele>127</ele>
        <time>2020-05-17T16:44:03.220Z</time>
      </trkpt>
      <trkpt lat="48.19444" lon="-3.81568">
        <ele>127</ele>
        <time>2020-05-17T16:44:04.220Z</time>
      </trkpt>
      <trkpt lat="48.19446" lon="-3.8157">
        <ele>126</ele>
        <time>2020-05-17T16:44:05.220Z</time>
      </trkpt>
      <trkpt lat="48.19449" lon="-3.81572">
        <ele>126</ele>
        <time>2020-05-17T16:44:06.220Z</time>
      </trkpt>
      <trkpt lat="48.19451" lon="-3.81575">
        <ele>126</ele>
        <time>2020-05-17T16:44:07.220Z</time>
      </trkpt>
      <trkpt lat="48.19453" lon="-3.81578">
        <ele>127</ele>
        <time>2020-05-17T16:44:08.220Z</time>
      </trkpt>
      <trkpt lat="48.19453" lon="-3.81581">
        <ele>127</ele>
        <time>2020-05-17T16:44:09.220Z</time>
      </trkpt>
      <trkpt lat="48.19453" lon="-3.81585">
        <ele>127</ele>
        <time>2020-05-17T16:44:10.220Z</time>
      </trkpt>
      <trkpt lat="48.19452" lon="-3.81589">
        <ele>128</ele>
        <time>2020-05-17T16:44:11.219Z</time>
      </trkpt>
      <trkpt lat="48.1945" lon="-3.81592">
        <ele>128</ele>
        <time>2020-05-17T16:44:12.220Z</time>
      </trkpt>
      <trkpt lat="48.19448" lon="-3.81595">
        <ele>129</ele>
        <time>2020-05-17T16:44:13.220Z</time>
      </trkpt>
      <trkpt lat="48.19446" lon="-3.81599">
        <ele>129</ele>
        <time>2020-05-17T16:44:14.220Z</time>
      </trkpt>
      <trkpt lat="48.19443" lon="-3.81602">
        <ele>129</ele>
        <time>2020-05-17T16:44:15.220Z</time>
      </trkpt>
      <trkpt lat="48.19441" lon="-3.81605">
        <ele>128</ele>
        <time>2020-05-17T16:44:16.220Z</time>
      </trkpt>
      <trkpt lat="48.19438" lon="-3.81608">
        <ele>128</ele>
        <time>2020-05-17T16:44:17.220Z</time>
      </trkpt>
      <trkpt lat="48.19435" lon="-3.81611">
        <ele>127</ele>
        <time>2020-05-17T16:44:18.220Z</time>
      </trkpt>
      <trkpt lat="48.19431" lon="-3.81614">
        <ele>127</ele>
        <time>2020-05-17T16:44:19.220Z</time>
      </trkpt>
      <trkpt lat="48.19429" lon="-3.81617">
        <ele>126</ele>
        <time>2020-05-17T16:44:20.220Z</time>
      </trkpt>
      <trkpt lat="48.19427" lon="-3.81621">
        <ele>126</ele>
        <time>2020-05-17T16:44:21.220Z</time>
      </trkpt>
      <trkpt lat="48.19424" lon="-3.81624">
        <ele>125</ele>
        <time>2020-05-17T16:44:22.219Z</time>
      </trkpt>
      <trkpt lat="48.19422" lon="-3.81627">
        <ele>125</ele>
        <time>2020-05-17T16:44:23.220Z</time>
      </trkpt>
      <trkpt lat="48.19419" lon="-3.81631">
        <ele>125</ele>
        <time>2020-05-17T16:44:24.220Z</time>
      </trkpt>
      <trkpt lat="48.19416" lon="-3.81635">
        <ele>125</ele>
        <time>2020-05-17T16:44:25.220Z</time>
      </trkpt>
      <trkpt lat="48.19414" lon="-3.81639">
        <ele>124</ele>
        <time>2020-05-17T16:44:26.220Z</time>
      </trkpt>
      <trkpt lat="48.19411" lon="-3.81643">
        <ele>124</ele>
        <time>2020-05-17T16:44:27.220Z</time>
      </trkpt>
      <trkpt lat="48.19408" lon="-3.81647">
        <ele>123</ele>
        <time>2020-05-17T16:44:28.220Z</time>
      </trkpt>
      <trkpt lat="48.19406" lon="-3.81651">
        <ele>123</ele>
        <time>2020-05-17T16:44:29.220Z</time>
      </trkpt>
      <trkpt lat="48.19404" lon="-3.81656">
        <ele>123</ele>
        <time>2020-05-17T16:44:30.220Z</time>
      </trkpt>
      <trkpt lat="48.19401" lon="-3.81661">
        <ele>123</ele>
        <time>2020-05-17T16:44:31.220Z</time>
      </trkpt>
      <trkpt lat="48.19398" lon="-3.81666">
        <ele>122</ele>
        <time>2020-05-17T16:44:32.219Z</time>
      </trkpt>
      <trkpt lat="48.19395" lon="-3.81671">
        <ele>123</ele>
        <time>2020-05-17T16:44:33.220Z</time>
      </trkpt>
      <trkpt lat="48.19393" lon="-3.81675">
        <ele>122</ele>
        <time>2020-05-17T16:44:34.220Z</time>
      </trkpt>
      <trkpt lat="48.1939" lon="-3.8168">
        <ele>122</ele>
        <time>2020-05-17T16:44:35.220Z</time>
      </trkpt>
      <trkpt lat="48.19388" lon="-3.81685">
        <ele>122</ele>
        <time>2020-05-17T16:44:36.219Z</time>
      </trkpt>
      <trkpt lat="48.19385" lon="-3.8169">
        <ele>122</ele>
        <time>2020-05-17T16:44:37.220Z</time>
      </trkpt>
      <trkpt lat="48.19383" lon="-3.81695">
        <ele>122</ele>
        <time>2020-05-17T16:44:38.219Z</time>
      </trkpt>
      <trkpt lat="48.19381" lon="-3.817">
        <ele>122</ele>
        <time>2020-05-17T16:44:39.219Z</time>
      </trkpt>
      <trkpt lat="48.19378" lon="-3.81705">
        <ele>122</ele>
        <time>2020-05-17T16:44:40.219Z</time>
      </trkpt>
      <trkpt lat="48.19376" lon="-3.8171">
        <ele>122</ele>
        <time>2020-05-17T16:44:41.220Z</time>
      </trkpt>
      <trkpt lat="48.19374" lon="-3.81715">
        <ele>122</ele>
        <time>2020-05-17T16:44:42.219Z</time>
      </trkpt>
      <trkpt lat="48.19372" lon="-3.8172">
        <ele>122</ele>
        <time>2020-05-17T16:44:43.220Z</time>
      </trkpt>
      <trkpt lat="48.1937" lon="-3.81726">
        <ele>122</ele>
        <time>2020-05-17T16:44:44.220Z</time>
      </trkpt>
      <trkpt lat="48.19368" lon="-3.81731">
        <ele>122</ele>
        <time>2020-05-17T16:44:45.220Z</time>
      </trkpt>
      <trkpt lat="48.19366" lon="-3.81736">
        <ele>123</ele>
        <time>2020-05-17T16:44:46.220Z</time>
      </trkpt>
      <trkpt lat="48.19365" lon="-3.81741">
        <ele>123</ele>
        <time>2020-05-17T16:44:47.220Z</time>
      </trkpt>
      <trkpt lat="48.19363" lon="-3.81747">
        <ele>123</ele>
        <time>2020-05-17T16:44:48.220Z</time>
      </trkpt>
      <trkpt lat="48.19361" lon="-3.81752">
        <ele>123</ele>
        <time>2020-05-17T16:44:49.220Z</time>
      </trkpt>
      <trkpt lat="48.19359" lon="-3.81757">
        <ele>123</ele>
        <time>2020-05-17T16:44:50.220Z</time>
      </trkpt>
      <trkpt lat="48.19357" lon="-3.81762">
        <ele>123</ele>
        <time>2020-05-17T16:44:51.220Z</time>
      </trkpt>
      <trkpt lat="48.19355" lon="-3.81767">
        <ele>123</ele>
        <time>2020-05-17T16:44:52.219Z</time>
      </trkpt>
      <trkpt lat="48.19354" lon="-3.81772">
        <ele>124</ele>
        <time>2020-05-17T16:44:53.219Z</time>
      </trkpt>
      <trkpt lat="48.19352" lon="-3.81778">
        <ele>123</ele>
        <time>2020-05-17T16:44:54.220Z</time>
      </trkpt>
      <trkpt lat="48.19351" lon="-3.81783">
        <ele>123</ele>
        <time>2020-05-17T16:44:55.220Z</time>
      </trkpt>
      <trkpt lat="48.1935" lon="-3.81788">
        <ele>124</ele>
        <time>2020-05-17T16:44:56.220Z</time>
      </trkpt>
      <trkpt lat="48.19349" lon="-3.81794">
        <ele>124</ele>
        <time>2020-05-17T16:44:57.220Z</time>
      </trkpt>
      <trkpt lat="48.19347" lon="-3.81799">
        <ele>124</ele>
        <time>2020-05-17T16:44:58.220Z</time>
      </trkpt>
      <trkpt lat="48.19346" lon="-3.81804">
        <ele>124</ele>
        <time>2020-05-17T16:44:59.220Z</time>
      </trkpt>
      <trkpt lat="48.19345" lon="-3.81809">
        <ele>124</ele>
        <time>2020-05-17T16:45:00.219Z</time>
      </trkpt>
      <trkpt lat="48.19343" lon="-3.81815">
        <ele>124</ele>
        <time>2020-05-17T16:45:01.220Z</time>
      </trkpt>
      <trkpt lat="48.19342" lon="-3.81821">
        <ele>124</ele>
        <time>2020-05-17T16:45:02.220Z</time>
      </trkpt>
      <trkpt lat="48.1934" lon="-3.81827">
        <ele>124</ele>
        <time>2020-05-17T16:45:03.220Z</time>
      </trkpt>
      <trkpt lat="48.19339" lon="-3.81833">
        <ele>124</ele>
        <time>2020-05-17T16:45:04.220Z</time>
      </trkpt>
      <trkpt lat="48.19338" lon="-3.81838">
        <ele>124</ele>
        <time>2020-05-17T16:45:05.220Z</time>
      </trkpt>
      <trkpt lat="48.19337" lon="-3.81844">
        <ele>124</ele>
        <time>2020-05-17T16:45:06.220Z</time>
      </trkpt>
      <trkpt lat="48.19336" lon="-3.81848">
        <ele>125</ele>
        <time>2020-05-17T16:45:07.220Z</time>
      </trkpt>
      <trkpt lat="48.19334" lon="-3.81854">
        <ele>125</ele>
        <time>2020-05-17T16:45:08.219Z</time>
      </trkpt>
      <trkpt lat="48.19333" lon="-3.8186">
        <ele>125</ele>
        <time>2020-05-17T16:45:09.220Z</time>
      </trkpt>
      <trkpt lat="48.19332" lon="-3.81864">
        <ele>124</ele>
        <time>2020-05-17T16:45:10.219Z</time>
      </trkpt>
      <trkpt lat="48.19331" lon="-3.8187">
        <ele>124</ele>
        <time>2020-05-17T16:45:11.220Z</time>
      </trkpt>
      <trkpt lat="48.19329" lon="-3.81875">
        <ele>124</ele>
        <time>2020-05-17T16:45:12.220Z</time>
      </trkpt>
      <trkpt lat="48.19328" lon="-3.81881">
        <ele>124</ele>
        <time>2020-05-17T16:45:13.220Z</time>
      </trkpt>
      <trkpt lat="48.19326" lon="-3.81886">
        <ele>124</ele>
        <time>2020-05-17T16:45:14.220Z</time>
      </trkpt>
      <trkpt lat="48.19325" lon="-3.81892">
        <ele>125</ele>
        <time>2020-05-17T16:45:15.220Z</time>
      </trkpt>
      <trkpt lat="48.19323" lon="-3.81897">
        <ele>125</ele>
        <time>2020-05-17T16:45:16.220Z</time>
      </trkpt>
      <trkpt lat="48.19322" lon="-3.81902">
        <ele>125</ele>
        <time>2020-05-17T16:45:17.220Z</time>
      </trkpt>
      <trkpt lat="48.19321" lon="-3.81907">
        <ele>125</ele>
        <time>2020-05-17T16:45:18.220Z</time>
      </trkpt>
      <trkpt lat="48.19319" lon="-3.81912">
        <ele>125</ele>
        <time>2020-05-17T16:45:19.220Z</time>
      </trkpt>
      <trkpt lat="48.19318" lon="-3.81915">
        <ele>125</ele>
        <time>2020-05-17T16:45:20.220Z</time>
      </trkpt>
      <trkpt lat="48.19317" lon="-3.81915">
        <ele>125</ele>
        <time>2020-05-17T16:45:21.220Z</time>
      </trkpt>
      <trkpt lat="48.19317" lon="-3.81914">
        <ele>125</ele>
        <time>2020-05-17T16:45:22.219Z</time>
      </trkpt>
      <trkpt lat="48.19317" lon="-3.81912">
        <ele>125</ele>
        <time>2020-05-17T16:45:23.220Z</time>
      </trkpt>
      <trkpt lat="48.19318" lon="-3.81908">
        <ele>125</ele>
        <time>2020-05-17T16:45:24.219Z</time>
      </trkpt>
      <trkpt lat="48.19319" lon="-3.81904">
        <ele>124</ele>
        <time>2020-05-17T16:45:25.220Z</time>
      </trkpt>
      <trkpt lat="48.19319" lon="-3.81897">
        <ele>124</ele>
        <time>2020-05-17T16:45:26.219Z</time>
      </trkpt>
      <trkpt lat="48.1932" lon="-3.81892">
        <ele>124</ele>
        <time>2020-05-17T16:45:27.220Z</time>
      </trkpt>
      <trkpt lat="48.1932" lon="-3.81886">
        <ele>124</ele>
        <time>2020-05-17T16:45:28.220Z</time>
      </trkpt>
      <trkpt lat="48.1932" lon="-3.81881">
        <ele>124</ele>
        <time>2020-05-17T16:45:29.220Z</time>
      </trkpt>
      <trkpt lat="48.1932" lon="-3.81877">
        <ele>124</ele>
        <time>2020-05-17T16:45:30.220Z</time>
      </trkpt>
      <trkpt lat="48.1932" lon="-3.81874">
        <ele>124</ele>
        <time>2020-05-17T16:45:31.220Z</time>
      </trkpt>
      <trkpt lat="48.1932" lon="-3.81871">
        <ele>124</ele>
        <time>2020-05-17T16:45:32.220Z</time>
      </trkpt>
      <trkpt lat="48.1932" lon="-3.81869">
        <ele>125</ele>
        <time>2020-05-17T16:45:33.220Z</time>
      </trkpt>
      <trkpt lat="48.1932" lon="-3.81867">
        <ele>125</ele>
        <time>2020-05-17T16:45:34.220Z</time>
      </trkpt>
      <trkpt lat="48.1932" lon="-3.81865">
        <ele>125</ele>
        <time>2020-05-17T16:45:35.220Z</time>
      </trkpt>
      <trkpt lat="48.1932" lon="-3.81863">
        <ele>125</ele>
        <time>2020-05-17T16:45:36.220Z</time>
      </trkpt>
      <trkpt lat="48.1932" lon="-3.81862">
        <ele>125</ele>
        <time>2020-05-17T16:45:37.220Z</time>
      </trkpt>
      <trkpt lat="48.19321" lon="-3.8186">
        <ele>125</ele>
        <time>2020-05-17T16:45:38.220Z</time>
      </trkpt>
      <trkpt lat="48.19321" lon="-3.81858">
        <ele>126</ele>
        <time>2020-05-17T16:45:39.220Z</time>
      </trkpt>
      <trkpt lat="48.19322" lon="-3.81856">
        <ele>126</ele>
        <time>2020-05-17T16:45:40.220Z</time>
      </trkpt>
      <trkpt lat="48.19323" lon="-3.81854">
        <ele>126</ele>
        <time>2020-05-17T16:45:41.220Z</time>
      </trkpt>
      <trkpt lat="48.19325" lon="-3.81852">
        <ele>126</ele>
        <time>2020-05-17T16:45:42.220Z</time>
      </trkpt>
      <trkpt lat="48.19327" lon="-3.81851">
        <ele>126</ele>
        <time>2020-05-17T16:45:43.220Z</time>
      </trkpt>
      <trkpt lat="48.19328" lon="-3.81852">
        <ele>126</ele>
        <time>2020-05-17T16:45:44.220Z</time>
      </trkpt>
      <trkpt lat="48.19329" lon="-3.81855">
        <ele>126</ele>
        <time>2020-05-17T16:45:45.220Z</time>
      </trkpt>
      <trkpt lat="48.19329" lon="-3.81858">
        <ele>126</ele>
        <time>2020-05-17T16:45:46.220Z</time>
      </trkpt>
      <trkpt lat="48.1933" lon="-3.81861">
        <ele>126</ele>
        <time>2020-05-17T16:45:47.220Z</time>
      </trkpt>
      <trkpt lat="48.1933" lon="-3.81865">
        <ele>126</ele>
        <time>2020-05-17T16:45:48.220Z</time>
      </trkpt>
      <trkpt lat="48.19329" lon="-3.81869">
        <ele>126</ele>
        <time>2020-05-17T16:45:49.220Z</time>
      </trkpt>
      <trkpt lat="48.19329" lon="-3.81874">
        <ele>126</ele>
        <time>2020-05-17T16:45:50.220Z</time>
      </trkpt>
      <trkpt lat="48.19328" lon="-3.81878">
        <ele>126</ele>
        <time>2020-05-17T16:45:51.219Z</time>
      </trkpt>
      <trkpt lat="48.19327" lon="-3.81883">
        <ele>126</ele>
        <time>2020-05-17T16:45:52.220Z</time>
      </trkpt>
      <trkpt lat="48.19326" lon="-3.81887">
        <ele>126</ele>
        <time>2020-05-17T16:45:53.220Z</time>
      </trkpt>
      <trkpt lat="48.19325" lon="-3.81891">
        <ele>126</ele>
        <time>2020-05-17T16:45:54.220Z</time>
      </trkpt>
      <trkpt lat="48.19324" lon="-3.81896">
        <ele>125</ele>
        <time>2020-05-17T16:45:55.220Z</time>
      </trkpt>
      <trkpt lat="48.19323" lon="-3.819">
        <ele>125</ele>
        <time>2020-05-17T16:45:56.220Z</time>
      </trkpt>
      <trkpt lat="48.19322" lon="-3.81904">
        <ele>125</ele>
        <time>2020-05-17T16:45:57.220Z</time>
      </trkpt>
      <trkpt lat="48.19321" lon="-3.81909">
        <ele>124</ele>
        <time>2020-05-17T16:45:58.220Z</time>
      </trkpt>
      <trkpt lat="48.1932" lon="-3.81913">
        <ele>124</ele>
        <time>2020-05-17T16:45:59.220Z</time>
      </trkpt>
      <trkpt lat="48.19319" lon="-3.81918">
        <ele>124</ele>
        <time>2020-05-17T16:46:00.220Z</time>
      </trkpt>
      <trkpt lat="48.19318" lon="-3.81922">
        <ele>124</ele>
        <time>2020-05-17T16:46:01.220Z</time>
      </trkpt>
      <trkpt lat="48.19317" lon="-3.81927">
        <ele>124</ele>
        <time>2020-05-17T16:46:02.220Z</time>
      </trkpt>
      <trkpt lat="48.19315" lon="-3.81932">
        <ele>124</ele>
        <time>2020-05-17T16:46:03.220Z</time>
      </trkpt>
      <trkpt lat="48.19314" lon="-3.81936">
        <ele>124</ele>
        <time>2020-05-17T16:46:04.220Z</time>
      </trkpt>
      <trkpt lat="48.19313" lon="-3.81941">
        <ele>124</ele>
        <time>2020-05-17T16:46:05.220Z</time>
      </trkpt>
      <trkpt lat="48.19312" lon="-3.81946">
        <ele>124</ele>
        <time>2020-05-17T16:46:06.220Z</time>
      </trkpt>
      <trkpt lat="48.19311" lon="-3.81951">
        <ele>125</ele>
        <time>2020-05-17T16:46:07.220Z</time>
      </trkpt>
      <trkpt lat="48.19309" lon="-3.81956">
        <ele>125</ele>
        <time>2020-05-17T16:46:08.220Z</time>
      </trkpt>
      <trkpt lat="48.19308" lon="-3.8196">
        <ele>125</ele>
        <time>2020-05-17T16:46:09.220Z</time>
      </trkpt>
      <trkpt lat="48.19307" lon="-3.81965">
        <ele>125</ele>
        <time>2020-05-17T16:46:10.219Z</time>
      </trkpt>
      <trkpt lat="48.19306" lon="-3.8197">
        <ele>125</ele>
        <time>2020-05-17T16:46:11.220Z</time>
      </trkpt>
      <trkpt lat="48.19305" lon="-3.81974">
        <ele>125</ele>
        <time>2020-05-17T16:46:12.220Z</time>
      </trkpt>
      <trkpt lat="48.19304" lon="-3.81979">
        <ele>126</ele>
        <time>2020-05-17T16:46:13.220Z</time>
      </trkpt>
      <trkpt lat="48.19304" lon="-3.81984">
        <ele>126</ele>
        <time>2020-05-17T16:46:14.219Z</time>
      </trkpt>
      <trkpt lat="48.19303" lon="-3.81988">
        <ele>127</ele>
        <time>2020-05-17T16:46:15.220Z</time>
      </trkpt>
      <trkpt lat="48.19303" lon="-3.81993">
        <ele>128</ele>
        <time>2020-05-17T16:46:16.220Z</time>
      </trkpt>
      <trkpt lat="48.19303" lon="-3.81997">
        <ele>128</ele>
        <time>2020-05-17T16:46:17.220Z</time>
      </trkpt>
      <trkpt lat="48.19303" lon="-3.82001">
        <ele>129</ele>
        <time>2020-05-17T16:46:18.220Z</time>
      </trkpt>
      <trkpt lat="48.19303" lon="-3.82006">
        <ele>129</ele>
        <time>2020-05-17T16:46:19.220Z</time>
      </trkpt>
      <trkpt lat="48.19302" lon="-3.82012">
        <ele>130</ele>
        <time>2020-05-17T16:46:20.220Z</time>
      </trkpt>
      <trkpt lat="48.19303" lon="-3.82018">
        <ele>131</ele>
        <time>2020-05-17T16:46:21.220Z</time>
      </trkpt>
      <trkpt lat="48.19303" lon="-3.82024">
        <ele>131</ele>
        <time>2020-05-17T16:46:22.220Z</time>
      </trkpt>
      <trkpt lat="48.19303" lon="-3.8203">
        <ele>132</ele>
        <time>2020-05-17T16:46:23.220Z</time>
      </trkpt>
      <trkpt lat="48.19303" lon="-3.82036">
        <ele>132</ele>
        <time>2020-05-17T16:46:24.220Z</time>
      </trkpt>
      <trkpt lat="48.19303" lon="-3.82042">
        <ele>133</ele>
        <time>2020-05-17T16:46:25.220Z</time>
      </trkpt>
      <trkpt lat="48.19304" lon="-3.82047">
        <ele>133</ele>
        <time>2020-05-17T16:46:26.219Z</time>
      </trkpt>
      <trkpt lat="48.19305" lon="-3.82054">
        <ele>134</ele>
        <time>2020-05-17T16:46:27.220Z</time>
      </trkpt>
      <trkpt lat="48.19305" lon="-3.82059">
        <ele>134</ele>
        <time>2020-05-17T16:46:28.220Z</time>
      </trkpt>
      <trkpt lat="48.19306" lon="-3.82065">
        <ele>134</ele>
        <time>2020-05-17T16:46:29.220Z</time>
      </trkpt>
      <trkpt lat="48.19307" lon="-3.82071">
        <ele>134</ele>
        <time>2020-05-17T16:46:30.220Z</time>
      </trkpt>
      <trkpt lat="48.19309" lon="-3.82076">
        <ele>134</ele>
        <time>2020-05-17T16:46:31.220Z</time>
      </trkpt>
      <trkpt lat="48.19309" lon="-3.82082">
        <ele>133</ele>
        <time>2020-05-17T16:46:32.220Z</time>
      </trkpt>
      <trkpt lat="48.1931" lon="-3.82087">
        <ele>133</ele>
        <time>2020-05-17T16:46:33.220Z</time>
      </trkpt>
      <trkpt lat="48.1931" lon="-3.82093">
        <ele>133</ele>
        <time>2020-05-17T16:46:34.220Z</time>
      </trkpt>
      <trkpt lat="48.19311" lon="-3.82099">
        <ele>133</ele>
        <time>2020-05-17T16:46:35.220Z</time>
      </trkpt>
      <trkpt lat="48.19313" lon="-3.82105">
        <ele>133</ele>
        <time>2020-05-17T16:46:36.220Z</time>
      </trkpt>
      <trkpt lat="48.19314" lon="-3.82111">
        <ele>132</ele>
        <time>2020-05-17T16:46:37.220Z</time>
      </trkpt>
      <trkpt lat="48.19315" lon="-3.82117">
        <ele>133</ele>
        <time>2020-05-17T16:46:38.220Z</time>
      </trkpt>
      <trkpt lat="48.19316" lon="-3.82123">
        <ele>133</ele>
        <time>2020-05-17T16:46:39.219Z</time>
      </trkpt>
      <trkpt lat="48.19317" lon="-3.82129">
        <ele>133</ele>
        <time>2020-05-17T16:46:40.220Z</time>
      </trkpt>
      <trkpt lat="48.19318" lon="-3.82135">
        <ele>133</ele>
        <time>2020-05-17T16:46:41.220Z</time>
      </trkpt>
      <trkpt lat="48.19319" lon="-3.8214">
        <ele>133</ele>
        <time>2020-05-17T16:46:42.220Z</time>
      </trkpt>
      <trkpt lat="48.1932" lon="-3.82146">
        <ele>133</ele>
        <time>2020-05-17T16:46:43.220Z</time>
      </trkpt>
      <trkpt lat="48.19322" lon="-3.82151">
        <ele>132</ele>
        <time>2020-05-17T16:46:44.220Z</time>
      </trkpt>
      <trkpt lat="48.19323" lon="-3.82157">
        <ele>132</ele>
        <time>2020-05-17T16:46:45.220Z</time>
      </trkpt>
      <trkpt lat="48.19324" lon="-3.82163">
        <ele>132</ele>
        <time>2020-05-17T16:46:46.220Z</time>
      </trkpt>
      <trkpt lat="48.19326" lon="-3.82168">
        <ele>132</ele>
        <time>2020-05-17T16:46:47.220Z</time>
      </trkpt>
      <trkpt lat="48.19328" lon="-3.82173">
        <ele>131</ele>
        <time>2020-05-17T16:46:48.220Z</time>
      </trkpt>
      <trkpt lat="48.1933" lon="-3.82178">
        <ele>131</ele>
        <time>2020-05-17T16:46:49.220Z</time>
      </trkpt>
      <trkpt lat="48.19332" lon="-3.82183">
        <ele>130</ele>
        <time>2020-05-17T16:46:50.219Z</time>
      </trkpt>
      <trkpt lat="48.19335" lon="-3.82188">
        <ele>130</ele>
        <time>2020-05-17T16:46:51.220Z</time>
      </trkpt>
      <trkpt lat="48.19337" lon="-3.82193">
        <ele>130</ele>
        <time>2020-05-17T16:46:52.219Z</time>
      </trkpt>
      <trkpt lat="48.19339" lon="-3.82198">
        <ele>129</ele>
        <time>2020-05-17T16:46:53.220Z</time>
      </trkpt>
      <trkpt lat="48.19341" lon="-3.82203">
        <ele>129</ele>
        <time>2020-05-17T16:46:54.220Z</time>
      </trkpt>
      <trkpt lat="48.19344" lon="-3.82208">
        <ele>129</ele>
        <time>2020-05-17T16:46:55.219Z</time>
      </trkpt>
      <trkpt lat="48.19346" lon="-3.82213">
        <ele>129</ele>
        <time>2020-05-17T16:46:56.220Z</time>
      </trkpt>
      <trkpt lat="48.19348" lon="-3.82217">
        <ele>129</ele>
        <time>2020-05-17T16:46:57.220Z</time>
      </trkpt>
      <trkpt lat="48.1935" lon="-3.82222">
        <ele>128</ele>
        <time>2020-05-17T16:46:58.220Z</time>
      </trkpt>
      <trkpt lat="48.19353" lon="-3.82226">
        <ele>128</ele>
        <time>2020-05-17T16:46:59.220Z</time>
      </trkpt>
      <trkpt lat="48.19355" lon="-3.82231">
        <ele>128</ele>
        <time>2020-05-17T16:47:00.220Z</time>
      </trkpt>
      <trkpt lat="48.19358" lon="-3.82235">
        <ele>128</ele>
        <time>2020-05-17T16:47:01.220Z</time>
      </trkpt>
      <trkpt lat="48.19361" lon="-3.82239">
        <ele>127</ele>
        <time>2020-05-17T16:47:02.220Z</time>
      </trkpt>
      <trkpt lat="48.19364" lon="-3.82243">
        <ele>127</ele>
        <time>2020-05-17T16:47:03.220Z</time>
      </trkpt>
      <trkpt lat="48.19367" lon="-3.82247">
        <ele>127</ele>
        <time>2020-05-17T16:47:04.220Z</time>
      </trkpt>
      <trkpt lat="48.19369" lon="-3.82252">
        <ele>127</ele>
        <time>2020-05-17T16:47:05.220Z</time>
      </trkpt>
      <trkpt lat="48.19371" lon="-3.82257">
        <ele>127</ele>
        <time>2020-05-17T16:47:06.220Z</time>
      </trkpt>
      <trkpt lat="48.19372" lon="-3.82263">
        <ele>127</ele>
        <time>2020-05-17T16:47:07.220Z</time>
      </trkpt>
      <trkpt lat="48.19375" lon="-3.82268">
        <ele>128</ele>
        <time>2020-05-17T16:47:08.220Z</time>
      </trkpt>
      <trkpt lat="48.19378" lon="-3.82272">
        <ele>127</ele>
        <time>2020-05-17T16:47:09.220Z</time>
      </trkpt>
      <trkpt lat="48.19381" lon="-3.82277">
        <ele>127</ele>
        <time>2020-05-17T16:47:10.219Z</time>
      </trkpt>
      <trkpt lat="48.19384" lon="-3.8228">
        <ele>127</ele>
        <time>2020-05-17T16:47:11.220Z</time>
      </trkpt>
      <trkpt lat="48.19387" lon="-3.82284">
        <ele>126</ele>
        <time>2020-05-17T16:47:12.220Z</time>
      </trkpt>
      <trkpt lat="48.1939" lon="-3.82288">
        <ele>126</ele>
        <time>2020-05-17T16:47:13.220Z</time>
      </trkpt>
      <trkpt lat="48.19392" lon="-3.82292">
        <ele>126</ele>
        <time>2020-05-17T16:47:14.220Z</time>
      </trkpt>
      <trkpt lat="48.19396" lon="-3.82295">
        <ele>125</ele>
        <time>2020-05-17T16:47:15.220Z</time>
      </trkpt>
      <trkpt lat="48.19399" lon="-3.82298">
        <ele>125</ele>
        <time>2020-05-17T16:47:16.219Z</time>
      </trkpt>
      <trkpt lat="48.19403" lon="-3.82301">
        <ele>124</ele>
        <time>2020-05-17T16:47:17.220Z</time>
      </trkpt>
      <trkpt lat="48.19407" lon="-3.82304">
        <ele>124</ele>
        <time>2020-05-17T16:47:18.220Z</time>
      </trkpt>
      <trkpt lat="48.19411" lon="-3.82307">
        <ele>124</ele>
        <time>2020-05-17T16:47:19.220Z</time>
      </trkpt>
      <trkpt lat="48.19416" lon="-3.8231">
        <ele>123</ele>
        <time>2020-05-17T16:47:20.220Z</time>
      </trkpt>
      <trkpt lat="48.19421" lon="-3.82313">
        <ele>123</ele>
        <time>2020-05-17T16:47:21.220Z</time>
      </trkpt>
      <trkpt lat="48.19425" lon="-3.82317">
        <ele>122</ele>
        <time>2020-05-17T16:47:22.220Z</time>
      </trkpt>
      <trkpt lat="48.1943" lon="-3.82321">
        <ele>122</ele>
        <time>2020-05-17T16:47:23.219Z</time>
      </trkpt>
      <trkpt lat="48.19434" lon="-3.82324">
        <ele>121</ele>
        <time>2020-05-17T16:47:24.220Z</time>
      </trkpt>
      <trkpt lat="48.19439" lon="-3.82328">
        <ele>121</ele>
        <time>2020-05-17T16:47:25.220Z</time>
      </trkpt>
      <trkpt lat="48.19444" lon="-3.82332">
        <ele>121</ele>
        <time>2020-05-17T16:47:26.220Z</time>
      </trkpt>
      <trkpt lat="48.19448" lon="-3.82336">
        <ele>121</ele>
        <time>2020-05-17T16:47:27.220Z</time>
      </trkpt>
      <trkpt lat="48.19452" lon="-3.8234">
        <ele>121</ele>
        <time>2020-05-17T16:47:28.220Z</time>
      </trkpt>
      <trkpt lat="48.19456" lon="-3.82343">
        <ele>120</ele>
        <time>2020-05-17T16:47:29.220Z</time>
      </trkpt>
      <trkpt lat="48.19459" lon="-3.82346">
        <ele>120</ele>
        <time>2020-05-17T16:47:30.219Z</time>
      </trkpt>
      <trkpt lat="48.19463" lon="-3.8235">
        <ele>120</ele>
        <time>2020-05-17T16:47:31.220Z</time>
      </trkpt>
      <trkpt lat="48.19467" lon="-3.82353">
        <ele>120</ele>
        <time>2020-05-17T16:47:32.220Z</time>
      </trkpt>
      <trkpt lat="48.1947" lon="-3.82357">
        <ele>120</ele>
        <time>2020-05-17T16:47:33.220Z</time>
      </trkpt>
      <trkpt lat="48.19475" lon="-3.8236">
        <ele>120</ele>
        <time>2020-05-17T16:47:34.220Z</time>
      </trkpt>
      <trkpt lat="48.19479" lon="-3.82364">
        <ele>119</ele>
        <time>2020-05-17T16:47:35.219Z</time>
      </trkpt>
      <trkpt lat="48.19483" lon="-3.82366">
        <ele>119</ele>
        <time>2020-05-17T16:47:36.220Z</time>
      </trkpt>
      <trkpt lat="48.19487" lon="-3.8237">
        <ele>119</ele>
        <time>2020-05-17T16:47:37.220Z</time>
      </trkpt>
      <trkpt lat="48.19491" lon="-3.82373">
        <ele>119</ele>
        <time>2020-05-17T16:47:38.220Z</time>
      </trkpt>
      <trkpt lat="48.19495" lon="-3.82377">
        <ele>119</ele>
        <time>2020-05-17T16:47:39.220Z</time>
      </trkpt>
      <trkpt lat="48.19498" lon="-3.82379">
        <ele>118</ele>
        <time>2020-05-17T16:47:40.220Z</time>
      </trkpt>
      <trkpt lat="48.19501" lon="-3.82382">
        <ele>118</ele>
        <time>2020-05-17T16:47:41.220Z</time>
      </trkpt>
      <trkpt lat="48.19505" lon="-3.82385">
        <ele>118</ele>
        <time>2020-05-17T16:47:42.220Z</time>
      </trkpt>
      <trkpt lat="48.19508" lon="-3.82388">
        <ele>118</ele>
        <time>2020-05-17T16:47:43.220Z</time>
      </trkpt>
      <trkpt lat="48.19512" lon="-3.82392">
        <ele>118</ele>
        <time>2020-05-17T16:47:44.220Z</time>
      </trkpt>
      <trkpt lat="48.19515" lon="-3.82396">
        <ele>118</ele>
        <time>2020-05-17T16:47:45.220Z</time>
      </trkpt>
      <trkpt lat="48.19519" lon="-3.82399">
        <ele>118</ele>
        <time>2020-05-17T16:47:46.220Z</time>
      </trkpt>
      <trkpt lat="48.19524" lon="-3.82404">
        <ele>118</ele>
        <time>2020-05-17T16:47:47.220Z</time>
      </trkpt>
      <trkpt lat="48.1953" lon="-3.8241">
        <ele>118</ele>
        <time>2020-05-17T16:47:48.219Z</time>
      </trkpt>
      <trkpt lat="48.19534" lon="-3.82413">
        <ele>118</ele>
        <time>2020-05-17T16:47:49.220Z</time>
      </trkpt>
      <trkpt lat="48.19538" lon="-3.82415">
        <ele>118</ele>
        <time>2020-05-17T16:47:50.219Z</time>
      </trkpt>
      <trkpt lat="48.19541" lon="-3.82418">
        <ele>118</ele>
        <time>2020-05-17T16:47:51.220Z</time>
      </trkpt>
      <trkpt lat="48.19544" lon="-3.82421">
        <ele>118</ele>
        <time>2020-05-17T16:47:52.220Z</time>
      </trkpt>
      <trkpt lat="48.19547" lon="-3.82425">
        <ele>118</ele>
        <time>2020-05-17T16:47:53.220Z</time>
      </trkpt>
      <trkpt lat="48.1955" lon="-3.82429">
        <ele>118</ele>
        <time>2020-05-17T16:47:54.220Z</time>
      </trkpt>
      <trkpt lat="48.19552" lon="-3.82433">
        <ele>117</ele>
        <time>2020-05-17T16:47:55.220Z</time>
      </trkpt>
      <trkpt lat="48.19555" lon="-3.82437">
        <ele>117</ele>
        <time>2020-05-17T16:47:56.220Z</time>
      </trkpt>
      <trkpt lat="48.19557" lon="-3.82441">
        <ele>117</ele>
        <time>2020-05-17T16:47:57.220Z</time>
      </trkpt>
      <trkpt lat="48.1956" lon="-3.82445">
        <ele>117</ele>
        <time>2020-05-17T16:47:58.220Z</time>
      </trkpt>
      <trkpt lat="48.19563" lon="-3.82451">
        <ele>117</ele>
        <time>2020-05-17T16:47:59.220Z</time>
      </trkpt>
      <trkpt lat="48.19567" lon="-3.82456">
        <ele>117</ele>
        <time>2020-05-17T16:48:00.220Z</time>
      </trkpt>
      <trkpt lat="48.1957" lon="-3.82462">
        <ele>117</ele>
        <time>2020-05-17T16:48:01.220Z</time>
      </trkpt>
      <trkpt lat="48.19574" lon="-3.82469">
        <ele>116</ele>
        <time>2020-05-17T16:48:02.220Z</time>
      </trkpt>
      <trkpt lat="48.19576" lon="-3.82474">
        <ele>116</ele>
        <time>2020-05-17T16:48:03.220Z</time>
      </trkpt>
      <trkpt lat="48.19579" lon="-3.82481">
        <ele>116</ele>
        <time>2020-05-17T16:48:04.220Z</time>
      </trkpt>
      <trkpt lat="48.19582" lon="-3.82487">
        <ele>116</ele>
        <time>2020-05-17T16:48:05.220Z</time>
      </trkpt>
      <trkpt lat="48.19585" lon="-3.82493">
        <ele>116</ele>
        <time>2020-05-17T16:48:06.220Z</time>
      </trkpt>
      <trkpt lat="48.19586" lon="-3.82498">
        <ele>116</ele>
        <time>2020-05-17T16:48:07.220Z</time>
      </trkpt>
      <trkpt lat="48.19588" lon="-3.82503">
        <ele>116</ele>
        <time>2020-05-17T16:48:08.220Z</time>
      </trkpt>
      <trkpt lat="48.1959" lon="-3.82509">
        <ele>115</ele>
        <time>2020-05-17T16:48:09.219Z</time>
      </trkpt>
      <trkpt lat="48.19592" lon="-3.82515">
        <ele>115</ele>
        <time>2020-05-17T16:48:10.219Z</time>
      </trkpt>
      <trkpt lat="48.19594" lon="-3.82522">
        <ele>116</ele>
        <time>2020-05-17T16:48:11.220Z</time>
      </trkpt>
      <trkpt lat="48.19596" lon="-3.82527">
        <ele>116</ele>
        <time>2020-05-17T16:48:12.220Z</time>
      </trkpt>
      <trkpt lat="48.19597" lon="-3.82533">
        <ele>116</ele>
        <time>2020-05-17T16:48:13.220Z</time>
      </trkpt>
      <trkpt lat="48.19599" lon="-3.82538">
        <ele>117</ele>
        <time>2020-05-17T16:48:14.220Z</time>
      </trkpt>
      <trkpt lat="48.19601" lon="-3.82544">
        <ele>117</ele>
        <time>2020-05-17T16:48:15.220Z</time>
      </trkpt>
      <trkpt lat="48.19602" lon="-3.8255">
        <ele>117</ele>
        <time>2020-05-17T16:48:16.220Z</time>
      </trkpt>
      <trkpt lat="48.19604" lon="-3.82555">
        <ele>118</ele>
        <time>2020-05-17T16:48:17.219Z</time>
      </trkpt>
      <trkpt lat="48.19604" lon="-3.82561">
        <ele>118</ele>
        <time>2020-05-17T16:48:18.220Z</time>
      </trkpt>
      <trkpt lat="48.19606" lon="-3.82567">
        <ele>118</ele>
        <time>2020-05-17T16:48:19.220Z</time>
      </trkpt>
      <trkpt lat="48.19608" lon="-3.82573">
        <ele>119</ele>
        <time>2020-05-17T16:48:20.220Z</time>
      </trkpt>
      <trkpt lat="48.19609" lon="-3.82578">
        <ele>119</ele>
        <time>2020-05-17T16:48:21.220Z</time>
      </trkpt>
      <trkpt lat="48.1961" lon="-3.82584">
        <ele>120</ele>
        <time>2020-05-17T16:48:22.220Z</time>
      </trkpt>
      <trkpt lat="48.1961" lon="-3.8259">
        <ele>120</ele>
        <time>2020-05-17T16:48:23.220Z</time>
      </trkpt>
      <trkpt lat="48.19612" lon="-3.82596">
        <ele>120</ele>
        <time>2020-05-17T16:48:24.219Z</time>
      </trkpt>
      <trkpt lat="48.19614" lon="-3.82603">
        <ele>121</ele>
        <time>2020-05-17T16:48:25.220Z</time>
      </trkpt>
      <trkpt lat="48.19616" lon="-3.82611">
        <ele>121</ele>
        <time>2020-05-17T16:48:26.220Z</time>
      </trkpt>
      <trkpt lat="48.19617" lon="-3.82618">
        <ele>121</ele>
        <time>2020-05-17T16:48:27.220Z</time>
      </trkpt>
      <trkpt lat="48.1962" lon="-3.82625">
        <ele>122</ele>
        <time>2020-05-17T16:48:28.220Z</time>
      </trkpt>
      <trkpt lat="48.19622" lon="-3.82631">
        <ele>122</ele>
        <time>2020-05-17T16:48:29.220Z</time>
      </trkpt>
      <trkpt lat="48.19623" lon="-3.82637">
        <ele>122</ele>
        <time>2020-05-17T16:48:30.220Z</time>
      </trkpt>
      <trkpt lat="48.19624" lon="-3.82643">
        <ele>123</ele>
        <time>2020-05-17T16:48:31.220Z</time>
      </trkpt>
      <trkpt lat="48.19625" lon="-3.82649">
        <ele>123</ele>
        <time>2020-05-17T16:48:32.220Z</time>
      </trkpt>
      <trkpt lat="48.19628" lon="-3.82656">
        <ele>123</ele>
        <time>2020-05-17T16:48:33.219Z</time>
      </trkpt>
      <trkpt lat="48.19629" lon="-3.82662">
        <ele>123</ele>
        <time>2020-05-17T16:48:34.220Z</time>
      </trkpt>
      <trkpt lat="48.1963" lon="-3.82668">
        <ele>124</ele>
        <time>2020-05-17T16:48:35.220Z</time>
      </trkpt>
      <trkpt lat="48.19629" lon="-3.82672">
        <ele>124</ele>
        <time>2020-05-17T16:48:36.220Z</time>
      </trkpt>
      <trkpt lat="48.1963" lon="-3.82677">
        <ele>124</ele>
        <time>2020-05-17T16:48:37.220Z</time>
      </trkpt>
      <trkpt lat="48.19631" lon="-3.82682">
        <ele>124</ele>
        <time>2020-05-17T16:48:38.220Z</time>
      </trkpt>
      <trkpt lat="48.19632" lon="-3.82687">
        <ele>125</ele>
        <time>2020-05-17T16:48:39.219Z</time>
      </trkpt>
      <trkpt lat="48.19633" lon="-3.82692">
        <ele>125</ele>
        <time>2020-05-17T16:48:40.220Z</time>
      </trkpt>
      <trkpt lat="48.19633" lon="-3.82697">
        <ele>125</ele>
        <time>2020-05-17T16:48:41.220Z</time>
      </trkpt>
      <trkpt lat="48.19632" lon="-3.82703">
        <ele>125</ele>
        <time>2020-05-17T16:48:42.220Z</time>
      </trkpt>
      <trkpt lat="48.19632" lon="-3.82708">
        <ele>126</ele>
        <time>2020-05-17T16:48:43.220Z</time>
      </trkpt>
      <trkpt lat="48.19634" lon="-3.82713">
        <ele>126</ele>
        <time>2020-05-17T16:48:44.220Z</time>
      </trkpt>
      <trkpt lat="48.19633" lon="-3.82718">
        <ele>126</ele>
        <time>2020-05-17T16:48:45.220Z</time>
      </trkpt>
      <trkpt lat="48.19634" lon="-3.82723">
        <ele>126</ele>
        <time>2020-05-17T16:48:46.220Z</time>
      </trkpt>
      <trkpt lat="48.19635" lon="-3.82727">
        <ele>126</ele>
        <time>2020-05-17T16:48:47.219Z</time>
      </trkpt>
      <trkpt lat="48.19636" lon="-3.82732">
        <ele>126</ele>
        <time>2020-05-17T16:48:48.220Z</time>
      </trkpt>
      <trkpt lat="48.19636" lon="-3.82736">
        <ele>126</ele>
        <time>2020-05-17T16:48:49.220Z</time>
      </trkpt>
      <trkpt lat="48.19636" lon="-3.8274">
        <ele>126</ele>
        <time>2020-05-17T16:48:50.220Z</time>
      </trkpt>
      <trkpt lat="48.19636" lon="-3.82744">
        <ele>126</ele>
        <time>2020-05-17T16:48:51.219Z</time>
      </trkpt>
      <trkpt lat="48.19636" lon="-3.82749">
        <ele>127</ele>
        <time>2020-05-17T16:48:52.220Z</time>
      </trkpt>
      <trkpt lat="48.19636" lon="-3.82752">
        <ele>127</ele>
        <time>2020-05-17T16:48:53.219Z</time>
      </trkpt>
      <trkpt lat="48.19635" lon="-3.82756">
        <ele>127</ele>
        <time>2020-05-17T16:48:54.220Z</time>
      </trkpt>
      <trkpt lat="48.19635" lon="-3.8276">
        <ele>127</ele>
        <time>2020-05-17T16:48:55.219Z</time>
      </trkpt>
      <trkpt lat="48.19635" lon="-3.82764">
        <ele>127</ele>
        <time>2020-05-17T16:48:56.220Z</time>
      </trkpt>
      <trkpt lat="48.19635" lon="-3.82769">
        <ele>127</ele>
        <time>2020-05-17T16:48:57.220Z</time>
      </trkpt>
      <trkpt lat="48.19635" lon="-3.82773">
        <ele>127</ele>
        <time>2020-05-17T16:48:58.219Z</time>
      </trkpt>
      <trkpt lat="48.19635" lon="-3.82777">
        <ele>127</ele>
        <time>2020-05-17T16:48:59.220Z</time>
      </trkpt>
      <trkpt lat="48.19633" lon="-3.82782">
        <ele>127</ele>
        <time>2020-05-17T16:49:00.219Z</time>
      </trkpt>
      <trkpt lat="48.1963" lon="-3.82787">
        <ele>128</ele>
        <time>2020-05-17T16:49:01.220Z</time>
      </trkpt>
      <trkpt lat="48.19629" lon="-3.82793">
        <ele>128</ele>
        <time>2020-05-17T16:49:02.219Z</time>
      </trkpt>
      <trkpt lat="48.19626" lon="-3.82798">
        <ele>128</ele>
        <time>2020-05-17T16:49:03.219Z</time>
      </trkpt>
      <trkpt lat="48.19624" lon="-3.82803">
        <ele>128</ele>
        <time>2020-05-17T16:49:04.219Z</time>
      </trkpt>
      <trkpt lat="48.19621" lon="-3.82808">
        <ele>129</ele>
        <time>2020-05-17T16:49:05.220Z</time>
      </trkpt>
      <trkpt lat="48.19618" lon="-3.82814">
        <ele>129</ele>
        <time>2020-05-17T16:49:06.220Z</time>
      </trkpt>
      <trkpt lat="48.19616" lon="-3.82819">
        <ele>129</ele>
        <time>2020-05-17T16:49:07.220Z</time>
      </trkpt>
      <trkpt lat="48.19614" lon="-3.82824">
        <ele>130</ele>
        <time>2020-05-17T16:49:08.220Z</time>
      </trkpt>
      <trkpt lat="48.19613" lon="-3.82829">
        <ele>130</ele>
        <time>2020-05-17T16:49:09.219Z</time>
      </trkpt>
      <trkpt lat="48.19612" lon="-3.82834">
        <ele>130</ele>
        <time>2020-05-17T16:49:10.220Z</time>
      </trkpt>
      <trkpt lat="48.19612" lon="-3.8284">
        <ele>131</ele>
        <time>2020-05-17T16:49:11.220Z</time>
      </trkpt>
      <trkpt lat="48.1961" lon="-3.82844">
        <ele>131</ele>
        <time>2020-05-17T16:49:12.220Z</time>
      </trkpt>
      <trkpt lat="48.19608" lon="-3.82849">
        <ele>132</ele>
        <time>2020-05-17T16:49:13.219Z</time>
      </trkpt>
      <trkpt lat="48.19606" lon="-3.82854">
        <ele>132</ele>
        <time>2020-05-17T16:49:14.220Z</time>
      </trkpt>
      <trkpt lat="48.19605" lon="-3.82858">
        <ele>133</ele>
        <time>2020-05-17T16:49:15.220Z</time>
      </trkpt>
      <trkpt lat="48.19603" lon="-3.82862">
        <ele>133</ele>
        <time>2020-05-17T16:49:16.219Z</time>
      </trkpt>
      <trkpt lat="48.19602" lon="-3.82867">
        <ele>133</ele>
        <time>2020-05-17T16:49:17.220Z</time>
      </trkpt>
      <trkpt lat="48.19601" lon="-3.82871">
        <ele>133</ele>
        <time>2020-05-17T16:49:18.219Z</time>
      </trkpt>
      <trkpt lat="48.196" lon="-3.82875">
        <ele>133</ele>
        <time>2020-05-17T16:49:19.220Z</time>
      </trkpt>
      <trkpt lat="48.19599" lon="-3.8288">
        <ele>134</ele>
        <time>2020-05-17T16:49:20.220Z</time>
      </trkpt>
      <trkpt lat="48.19599" lon="-3.82884">
        <ele>134</ele>
        <time>2020-05-17T16:49:21.220Z</time>
      </trkpt>
      <trkpt lat="48.19598" lon="-3.82888">
        <ele>135</ele>
        <time>2020-05-17T16:49:22.220Z</time>
      </trkpt>
      <trkpt lat="48.19597" lon="-3.82893">
        <ele>136</ele>
        <time>2020-05-17T16:49:23.220Z</time>
      </trkpt>
      <trkpt lat="48.19596" lon="-3.82898">
        <ele>136</ele>
        <time>2020-05-17T16:49:24.220Z</time>
      </trkpt>
      <trkpt lat="48.19596" lon="-3.82903">
        <ele>137</ele>
        <time>2020-05-17T16:49:25.220Z</time>
      </trkpt>
      <trkpt lat="48.19596" lon="-3.82909">
        <ele>138</ele>
        <time>2020-05-17T16:49:26.220Z</time>
      </trkpt>
      <trkpt lat="48.19595" lon="-3.82914">
        <ele>138</ele>
        <time>2020-05-17T16:49:27.220Z</time>
      </trkpt>
      <trkpt lat="48.19595" lon="-3.8292">
        <ele>138</ele>
        <time>2020-05-17T16:49:28.219Z</time>
      </trkpt>
      <trkpt lat="48.19595" lon="-3.82926">
        <ele>139</ele>
        <time>2020-05-17T16:49:29.219Z</time>
      </trkpt>
      <trkpt lat="48.19594" lon="-3.82931">
        <ele>139</ele>
        <time>2020-05-17T16:49:30.219Z</time>
      </trkpt>
      <trkpt lat="48.19594" lon="-3.82936">
        <ele>139</ele>
        <time>2020-05-17T16:49:31.220Z</time>
      </trkpt>
      <trkpt lat="48.19594" lon="-3.82943">
        <ele>139</ele>
        <time>2020-05-17T16:49:32.220Z</time>
      </trkpt>
      <trkpt lat="48.19594" lon="-3.82948">
        <ele>139</ele>
        <time>2020-05-17T16:49:33.220Z</time>
      </trkpt>
      <trkpt lat="48.19593" lon="-3.82954">
        <ele>139</ele>
        <time>2020-05-17T16:49:34.220Z</time>
      </trkpt>
      <trkpt lat="48.19592" lon="-3.82959">
        <ele>139</ele>
        <time>2020-05-17T16:49:35.219Z</time>
      </trkpt>
      <trkpt lat="48.19591" lon="-3.82964">
        <ele>140</ele>
        <time>2020-05-17T16:49:36.220Z</time>
      </trkpt>
      <trkpt lat="48.1959" lon="-3.82969">
        <ele>140</ele>
        <time>2020-05-17T16:49:37.220Z</time>
      </trkpt>
      <trkpt lat="48.1959" lon="-3.82974">
        <ele>140</ele>
        <time>2020-05-17T16:49:38.220Z</time>
      </trkpt>
      <trkpt lat="48.1959" lon="-3.82978">
        <ele>140</ele>
        <time>2020-05-17T16:49:39.220Z</time>
      </trkpt>
      <trkpt lat="48.19591" lon="-3.82983">
        <ele>139</ele>
        <time>2020-05-17T16:49:40.219Z</time>
      </trkpt>
      <trkpt lat="48.19592" lon="-3.82988">
        <ele>139</ele>
        <time>2020-05-17T16:49:41.219Z</time>
      </trkpt>
      <trkpt lat="48.19592" lon="-3.82992">
        <ele>139</ele>
        <time>2020-05-17T16:49:42.220Z</time>
      </trkpt>
      <trkpt lat="48.19592" lon="-3.82997">
        <ele>139</ele>
        <time>2020-05-17T16:49:43.220Z</time>
      </trkpt>
      <trkpt lat="48.19592" lon="-3.83002">
        <ele>138</ele>
        <time>2020-05-17T16:49:44.220Z</time>
      </trkpt>
      <trkpt lat="48.19593" lon="-3.83007">
        <ele>138</ele>
        <time>2020-05-17T16:49:45.220Z</time>
      </trkpt>
      <trkpt lat="48.19593" lon="-3.83012">
        <ele>138</ele>
        <time>2020-05-17T16:49:46.220Z</time>
      </trkpt>
      <trkpt lat="48.19593" lon="-3.83016">
        <ele>138</ele>
        <time>2020-05-17T16:49:47.219Z</time>
      </trkpt>
      <trkpt lat="48.19593" lon="-3.8302">
        <ele>138</ele>
        <time>2020-05-17T16:49:48.220Z</time>
      </trkpt>
      <trkpt lat="48.19593" lon="-3.83023">
        <ele>138</ele>
        <time>2020-05-17T16:49:49.220Z</time>
      </trkpt>
      <trkpt lat="48.19593" lon="-3.83027">
        <ele>138</ele>
        <time>2020-05-17T16:49:50.220Z</time>
      </trkpt>
      <trkpt lat="48.19593" lon="-3.83031">
        <ele>137</ele>
        <time>2020-05-17T16:49:51.220Z</time>
      </trkpt>
      <trkpt lat="48.19594" lon="-3.83036">
        <ele>137</ele>
        <time>2020-05-17T16:49:52.220Z</time>
      </trkpt>
      <trkpt lat="48.19594" lon="-3.83041">
        <ele>137</ele>
        <time>2020-05-17T16:49:53.219Z</time>
      </trkpt>
      <trkpt lat="48.19595" lon="-3.83046">
        <ele>137</ele>
        <time>2020-05-17T16:49:54.220Z</time>
      </trkpt>
      <trkpt lat="48.19596" lon="-3.83053">
        <ele>137</ele>
        <time>2020-05-17T16:49:55.220Z</time>
      </trkpt>
      <trkpt lat="48.19597" lon="-3.83058">
        <ele>136</ele>
        <time>2020-05-17T16:49:56.220Z</time>
      </trkpt>
      <trkpt lat="48.19598" lon="-3.83063">
        <ele>136</ele>
        <time>2020-05-17T16:49:57.220Z</time>
      </trkpt>
      <trkpt lat="48.19599" lon="-3.83068">
        <ele>136</ele>
        <time>2020-05-17T16:49:58.220Z</time>
      </trkpt>
      <trkpt lat="48.19599" lon="-3.83073">
        <ele>135</ele>
        <time>2020-05-17T16:49:59.220Z</time>
      </trkpt>
      <trkpt lat="48.196" lon="-3.83078">
        <ele>135</ele>
        <time>2020-05-17T16:50:00.220Z</time>
      </trkpt>
      <trkpt lat="48.19601" lon="-3.83083">
        <ele>135</ele>
        <time>2020-05-17T16:50:01.220Z</time>
      </trkpt>
      <trkpt lat="48.19601" lon="-3.83087">
        <ele>134</ele>
        <time>2020-05-17T16:50:02.220Z</time>
      </trkpt>
      <trkpt lat="48.19601" lon="-3.83093">
        <ele>134</ele>
        <time>2020-05-17T16:50:03.220Z</time>
      </trkpt>
      <trkpt lat="48.19602" lon="-3.83098">
        <ele>134</ele>
        <time>2020-05-17T16:50:04.220Z</time>
      </trkpt>
      <trkpt lat="48.19604" lon="-3.83103">
        <ele>133</ele>
        <time>2020-05-17T16:50:05.219Z</time>
      </trkpt>
      <trkpt lat="48.19605" lon="-3.83108">
        <ele>133</ele>
        <time>2020-05-17T16:50:06.220Z</time>
      </trkpt>
      <trkpt lat="48.19606" lon="-3.83115">
        <ele>133</ele>
        <time>2020-05-17T16:50:07.220Z</time>
      </trkpt>
      <trkpt lat="48.19606" lon="-3.8312">
        <ele>132</ele>
        <time>2020-05-17T16:50:08.220Z</time>
      </trkpt>
      <trkpt lat="48.19606" lon="-3.83126">
        <ele>132</ele>
        <time>2020-05-17T16:50:09.220Z</time>
      </trkpt>
      <trkpt lat="48.19606" lon="-3.83132">
        <ele>132</ele>
        <time>2020-05-17T16:50:10.220Z</time>
      </trkpt>
      <trkpt lat="48.19607" lon="-3.83136">
        <ele>131</ele>
        <time>2020-05-17T16:50:11.220Z</time>
      </trkpt>
      <trkpt lat="48.19607" lon="-3.8314">
        <ele>131</ele>
        <time>2020-05-17T16:50:12.220Z</time>
      </trkpt>
      <trkpt lat="48.19607" lon="-3.83145">
        <ele>131</ele>
        <time>2020-05-17T16:50:13.220Z</time>
      </trkpt>
      <trkpt lat="48.19608" lon="-3.83149">
        <ele>131</ele>
        <time>2020-05-17T16:50:14.220Z</time>
      </trkpt>
      <trkpt lat="48.19607" lon="-3.83154">
        <ele>131</ele>
        <time>2020-05-17T16:50:15.220Z</time>
      </trkpt>
      <trkpt lat="48.19608" lon="-3.83157">
        <ele>131</ele>
        <time>2020-05-17T16:50:16.220Z</time>
      </trkpt>
      <trkpt lat="48.19609" lon="-3.83162">
        <ele>130</ele>
        <time>2020-05-17T16:50:17.220Z</time>
      </trkpt>
      <trkpt lat="48.19608" lon="-3.83167">
        <ele>130</ele>
        <time>2020-05-17T16:50:18.220Z</time>
      </trkpt>
      <trkpt lat="48.19609" lon="-3.83173">
        <ele>130</ele>
        <time>2020-05-17T16:50:19.220Z</time>
      </trkpt>
      <trkpt lat="48.19609" lon="-3.83179">
        <ele>130</ele>
        <time>2020-05-17T16:50:20.220Z</time>
      </trkpt>
      <trkpt lat="48.1961" lon="-3.83185">
        <ele>130</ele>
        <time>2020-05-17T16:50:21.220Z</time>
      </trkpt>
      <trkpt lat="48.19612" lon="-3.83194">
        <ele>130</ele>
        <time>2020-05-17T16:50:22.219Z</time>
      </trkpt>
      <trkpt lat="48.19612" lon="-3.83203">
        <ele>130</ele>
        <time>2020-05-17T16:50:23.220Z</time>
      </trkpt>
      <trkpt lat="48.19613" lon="-3.83209">
        <ele>130</ele>
        <time>2020-05-17T16:50:24.220Z</time>
      </trkpt>
      <trkpt lat="48.19614" lon="-3.83215">
        <ele>130</ele>
        <time>2020-05-17T16:50:25.220Z</time>
      </trkpt>
      <trkpt lat="48.19616" lon="-3.83225">
        <ele>130</ele>
        <time>2020-05-17T16:50:26.220Z</time>
      </trkpt>
      <trkpt lat="48.19616" lon="-3.83233">
        <ele>130</ele>
        <time>2020-05-17T16:50:27.220Z</time>
      </trkpt>
      <trkpt lat="48.19617" lon="-3.83242">
        <ele>130</ele>
        <time>2020-05-17T16:50:28.219Z</time>
      </trkpt>
      <trkpt lat="48.19617" lon="-3.83249">
        <ele>130</ele>
        <time>2020-05-17T16:50:29.219Z</time>
      </trkpt>
      <trkpt lat="48.19617" lon="-3.83256">
        <ele>131</ele>
        <time>2020-05-17T16:50:30.220Z</time>
      </trkpt>
      <trkpt lat="48.19618" lon="-3.83263">
        <ele>131</ele>
        <time>2020-05-17T16:50:31.220Z</time>
      </trkpt>
      <trkpt lat="48.19618" lon="-3.8327">
        <ele>131</ele>
        <time>2020-05-17T16:50:32.220Z</time>
      </trkpt>
      <trkpt lat="48.19619" lon="-3.83277">
        <ele>131</ele>
        <time>2020-05-17T16:50:33.220Z</time>
      </trkpt>
      <trkpt lat="48.1962" lon="-3.83283">
        <ele>132</ele>
        <time>2020-05-17T16:50:34.220Z</time>
      </trkpt>
      <trkpt lat="48.19621" lon="-3.8329">
        <ele>132</ele>
        <time>2020-05-17T16:50:35.220Z</time>
      </trkpt>
      <trkpt lat="48.19622" lon="-3.83297">
        <ele>132</ele>
        <time>2020-05-17T16:50:36.220Z</time>
      </trkpt>
      <trkpt lat="48.19622" lon="-3.83304">
        <ele>132</ele>
        <time>2020-05-17T16:50:37.220Z</time>
      </trkpt>
      <trkpt lat="48.19623" lon="-3.83311">
        <ele>133</ele>
        <time>2020-05-17T16:50:38.220Z</time>
      </trkpt>
      <trkpt lat="48.19624" lon="-3.83319">
        <ele>133</ele>
        <time>2020-05-17T16:50:39.220Z</time>
      </trkpt>
      <trkpt lat="48.19624" lon="-3.83326">
        <ele>134</ele>
        <time>2020-05-17T16:50:40.220Z</time>
      </trkpt>
      <trkpt lat="48.19624" lon="-3.83333">
        <ele>134</ele>
        <time>2020-05-17T16:50:41.220Z</time>
      </trkpt>
      <trkpt lat="48.19625" lon="-3.8334">
        <ele>134</ele>
        <time>2020-05-17T16:50:42.220Z</time>
      </trkpt>
      <trkpt lat="48.19625" lon="-3.83349">
        <ele>134</ele>
        <time>2020-05-17T16:50:43.220Z</time>
      </trkpt>
      <trkpt lat="48.19626" lon="-3.83356">
        <ele>135</ele>
        <time>2020-05-17T16:50:44.220Z</time>
      </trkpt>
      <trkpt lat="48.19626" lon="-3.83363">
        <ele>135</ele>
        <time>2020-05-17T16:50:45.220Z</time>
      </trkpt>
      <trkpt lat="48.19627" lon="-3.8337">
        <ele>135</ele>
        <time>2020-05-17T16:50:46.220Z</time>
      </trkpt>
      <trkpt lat="48.19629" lon="-3.83377">
        <ele>135</ele>
        <time>2020-05-17T16:50:47.220Z</time>
      </trkpt>
      <trkpt lat="48.1963" lon="-3.83385">
        <ele>136</ele>
        <time>2020-05-17T16:50:48.219Z</time>
      </trkpt>
      <trkpt lat="48.19631" lon="-3.83392">
        <ele>136</ele>
        <time>2020-05-17T16:50:49.220Z</time>
      </trkpt>
      <trkpt lat="48.19631" lon="-3.83399">
        <ele>136</ele>
        <time>2020-05-17T16:50:50.220Z</time>
      </trkpt>
      <trkpt lat="48.19633" lon="-3.83406">
        <ele>136</ele>
        <time>2020-05-17T16:50:51.219Z</time>
      </trkpt>
      <trkpt lat="48.19633" lon="-3.83412">
        <ele>136</ele>
        <time>2020-05-17T16:50:52.219Z</time>
      </trkpt>
      <trkpt lat="48.19634" lon="-3.83419">
        <ele>136</ele>
        <time>2020-05-17T16:50:53.220Z</time>
      </trkpt>
      <trkpt lat="48.19636" lon="-3.83428">
        <ele>136</ele>
        <time>2020-05-17T16:50:54.220Z</time>
      </trkpt>
      <trkpt lat="48.19637" lon="-3.83436">
        <ele>136</ele>
        <time>2020-05-17T16:50:55.220Z</time>
      </trkpt>
      <trkpt lat="48.19638" lon="-3.83444">
        <ele>135</ele>
        <time>2020-05-17T16:50:56.220Z</time>
      </trkpt>
      <trkpt lat="48.19639" lon="-3.83452">
        <ele>135</ele>
        <time>2020-05-17T16:50:57.220Z</time>
      </trkpt>
      <trkpt lat="48.1964" lon="-3.8346">
        <ele>135</ele>
        <time>2020-05-17T16:50:58.220Z</time>
      </trkpt>
      <trkpt lat="48.1964" lon="-3.83467">
        <ele>134</ele>
        <time>2020-05-17T16:50:59.220Z</time>
      </trkpt>
      <trkpt lat="48.19642" lon="-3.83475">
        <ele>134</ele>
        <time>2020-05-17T16:51:00.220Z</time>
      </trkpt>
      <trkpt lat="48.19643" lon="-3.83484">
        <ele>134</ele>
        <time>2020-05-17T16:51:01.219Z</time>
      </trkpt>
      <trkpt lat="48.19644" lon="-3.83491">
        <ele>133</ele>
        <time>2020-05-17T16:51:02.220Z</time>
      </trkpt>
      <trkpt lat="48.19645" lon="-3.83499">
        <ele>133</ele>
        <time>2020-05-17T16:51:03.220Z</time>
      </trkpt>
      <trkpt lat="48.19646" lon="-3.83507">
        <ele>133</ele>
        <time>2020-05-17T16:51:04.219Z</time>
      </trkpt>
      <trkpt lat="48.19647" lon="-3.83514">
        <ele>132</ele>
        <time>2020-05-17T16:51:05.219Z</time>
      </trkpt>
      <trkpt lat="48.19648" lon="-3.83522">
        <ele>132</ele>
        <time>2020-05-17T16:51:06.219Z</time>
      </trkpt>
      <trkpt lat="48.1965" lon="-3.83531">
        <ele>131</ele>
        <time>2020-05-17T16:51:07.219Z</time>
      </trkpt>
      <trkpt lat="48.19651" lon="-3.83539">
        <ele>130</ele>
        <time>2020-05-17T16:51:08.219Z</time>
      </trkpt>
      <trkpt lat="48.19652" lon="-3.83546">
        <ele>130</ele>
        <time>2020-05-17T16:51:09.219Z</time>
      </trkpt>
      <trkpt lat="48.19655" lon="-3.83554">
        <ele>130</ele>
        <time>2020-05-17T16:51:10.219Z</time>
      </trkpt>
      <trkpt lat="48.19655" lon="-3.83563">
        <ele>130</ele>
        <time>2020-05-17T16:51:11.220Z</time>
      </trkpt>
      <trkpt lat="48.19656" lon="-3.8357">
        <ele>130</ele>
        <time>2020-05-17T16:51:12.219Z</time>
      </trkpt>
      <trkpt lat="48.19657" lon="-3.83578">
        <ele>130</ele>
        <time>2020-05-17T16:51:13.220Z</time>
      </trkpt>
      <trkpt lat="48.19658" lon="-3.83586">
        <ele>130</ele>
        <time>2020-05-17T16:51:14.220Z</time>
      </trkpt>
      <trkpt lat="48.19659" lon="-3.83594">
        <ele>130</ele>
        <time>2020-05-17T16:51:15.220Z</time>
      </trkpt>
      <trkpt lat="48.19659" lon="-3.83601">
        <ele>130</ele>
        <time>2020-05-17T16:51:16.220Z</time>
      </trkpt>
      <trkpt lat="48.19659" lon="-3.8361">
        <ele>130</ele>
        <time>2020-05-17T16:51:17.220Z</time>
      </trkpt>
      <trkpt lat="48.1966" lon="-3.83618">
        <ele>130</ele>
        <time>2020-05-17T16:51:18.220Z</time>
      </trkpt>
      <trkpt lat="48.19662" lon="-3.83625">
        <ele>130</ele>
        <time>2020-05-17T16:51:19.220Z</time>
      </trkpt>
      <trkpt lat="48.19664" lon="-3.83632">
        <ele>130</ele>
        <time>2020-05-17T16:51:20.219Z</time>
      </trkpt>
      <trkpt lat="48.19666" lon="-3.83639">
        <ele>129</ele>
        <time>2020-05-17T16:51:21.220Z</time>
      </trkpt>
      <trkpt lat="48.19667" lon="-3.83646">
        <ele>129</ele>
        <time>2020-05-17T16:51:22.220Z</time>
      </trkpt>
      <trkpt lat="48.19667" lon="-3.83654">
        <ele>129</ele>
        <time>2020-05-17T16:51:23.219Z</time>
      </trkpt>
      <trkpt lat="48.19668" lon="-3.8366">
        <ele>129</ele>
        <time>2020-05-17T16:51:24.219Z</time>
      </trkpt>
      <trkpt lat="48.19669" lon="-3.83667">
        <ele>128</ele>
        <time>2020-05-17T16:51:25.220Z</time>
      </trkpt>
      <trkpt lat="48.1967" lon="-3.83675">
        <ele>128</ele>
        <time>2020-05-17T16:51:26.220Z</time>
      </trkpt>
      <trkpt lat="48.19671" lon="-3.83683">
        <ele>128</ele>
        <time>2020-05-17T16:51:27.219Z</time>
      </trkpt>
      <trkpt lat="48.19673" lon="-3.83689">
        <ele>128</ele>
        <time>2020-05-17T16:51:28.220Z</time>
      </trkpt>
      <trkpt lat="48.19676" lon="-3.83695">
        <ele>128</ele>
        <time>2020-05-17T16:51:29.220Z</time>
      </trkpt>
      <trkpt lat="48.19678" lon="-3.837">
        <ele>128</ele>
        <time>2020-05-17T16:51:30.220Z</time>
      </trkpt>
      <trkpt lat="48.1968" lon="-3.83706">
        <ele>128</ele>
        <time>2020-05-17T16:51:31.220Z</time>
      </trkpt>
      <trkpt lat="48.19682" lon="-3.83713">
        <ele>128</ele>
        <time>2020-05-17T16:51:32.219Z</time>
      </trkpt>
      <trkpt lat="48.19684" lon="-3.83719">
        <ele>127</ele>
        <time>2020-05-17T16:51:33.220Z</time>
      </trkpt>
      <trkpt lat="48.19686" lon="-3.83727">
        <ele>127</ele>
        <time>2020-05-17T16:51:34.219Z</time>
      </trkpt>
      <trkpt lat="48.19688" lon="-3.83735">
        <ele>127</ele>
        <time>2020-05-17T16:51:35.220Z</time>
      </trkpt>
      <trkpt lat="48.1969" lon="-3.83743">
        <ele>126</ele>
        <time>2020-05-17T16:51:36.220Z</time>
      </trkpt>
      <trkpt lat="48.19691" lon="-3.8375">
        <ele>126</ele>
        <time>2020-05-17T16:51:37.219Z</time>
      </trkpt>
      <trkpt lat="48.19692" lon="-3.83758">
        <ele>126</ele>
        <time>2020-05-17T16:51:38.220Z</time>
      </trkpt>
      <trkpt lat="48.19694" lon="-3.83765">
        <ele>126</ele>
        <time>2020-05-17T16:51:39.219Z</time>
      </trkpt>
      <trkpt lat="48.19695" lon="-3.83771">
        <ele>125</ele>
        <time>2020-05-17T16:51:40.220Z</time>
      </trkpt>
      <trkpt lat="48.19694" lon="-3.83778">
        <ele>125</ele>
        <time>2020-05-17T16:51:41.219Z</time>
      </trkpt>
      <trkpt lat="48.19693" lon="-3.83783">
        <ele>126</ele>
        <time>2020-05-17T16:51:42.220Z</time>
      </trkpt>
      <trkpt lat="48.19691" lon="-3.83787">
        <ele>126</ele>
        <time>2020-05-17T16:51:43.219Z</time>
      </trkpt>
      <trkpt lat="48.19691" lon="-3.8379">
        <ele>126</ele>
        <time>2020-05-17T16:51:44.219Z</time>
      </trkpt>
      <trkpt lat="48.1969" lon="-3.83791">
        <ele>126</ele>
        <time>2020-05-17T16:51:45.220Z</time>
      </trkpt>
      <trkpt lat="48.19689" lon="-3.83793">
        <ele>127</ele>
        <time>2020-05-17T16:51:46.220Z</time>
      </trkpt>
      <trkpt lat="48.19689" lon="-3.83795">
        <ele>127</ele>
        <time>2020-05-17T16:51:47.219Z</time>
      </trkpt>
      <trkpt lat="48.19687" lon="-3.83799">
        <ele>127</ele>
        <time>2020-05-17T16:51:48.220Z</time>
      </trkpt>
      <trkpt lat="48.19686" lon="-3.83805">
        <ele>127</ele>
        <time>2020-05-17T16:51:49.219Z</time>
      </trkpt>
      <trkpt lat="48.19684" lon="-3.83809">
        <ele>128</ele>
        <time>2020-05-17T16:51:50.220Z</time>
      </trkpt>
      <trkpt lat="48.19684" lon="-3.83814">
        <ele>128</ele>
        <time>2020-05-17T16:51:51.219Z</time>
      </trkpt>
      <trkpt lat="48.19684" lon="-3.83818">
        <ele>128</ele>
        <time>2020-05-17T16:51:52.219Z</time>
      </trkpt>
      <trkpt lat="48.19684" lon="-3.83822">
        <ele>128</ele>
        <time>2020-05-17T16:51:53.220Z</time>
      </trkpt>
      <trkpt lat="48.19684" lon="-3.83827">
        <ele>128</ele>
        <time>2020-05-17T16:51:54.220Z</time>
      </trkpt>
      <trkpt lat="48.19684" lon="-3.83832">
        <ele>128</ele>
        <time>2020-05-17T16:51:55.220Z</time>
      </trkpt>
      <trkpt lat="48.19685" lon="-3.83837">
        <ele>128</ele>
        <time>2020-05-17T16:51:56.220Z</time>
      </trkpt>
      <trkpt lat="48.19686" lon="-3.83842">
        <ele>128</ele>
        <time>2020-05-17T16:51:57.220Z</time>
      </trkpt>
      <trkpt lat="48.19685" lon="-3.83847">
        <ele>128</ele>
        <time>2020-05-17T16:51:58.220Z</time>
      </trkpt>
      <trkpt lat="48.19686" lon="-3.83851">
        <ele>128</ele>
        <time>2020-05-17T16:51:59.220Z</time>
      </trkpt>
      <trkpt lat="48.19686" lon="-3.83855">
        <ele>128</ele>
        <time>2020-05-17T16:52:00.220Z</time>
      </trkpt>
      <trkpt lat="48.19686" lon="-3.8386">
        <ele>128</ele>
        <time>2020-05-17T16:52:01.219Z</time>
      </trkpt>
      <trkpt lat="48.19686" lon="-3.83864">
        <ele>128</ele>
        <time>2020-05-17T16:52:02.220Z</time>
      </trkpt>
      <trkpt lat="48.19685" lon="-3.83868">
        <ele>128</ele>
        <time>2020-05-17T16:52:03.220Z</time>
      </trkpt>
      <trkpt lat="48.19685" lon="-3.83872">
        <ele>128</ele>
        <time>2020-05-17T16:52:04.220Z</time>
      </trkpt>
      <trkpt lat="48.19685" lon="-3.83877">
        <ele>129</ele>
        <time>2020-05-17T16:52:05.220Z</time>
      </trkpt>
      <trkpt lat="48.19684" lon="-3.83884">
        <ele>129</ele>
        <time>2020-05-17T16:52:06.219Z</time>
      </trkpt>
      <trkpt lat="48.19683" lon="-3.8389">
        <ele>129</ele>
        <time>2020-05-17T16:52:07.220Z</time>
      </trkpt>
      <trkpt lat="48.19683" lon="-3.83895">
        <ele>129</ele>
        <time>2020-05-17T16:52:08.220Z</time>
      </trkpt>
      <trkpt lat="48.19681" lon="-3.83902">
        <ele>129</ele>
        <time>2020-05-17T16:52:09.220Z</time>
      </trkpt>
      <trkpt lat="48.1968" lon="-3.83908">
        <ele>129</ele>
        <time>2020-05-17T16:52:10.220Z</time>
      </trkpt>
      <trkpt lat="48.19679" lon="-3.83914">
        <ele>129</ele>
        <time>2020-05-17T16:52:11.220Z</time>
      </trkpt>
      <trkpt lat="48.19677" lon="-3.8392">
        <ele>129</ele>
        <time>2020-05-17T16:52:12.220Z</time>
      </trkpt>
      <trkpt lat="48.19675" lon="-3.83925">
        <ele>129</ele>
        <time>2020-05-17T16:52:13.220Z</time>
      </trkpt>
      <trkpt lat="48.19675" lon="-3.8393">
        <ele>129</ele>
        <time>2020-05-17T16:52:14.220Z</time>
      </trkpt>
      <trkpt lat="48.19674" lon="-3.83934">
        <ele>129</ele>
        <time>2020-05-17T16:52:15.219Z</time>
      </trkpt>
      <trkpt lat="48.19673" lon="-3.83939">
        <ele>129</ele>
        <time>2020-05-17T16:52:16.220Z</time>
      </trkpt>
      <trkpt lat="48.19672" lon="-3.83945">
        <ele>130</ele>
        <time>2020-05-17T16:52:17.219Z</time>
      </trkpt>
      <trkpt lat="48.1967" lon="-3.83951">
        <ele>130</ele>
        <time>2020-05-17T16:52:18.220Z</time>
      </trkpt>
      <trkpt lat="48.19668" lon="-3.83956">
        <ele>130</ele>
        <time>2020-05-17T16:52:19.219Z</time>
      </trkpt>
      <trkpt lat="48.19667" lon="-3.83966">
        <ele>130</ele>
        <time>2020-05-17T16:52:20.219Z</time>
      </trkpt>
      <trkpt lat="48.19665" lon="-3.83972">
        <ele>130</ele>
        <time>2020-05-17T16:52:21.219Z</time>
      </trkpt>
      <trkpt lat="48.19662" lon="-3.83977">
        <ele>131</ele>
        <time>2020-05-17T16:52:22.219Z</time>
      </trkpt>
      <trkpt lat="48.19659" lon="-3.83983">
        <ele>131</ele>
        <time>2020-05-17T16:52:23.219Z</time>
      </trkpt>
      <trkpt lat="48.19657" lon="-3.83989">
        <ele>131</ele>
        <time>2020-05-17T16:52:24.219Z</time>
      </trkpt>
      <trkpt lat="48.19655" lon="-3.83996">
        <ele>130</ele>
        <time>2020-05-17T16:52:25.219Z</time>
      </trkpt>
      <trkpt lat="48.19654" lon="-3.84003">
        <ele>130</ele>
        <time>2020-05-17T16:52:26.219Z</time>
      </trkpt>
      <trkpt lat="48.19653" lon="-3.84009">
        <ele>130</ele>
        <time>2020-05-17T16:52:27.220Z</time>
      </trkpt>
      <trkpt lat="48.19652" lon="-3.84015">
        <ele>129</ele>
        <time>2020-05-17T16:52:28.220Z</time>
      </trkpt>
      <trkpt lat="48.19651" lon="-3.8402">
        <ele>129</ele>
        <time>2020-05-17T16:52:29.220Z</time>
      </trkpt>
      <trkpt lat="48.19649" lon="-3.84026">
        <ele>128</ele>
        <time>2020-05-17T16:52:30.220Z</time>
      </trkpt>
      <trkpt lat="48.19648" lon="-3.84031">
        <ele>127</ele>
        <time>2020-05-17T16:52:31.219Z</time>
      </trkpt>
      <trkpt lat="48.19646" lon="-3.84038">
        <ele>127</ele>
        <time>2020-05-17T16:52:32.219Z</time>
      </trkpt>
      <trkpt lat="48.19645" lon="-3.84044">
        <ele>126</ele>
        <time>2020-05-17T16:52:33.220Z</time>
      </trkpt>
      <trkpt lat="48.19643" lon="-3.84051">
        <ele>126</ele>
        <time>2020-05-17T16:52:34.220Z</time>
      </trkpt>
      <trkpt lat="48.19641" lon="-3.84057">
        <ele>126</ele>
        <time>2020-05-17T16:52:35.219Z</time>
      </trkpt>
      <trkpt lat="48.19639" lon="-3.84064">
        <ele>125</ele>
        <time>2020-05-17T16:52:36.219Z</time>
      </trkpt>
      <trkpt lat="48.19637" lon="-3.84068">
        <ele>125</ele>
        <time>2020-05-17T16:52:37.220Z</time>
      </trkpt>
      <trkpt lat="48.19635" lon="-3.84074">
        <ele>124</ele>
        <time>2020-05-17T16:52:38.220Z</time>
      </trkpt>
      <trkpt lat="48.19634" lon="-3.84079">
        <ele>124</ele>
        <time>2020-05-17T16:52:39.220Z</time>
      </trkpt>
      <trkpt lat="48.19633" lon="-3.84084">
        <ele>123</ele>
        <time>2020-05-17T16:52:40.220Z</time>
      </trkpt>
      <trkpt lat="48.19631" lon="-3.84091">
        <ele>123</ele>
        <time>2020-05-17T16:52:41.219Z</time>
      </trkpt>
      <trkpt lat="48.19629" lon="-3.84097">
        <ele>122</ele>
        <time>2020-05-17T16:52:42.219Z</time>
      </trkpt>
      <trkpt lat="48.19626" lon="-3.84103">
        <ele>122</ele>
        <time>2020-05-17T16:52:43.219Z</time>
      </trkpt>
      <trkpt lat="48.19624" lon="-3.84109">
        <ele>121</ele>
        <time>2020-05-17T16:52:44.220Z</time>
      </trkpt>
      <trkpt lat="48.19623" lon="-3.84116">
        <ele>121</ele>
        <time>2020-05-17T16:52:45.220Z</time>
      </trkpt>
      <trkpt lat="48.19623" lon="-3.84122">
        <ele>121</ele>
        <time>2020-05-17T16:52:46.219Z</time>
      </trkpt>
      <trkpt lat="48.19621" lon="-3.84128">
        <ele>120</ele>
        <time>2020-05-17T16:52:47.219Z</time>
      </trkpt>
      <trkpt lat="48.19619" lon="-3.84133">
        <ele>120</ele>
        <time>2020-05-17T16:52:48.220Z</time>
      </trkpt>
      <trkpt lat="48.19616" lon="-3.84139">
        <ele>120</ele>
        <time>2020-05-17T16:52:49.220Z</time>
      </trkpt>
      <trkpt lat="48.19615" lon="-3.84145">
        <ele>120</ele>
        <time>2020-05-17T16:52:50.219Z</time>
      </trkpt>
      <trkpt lat="48.19613" lon="-3.84151">
        <ele>119</ele>
        <time>2020-05-17T16:52:51.220Z</time>
      </trkpt>
      <trkpt lat="48.1961" lon="-3.8416">
        <ele>119</ele>
        <time>2020-05-17T16:52:52.220Z</time>
      </trkpt>
      <trkpt lat="48.19607" lon="-3.84168">
        <ele>119</ele>
        <time>2020-05-17T16:52:53.219Z</time>
      </trkpt>
      <trkpt lat="48.19605" lon="-3.84176">
        <ele>119</ele>
        <time>2020-05-17T16:52:54.220Z</time>
      </trkpt>
      <trkpt lat="48.19604" lon="-3.84183">
        <ele>119</ele>
        <time>2020-05-17T16:52:55.220Z</time>
      </trkpt>
      <trkpt lat="48.19602" lon="-3.8419">
        <ele>119</ele>
        <time>2020-05-17T16:52:56.219Z</time>
      </trkpt>
      <trkpt lat="48.196" lon="-3.84195">
        <ele>119</ele>
        <time>2020-05-17T16:52:57.220Z</time>
      </trkpt>
      <trkpt lat="48.196" lon="-3.842">
        <ele>120</ele>
        <time>2020-05-17T16:52:58.220Z</time>
      </trkpt>
      <trkpt lat="48.19599" lon="-3.84205">
        <ele>120</ele>
        <time>2020-05-17T16:52:59.220Z</time>
      </trkpt>
      <trkpt lat="48.19598" lon="-3.84208">
        <ele>120</ele>
        <time>2020-05-17T16:53:00.220Z</time>
      </trkpt>
      <trkpt lat="48.19597" lon="-3.8421">
        <ele>121</ele>
        <time>2020-05-17T16:53:01.220Z</time>
      </trkpt>
      <trkpt lat="48.19596" lon="-3.84211">
        <ele>121</ele>
        <time>2020-05-17T16:53:02.219Z</time>
      </trkpt>
      <trkpt lat="48.19596" lon="-3.84211">
        <ele>121</ele>
        <time>2020-05-17T16:53:03.219Z</time>
      </trkpt>
      <trkpt lat="48.19593" lon="-3.84209">
        <ele>122</ele>
        <time>2020-05-17T16:53:04.220Z</time>
      </trkpt>
      <trkpt lat="48.19592" lon="-3.84209">
        <ele>122</ele>
        <time>2020-05-17T16:53:05.219Z</time>
      </trkpt>
      <trkpt lat="48.19591" lon="-3.84209">
        <ele>123</ele>
        <time>2020-05-17T16:53:06.221Z</time>
      </trkpt>
      <trkpt lat="48.1959" lon="-3.84209">
        <ele>123</ele>
        <time>2020-05-17T16:53:07.221Z</time>
      </trkpt>
      <trkpt lat="48.1959" lon="-3.84208">
        <ele>122</ele>
        <time>2020-05-17T16:53:08.220Z</time>
      </trkpt>
      <trkpt lat="48.1959" lon="-3.84206">
        <ele>122</ele>
        <time>2020-05-17T16:53:09.221Z</time>
      </trkpt>
      <trkpt lat="48.19591" lon="-3.84204">
        <ele>122</ele>
        <time>2020-05-17T16:53:10.221Z</time>
      </trkpt>
      <trkpt lat="48.19592" lon="-3.84203">
        <ele>122</ele>
        <time>2020-05-17T16:53:11.221Z</time>
      </trkpt>
      <trkpt lat="48.19592" lon="-3.84204">
        <ele>122</ele>
        <time>2020-05-17T16:53:12.221Z</time>
      </trkpt>
      <trkpt lat="48.19592" lon="-3.84205">
        <ele>122</ele>
        <time>2020-05-17T16:53:13.221Z</time>
      </trkpt>
      <trkpt lat="48.196" lon="-3.84205">
        <ele>120</ele>
        <time>2020-05-17T16:53:14.221Z</time>
      </trkpt>
      <trkpt lat="48.196" lon="-3.84205">
        <ele>120</ele>
        <time>2020-05-17T16:53:15.221Z</time>
      </trkpt>
      <trkpt lat="48.196" lon="-3.84205">
        <ele>120</ele>
        <time>2020-05-17T16:53:16.220Z</time>
      </trkpt>
      <trkpt lat="48.196" lon="-3.84205">
        <ele>120</ele>
        <time>2020-05-17T16:53:17.221Z</time>
      </trkpt>
      <trkpt lat="48.19596" lon="-3.84202">
        <ele>119</ele>
        <time>2020-05-17T16:53:18.221Z</time>
      </trkpt>
      <trkpt lat="48.19595" lon="-3.84201">
        <ele>119</ele>
        <time>2020-05-17T16:53:19.221Z</time>
      </trkpt>
      <trkpt lat="48.19594" lon="-3.84199">
        <ele>120</ele>
        <time>2020-05-17T16:53:20.220Z</time>
      </trkpt>
      <trkpt lat="48.19593" lon="-3.84197">
        <ele>120</ele>
        <time>2020-05-17T16:53:21.221Z</time>
      </trkpt>
      <trkpt lat="48.19592" lon="-3.84194">
        <ele>120</ele>
        <time>2020-05-17T16:53:22.221Z</time>
      </trkpt>
      <trkpt lat="48.19591" lon="-3.84191">
        <ele>120</ele>
        <time>2020-05-17T16:53:23.220Z</time>
      </trkpt>
      <trkpt lat="48.1959" lon="-3.84187">
        <ele>119</ele>
        <time>2020-05-17T16:53:24.221Z</time>
      </trkpt>
      <trkpt lat="48.1959" lon="-3.84184">
        <ele>119</ele>
        <time>2020-05-17T16:53:25.221Z</time>
      </trkpt>
      <trkpt lat="48.1959" lon="-3.84181">
        <ele>119</ele>
        <time>2020-05-17T16:53:26.221Z</time>
      </trkpt>
      <trkpt lat="48.1959" lon="-3.84178">
        <ele>118</ele>
        <time>2020-05-17T16:53:27.220Z</time>
      </trkpt>
      <trkpt lat="48.1959" lon="-3.84175">
        <ele>118</ele>
        <time>2020-05-17T16:53:28.220Z</time>
      </trkpt>
      <trkpt lat="48.1959" lon="-3.84172">
        <ele>118</ele>
        <time>2020-05-17T16:53:29.220Z</time>
      </trkpt>
      <trkpt lat="48.19591" lon="-3.84169">
        <ele>117</ele>
        <time>2020-05-17T16:53:30.220Z</time>
      </trkpt>
      <trkpt lat="48.19591" lon="-3.84167">
        <ele>117</ele>
        <time>2020-05-17T16:53:31.221Z</time>
      </trkpt>
      <trkpt lat="48.19592" lon="-3.84164">
        <ele>117</ele>
        <time>2020-05-17T16:53:32.220Z</time>
      </trkpt>
      <trkpt lat="48.19592" lon="-3.84161">
        <ele>117</ele>
        <time>2020-05-17T16:53:33.221Z</time>
      </trkpt>
      <trkpt lat="48.19591" lon="-3.84158">
        <ele>117</ele>
        <time>2020-05-17T16:53:34.220Z</time>
      </trkpt>
      <trkpt lat="48.19591" lon="-3.84155">
        <ele>117</ele>
        <time>2020-05-17T16:53:35.221Z</time>
      </trkpt>
      <trkpt lat="48.1959" lon="-3.84153">
        <ele>117</ele>
        <time>2020-05-17T16:53:36.221Z</time>
      </trkpt>
      <trkpt lat="48.19588" lon="-3.8415">
        <ele>118</ele>
        <time>2020-05-17T16:53:37.221Z</time>
      </trkpt>
      <trkpt lat="48.19587" lon="-3.84149">
        <ele>118</ele>
        <time>2020-05-17T16:53:38.221Z</time>
      </trkpt>
      <trkpt lat="48.19586" lon="-3.84148">
        <ele>118</ele>
        <time>2020-05-17T16:53:39.221Z</time>
      </trkpt>
      <trkpt lat="48.19585" lon="-3.84147">
        <ele>118</ele>
        <time>2020-05-17T16:53:40.220Z</time>
      </trkpt>
      <trkpt lat="48.19582" lon="-3.84146">
        <ele>119</ele>
        <time>2020-05-17T16:53:41.220Z</time>
      </trkpt>
      <trkpt lat="48.19579" lon="-3.84146">
        <ele>119</ele>
        <time>2020-05-17T16:53:42.221Z</time>
      </trkpt>
      <trkpt lat="48.19578" lon="-3.84147">
        <ele>119</ele>
        <time>2020-05-17T16:53:43.221Z</time>
      </trkpt>
      <trkpt lat="48.19577" lon="-3.84149">
        <ele>119</ele>
        <time>2020-05-17T16:53:44.221Z</time>
      </trkpt>
      <trkpt lat="48.19576" lon="-3.84151">
        <ele>120</ele>
        <time>2020-05-17T16:53:45.221Z</time>
      </trkpt>
      <trkpt lat="48.19574" lon="-3.84152">
        <ele>120</ele>
        <time>2020-05-17T16:53:46.220Z</time>
      </trkpt>
      <trkpt lat="48.19572" lon="-3.84154">
        <ele>120</ele>
        <time>2020-05-17T16:53:47.221Z</time>
      </trkpt>
      <trkpt lat="48.1957" lon="-3.84155">
        <ele>120</ele>
        <time>2020-05-17T16:53:48.221Z</time>
      </trkpt>
      <trkpt lat="48.19568" lon="-3.84157">
        <ele>119</ele>
        <time>2020-05-17T16:53:49.221Z</time>
      </trkpt>
      <trkpt lat="48.19566" lon="-3.84158">
        <ele>119</ele>
        <time>2020-05-17T16:53:50.220Z</time>
      </trkpt>
      <trkpt lat="48.19565" lon="-3.8416">
        <ele>119</ele>
        <time>2020-05-17T16:53:51.221Z</time>
      </trkpt>
      <trkpt lat="48.19563" lon="-3.8416">
        <ele>119</ele>
        <time>2020-05-17T16:53:52.221Z</time>
      </trkpt>
      <trkpt lat="48.19561" lon="-3.84162">
        <ele>119</ele>
        <time>2020-05-17T16:53:53.221Z</time>
      </trkpt>
      <trkpt lat="48.1956" lon="-3.84162">
        <ele>118</ele>
        <time>2020-05-17T16:53:54.221Z</time>
      </trkpt>
      <trkpt lat="48.19559" lon="-3.84162">
        <ele>118</ele>
        <time>2020-05-17T16:53:55.221Z</time>
      </trkpt>
      <trkpt lat="48.19558" lon="-3.84163">
        <ele>118</ele>
        <time>2020-05-17T16:53:56.221Z</time>
      </trkpt>
      <trkpt lat="48.19556" lon="-3.84163">
        <ele>118</ele>
        <time>2020-05-17T16:53:57.220Z</time>
      </trkpt>
      <trkpt lat="48.19555" lon="-3.84162">
        <ele>118</ele>
        <time>2020-05-17T16:53:58.221Z</time>
      </trkpt>
      <trkpt lat="48.19553" lon="-3.84162">
        <ele>119</ele>
        <time>2020-05-17T16:53:59.221Z</time>
      </trkpt>
      <trkpt lat="48.19552" lon="-3.84161">
        <ele>119</ele>
        <time>2020-05-17T16:54:00.221Z</time>
      </trkpt>
      <trkpt lat="48.19551" lon="-3.84159">
        <ele>120</ele>
        <time>2020-05-17T16:54:01.220Z</time>
      </trkpt>
      <trkpt lat="48.19549" lon="-3.84158">
        <ele>120</ele>
        <time>2020-05-17T16:54:02.221Z</time>
      </trkpt>
      <trkpt lat="48.19547" lon="-3.84157">
        <ele>121</ele>
        <time>2020-05-17T16:54:03.221Z</time>
      </trkpt>
      <trkpt lat="48.19544" lon="-3.84156">
        <ele>121</ele>
        <time>2020-05-17T16:54:04.220Z</time>
      </trkpt>
      <trkpt lat="48.19541" lon="-3.84156">
        <ele>122</ele>
        <time>2020-05-17T16:54:05.221Z</time>
      </trkpt>
      <trkpt lat="48.19538" lon="-3.84154">
        <ele>122</ele>
        <time>2020-05-17T16:54:06.220Z</time>
      </trkpt>
      <trkpt lat="48.19536" lon="-3.84154">
        <ele>123</ele>
        <time>2020-05-17T16:54:07.221Z</time>
      </trkpt>
      <trkpt lat="48.19534" lon="-3.84152">
        <ele>123</ele>
        <time>2020-05-17T16:54:08.220Z</time>
      </trkpt>
      <trkpt lat="48.19531" lon="-3.84151">
        <ele>124</ele>
        <time>2020-05-17T16:54:09.221Z</time>
      </trkpt>
      <trkpt lat="48.19529" lon="-3.8415">
        <ele>125</ele>
        <time>2020-05-17T16:54:10.221Z</time>
      </trkpt>
      <trkpt lat="48.19526" lon="-3.84151">
        <ele>126</ele>
        <time>2020-05-17T16:54:11.221Z</time>
      </trkpt>
      <trkpt lat="48.19523" lon="-3.84152">
        <ele>126</ele>
        <time>2020-05-17T16:54:12.221Z</time>
      </trkpt>
      <trkpt lat="48.19521" lon="-3.84152">
        <ele>126</ele>
        <time>2020-05-17T16:54:13.221Z</time>
      </trkpt>
      <trkpt lat="48.19519" lon="-3.84153">
        <ele>126</ele>
        <time>2020-05-17T16:54:14.221Z</time>
      </trkpt>
      <trkpt lat="48.19517" lon="-3.84154">
        <ele>127</ele>
        <time>2020-05-17T16:54:15.221Z</time>
      </trkpt>
      <trkpt lat="48.19515" lon="-3.84155">
        <ele>127</ele>
        <time>2020-05-17T16:54:16.220Z</time>
      </trkpt>
      <trkpt lat="48.19513" lon="-3.84156">
        <ele>127</ele>
        <time>2020-05-17T16:54:17.221Z</time>
      </trkpt>
      <trkpt lat="48.19511" lon="-3.84157">
        <ele>127</ele>
        <time>2020-05-17T16:54:18.221Z</time>
      </trkpt>
      <trkpt lat="48.19509" lon="-3.84157">
        <ele>127</ele>
        <time>2020-05-17T16:54:19.221Z</time>
      </trkpt>
      <trkpt lat="48.19508" lon="-3.84157">
        <ele>126</ele>
        <time>2020-05-17T16:54:20.221Z</time>
      </trkpt>
      <trkpt lat="48.19506" lon="-3.84156">
        <ele>126</ele>
        <time>2020-05-17T16:54:21.221Z</time>
      </trkpt>
      <trkpt lat="48.19503" lon="-3.84155">
        <ele>126</ele>
        <time>2020-05-17T16:54:22.220Z</time>
      </trkpt>
      <trkpt lat="48.19501" lon="-3.84153">
        <ele>126</ele>
        <time>2020-05-17T16:54:23.221Z</time>
      </trkpt>
      <trkpt lat="48.19499" lon="-3.8415">
        <ele>125</ele>
        <time>2020-05-17T16:54:24.221Z</time>
      </trkpt>
      <trkpt lat="48.19497" lon="-3.84148">
        <ele>125</ele>
        <time>2020-05-17T16:54:25.221Z</time>
      </trkpt>
      <trkpt lat="48.19495" lon="-3.84145">
        <ele>125</ele>
        <time>2020-05-17T16:54:26.221Z</time>
      </trkpt>
      <trkpt lat="48.19492" lon="-3.84143">
        <ele>125</ele>
        <time>2020-05-17T16:54:27.221Z</time>
      </trkpt>
      <trkpt lat="48.1949" lon="-3.8414">
        <ele>125</ele>
        <time>2020-05-17T16:54:28.221Z</time>
      </trkpt>
      <trkpt lat="48.19488" lon="-3.84138">
        <ele>125</ele>
        <time>2020-05-17T16:54:29.221Z</time>
      </trkpt>
      <trkpt lat="48.19485" lon="-3.84135">
        <ele>125</ele>
        <time>2020-05-17T16:54:30.221Z</time>
      </trkpt>
      <trkpt lat="48.19483" lon="-3.84132">
        <ele>125</ele>
        <time>2020-05-17T16:54:31.220Z</time>
      </trkpt>
      <trkpt lat="48.1948" lon="-3.84128">
        <ele>125</ele>
        <time>2020-05-17T16:54:32.221Z</time>
      </trkpt>
      <trkpt lat="48.19477" lon="-3.84125">
        <ele>124</ele>
        <time>2020-05-17T16:54:33.220Z</time>
      </trkpt>
      <trkpt lat="48.19474" lon="-3.84121">
        <ele>124</ele>
        <time>2020-05-17T16:54:34.220Z</time>
      </trkpt>
      <trkpt lat="48.19472" lon="-3.84117">
        <ele>124</ele>
        <time>2020-05-17T16:54:35.220Z</time>
      </trkpt>
      <trkpt lat="48.19469" lon="-3.84113">
        <ele>124</ele>
        <time>2020-05-17T16:54:36.220Z</time>
      </trkpt>
      <trkpt lat="48.19466" lon="-3.84108">
        <ele>124</ele>
        <time>2020-05-17T16:54:37.221Z</time>
      </trkpt>
      <trkpt lat="48.19463" lon="-3.84103">
        <ele>123</ele>
        <time>2020-05-17T16:54:38.220Z</time>
      </trkpt>
      <trkpt lat="48.1946" lon="-3.84099">
        <ele>123</ele>
        <time>2020-05-17T16:54:39.221Z</time>
      </trkpt>
      <trkpt lat="48.19457" lon="-3.84094">
        <ele>123</ele>
        <time>2020-05-17T16:54:40.220Z</time>
      </trkpt>
      <trkpt lat="48.19454" lon="-3.8409">
        <ele>123</ele>
        <time>2020-05-17T16:54:41.221Z</time>
      </trkpt>
      <trkpt lat="48.19451" lon="-3.84086">
        <ele>123</ele>
        <time>2020-05-17T16:54:42.221Z</time>
      </trkpt>
      <trkpt lat="48.19447" lon="-3.84081">
        <ele>122</ele>
        <time>2020-05-17T16:54:43.220Z</time>
      </trkpt>
      <trkpt lat="48.19444" lon="-3.84076">
        <ele>122</ele>
        <time>2020-05-17T16:54:44.221Z</time>
      </trkpt>
      <trkpt lat="48.1944" lon="-3.84071">
        <ele>121</ele>
        <time>2020-05-17T16:54:45.221Z</time>
      </trkpt>
      <trkpt lat="48.19436" lon="-3.84065">
        <ele>121</ele>
        <time>2020-05-17T16:54:46.221Z</time>
      </trkpt>
      <trkpt lat="48.19432" lon="-3.84059">
        <ele>121</ele>
        <time>2020-05-17T16:54:47.221Z</time>
      </trkpt>
      <trkpt lat="48.19428" lon="-3.84053">
        <ele>120</ele>
        <time>2020-05-17T16:54:48.221Z</time>
      </trkpt>
      <trkpt lat="48.19424" lon="-3.84047">
        <ele>120</ele>
        <time>2020-05-17T16:54:49.221Z</time>
      </trkpt>
      <trkpt lat="48.19419" lon="-3.84041">
        <ele>120</ele>
        <time>2020-05-17T16:54:50.220Z</time>
      </trkpt>
      <trkpt lat="48.19415" lon="-3.84034">
        <ele>120</ele>
        <time>2020-05-17T16:54:51.220Z</time>
      </trkpt>
      <trkpt lat="48.19411" lon="-3.84028">
        <ele>120</ele>
        <time>2020-05-17T16:54:52.220Z</time>
      </trkpt>
      <trkpt lat="48.19406" lon="-3.84021">
        <ele>119</ele>
        <time>2020-05-17T16:54:53.221Z</time>
      </trkpt>
      <trkpt lat="48.19401" lon="-3.84014">
        <ele>119</ele>
        <time>2020-05-17T16:54:54.221Z</time>
      </trkpt>
      <trkpt lat="48.19396" lon="-3.84007">
        <ele>119</ele>
        <time>2020-05-17T16:54:55.221Z</time>
      </trkpt>
      <trkpt lat="48.19391" lon="-3.84">
        <ele>119</ele>
        <time>2020-05-17T16:54:56.221Z</time>
      </trkpt>
      <trkpt lat="48.19387" lon="-3.83993">
        <ele>119</ele>
        <time>2020-05-17T16:54:57.221Z</time>
      </trkpt>
      <trkpt lat="48.19382" lon="-3.83986">
        <ele>119</ele>
        <time>2020-05-17T16:54:58.221Z</time>
      </trkpt>
      <trkpt lat="48.19377" lon="-3.83979">
        <ele>119</ele>
        <time>2020-05-17T16:54:59.220Z</time>
      </trkpt>
      <trkpt lat="48.19372" lon="-3.83972">
        <ele>119</ele>
        <time>2020-05-17T16:55:00.220Z</time>
      </trkpt>
      <trkpt lat="48.19367" lon="-3.83966">
        <ele>118</ele>
        <time>2020-05-17T16:55:01.220Z</time>
      </trkpt>
      <trkpt lat="48.19361" lon="-3.83958">
        <ele>118</ele>
        <time>2020-05-17T16:55:02.221Z</time>
      </trkpt>
      <trkpt lat="48.19355" lon="-3.83951">
        <ele>117</ele>
        <time>2020-05-17T16:55:03.221Z</time>
      </trkpt>
      <trkpt lat="48.1935" lon="-3.83944">
        <ele>117</ele>
        <time>2020-05-17T16:55:04.221Z</time>
      </trkpt>
      <trkpt lat="48.19345" lon="-3.83937">
        <ele>117</ele>
        <time>2020-05-17T16:55:05.220Z</time>
      </trkpt>
      <trkpt lat="48.1934" lon="-3.8393">
        <ele>117</ele>
        <time>2020-05-17T16:55:06.221Z</time>
      </trkpt>
      <trkpt lat="48.19335" lon="-3.83923">
        <ele>116</ele>
        <time>2020-05-17T16:55:07.221Z</time>
      </trkpt>
      <trkpt lat="48.1933" lon="-3.83915">
        <ele>116</ele>
        <time>2020-05-17T16:55:08.221Z</time>
      </trkpt>
      <trkpt lat="48.19325" lon="-3.83908">
        <ele>115</ele>
        <time>2020-05-17T16:55:09.221Z</time>
      </trkpt>
      <trkpt lat="48.1932" lon="-3.83901">
        <ele>115</ele>
        <time>2020-05-17T16:55:10.221Z</time>
      </trkpt>
      <trkpt lat="48.19315" lon="-3.83894">
        <ele>115</ele>
        <time>2020-05-17T16:55:11.221Z</time>
      </trkpt>
      <trkpt lat="48.1931" lon="-3.83887">
        <ele>114</ele>
        <time>2020-05-17T16:55:12.221Z</time>
      </trkpt>
      <trkpt lat="48.19305" lon="-3.8388">
        <ele>114</ele>
        <time>2020-05-17T16:55:13.221Z</time>
      </trkpt>
      <trkpt lat="48.193" lon="-3.83873">
        <ele>114</ele>
        <time>2020-05-17T16:55:14.220Z</time>
      </trkpt>
      <trkpt lat="48.19296" lon="-3.83865">
        <ele>114</ele>
        <time>2020-05-17T16:55:15.220Z</time>
      </trkpt>
      <trkpt lat="48.19291" lon="-3.83859">
        <ele>114</ele>
        <time>2020-05-17T16:55:16.221Z</time>
      </trkpt>
      <trkpt lat="48.19286" lon="-3.83852">
        <ele>114</ele>
        <time>2020-05-17T16:55:17.221Z</time>
      </trkpt>
      <trkpt lat="48.19282" lon="-3.83845">
        <ele>114</ele>
        <time>2020-05-17T16:55:18.221Z</time>
      </trkpt>
      <trkpt lat="48.19277" lon="-3.83838">
        <ele>114</ele>
        <time>2020-05-17T16:55:19.221Z</time>
      </trkpt>
      <trkpt lat="48.19273" lon="-3.83831">
        <ele>114</ele>
        <time>2020-05-17T16:55:20.220Z</time>
      </trkpt>
      <trkpt lat="48.19268" lon="-3.83825">
        <ele>115</ele>
        <time>2020-05-17T16:55:21.221Z</time>
      </trkpt>
      <trkpt lat="48.19263" lon="-3.83818">
        <ele>115</ele>
        <time>2020-05-17T16:55:22.221Z</time>
      </trkpt>
      <trkpt lat="48.19258" lon="-3.83812">
        <ele>115</ele>
        <time>2020-05-17T16:55:23.221Z</time>
      </trkpt>
      <trkpt lat="48.19253" lon="-3.83807">
        <ele>115</ele>
        <time>2020-05-17T16:55:24.221Z</time>
      </trkpt>
      <trkpt lat="48.19249" lon="-3.83802">
        <ele>115</ele>
        <time>2020-05-17T16:55:25.221Z</time>
      </trkpt>
      <trkpt lat="48.19246" lon="-3.83798">
        <ele>115</ele>
        <time>2020-05-17T16:55:26.220Z</time>
      </trkpt>
      <trkpt lat="48.19243" lon="-3.83795">
        <ele>115</ele>
        <time>2020-05-17T16:55:27.220Z</time>
      </trkpt>
      <trkpt lat="48.19242" lon="-3.83793">
        <ele>115</ele>
        <time>2020-05-17T16:55:28.220Z</time>
      </trkpt>
      <trkpt lat="48.1924" lon="-3.83792">
        <ele>114</ele>
        <time>2020-05-17T16:55:29.221Z</time>
      </trkpt>
      <trkpt lat="48.19239" lon="-3.8379">
        <ele>114</ele>
        <time>2020-05-17T16:55:30.220Z</time>
      </trkpt>
      <trkpt lat="48.19239" lon="-3.83787">
        <ele>114</ele>
        <time>2020-05-17T16:55:31.220Z</time>
      </trkpt>
      <trkpt lat="48.19238" lon="-3.83783">
        <ele>113</ele>
        <time>2020-05-17T16:55:32.220Z</time>
      </trkpt>
      <trkpt lat="48.19239" lon="-3.83779">
        <ele>113</ele>
        <time>2020-05-17T16:55:33.221Z</time>
      </trkpt>
      <trkpt lat="48.1924" lon="-3.83773">
        <ele>112</ele>
        <time>2020-05-17T16:55:34.221Z</time>
      </trkpt>
      <trkpt lat="48.1924" lon="-3.83767">
        <ele>112</ele>
        <time>2020-05-17T16:55:35.221Z</time>
      </trkpt>
      <trkpt lat="48.19241" lon="-3.83761">
        <ele>112</ele>
        <time>2020-05-17T16:55:36.221Z</time>
      </trkpt>
      <trkpt lat="48.19242" lon="-3.83754">
        <ele>111</ele>
        <time>2020-05-17T16:55:37.221Z</time>
      </trkpt>
      <trkpt lat="48.19243" lon="-3.83746">
        <ele>111</ele>
        <time>2020-05-17T16:55:38.221Z</time>
      </trkpt>
      <trkpt lat="48.19244" lon="-3.83739">
        <ele>110</ele>
        <time>2020-05-17T16:55:39.221Z</time>
      </trkpt>
      <trkpt lat="48.19245" lon="-3.83731">
        <ele>109</ele>
        <time>2020-05-17T16:55:40.221Z</time>
      </trkpt>
      <trkpt lat="48.19246" lon="-3.83724">
        <ele>109</ele>
        <time>2020-05-17T16:55:41.221Z</time>
      </trkpt>
      <trkpt lat="48.19247" lon="-3.83715">
        <ele>108</ele>
        <time>2020-05-17T16:55:42.221Z</time>
      </trkpt>
      <trkpt lat="48.19248" lon="-3.83707">
        <ele>108</ele>
        <time>2020-05-17T16:55:43.221Z</time>
      </trkpt>
      <trkpt lat="48.19248" lon="-3.83698">
        <ele>107</ele>
        <time>2020-05-17T16:55:44.220Z</time>
      </trkpt>
      <trkpt lat="48.19249" lon="-3.83689">
        <ele>107</ele>
        <time>2020-05-17T16:55:45.220Z</time>
      </trkpt>
      <trkpt lat="48.19251" lon="-3.8368">
        <ele>107</ele>
        <time>2020-05-17T16:55:46.220Z</time>
      </trkpt>
      <trkpt lat="48.19252" lon="-3.83671">
        <ele>106</ele>
        <time>2020-05-17T16:55:47.220Z</time>
      </trkpt>
      <trkpt lat="48.19253" lon="-3.83662">
        <ele>106</ele>
        <time>2020-05-17T16:55:48.220Z</time>
      </trkpt>
      <trkpt lat="48.19254" lon="-3.83654">
        <ele>105</ele>
        <time>2020-05-17T16:55:49.221Z</time>
      </trkpt>
      <trkpt lat="48.19255" lon="-3.83645">
        <ele>105</ele>
        <time>2020-05-17T16:55:50.221Z</time>
      </trkpt>
      <trkpt lat="48.19255" lon="-3.83636">
        <ele>104</ele>
        <time>2020-05-17T16:55:51.221Z</time>
      </trkpt>
      <trkpt lat="48.19256" lon="-3.83628">
        <ele>104</ele>
        <time>2020-05-17T16:55:52.220Z</time>
      </trkpt>
      <trkpt lat="48.19257" lon="-3.83619">
        <ele>103</ele>
        <time>2020-05-17T16:55:53.221Z</time>
      </trkpt>
      <trkpt lat="48.19258" lon="-3.83611">
        <ele>103</ele>
        <time>2020-05-17T16:55:54.221Z</time>
      </trkpt>
      <trkpt lat="48.19258" lon="-3.83602">
        <ele>103</ele>
        <time>2020-05-17T16:55:55.221Z</time>
      </trkpt>
      <trkpt lat="48.19259" lon="-3.83594">
        <ele>103</ele>
        <time>2020-05-17T16:55:56.221Z</time>
      </trkpt>
      <trkpt lat="48.1926" lon="-3.83586">
        <ele>103</ele>
        <time>2020-05-17T16:55:57.221Z</time>
      </trkpt>
      <trkpt lat="48.1926" lon="-3.83579">
        <ele>103</ele>
        <time>2020-05-17T16:55:58.221Z</time>
      </trkpt>
      <trkpt lat="48.19261" lon="-3.83571">
        <ele>103</ele>
        <time>2020-05-17T16:55:59.221Z</time>
      </trkpt>
      <trkpt lat="48.19262" lon="-3.83561">
        <ele>103</ele>
        <time>2020-05-17T16:56:00.220Z</time>
      </trkpt>
      <trkpt lat="48.19263" lon="-3.83554">
        <ele>103</ele>
        <time>2020-05-17T16:56:01.221Z</time>
      </trkpt>
      <trkpt lat="48.19263" lon="-3.83547">
        <ele>103</ele>
        <time>2020-05-17T16:56:02.221Z</time>
      </trkpt>
      <trkpt lat="48.19264" lon="-3.8354">
        <ele>103</ele>
        <time>2020-05-17T16:56:03.221Z</time>
      </trkpt>
      <trkpt lat="48.19265" lon="-3.83532">
        <ele>102</ele>
        <time>2020-05-17T16:56:04.221Z</time>
      </trkpt>
      <trkpt lat="48.19265" lon="-3.83526">
        <ele>102</ele>
        <time>2020-05-17T16:56:05.221Z</time>
      </trkpt>
      <trkpt lat="48.19265" lon="-3.83521">
        <ele>102</ele>
        <time>2020-05-17T16:56:06.221Z</time>
      </trkpt>
      <trkpt lat="48.19265" lon="-3.83516">
        <ele>102</ele>
        <time>2020-05-17T16:56:07.220Z</time>
      </trkpt>
      <trkpt lat="48.19265" lon="-3.83513">
        <ele>101</ele>
        <time>2020-05-17T16:56:08.220Z</time>
      </trkpt>
      <trkpt lat="48.19264" lon="-3.83509">
        <ele>101</ele>
        <time>2020-05-17T16:56:09.220Z</time>
      </trkpt>
      <trkpt lat="48.19264" lon="-3.83507">
        <ele>101</ele>
        <time>2020-05-17T16:56:10.221Z</time>
      </trkpt>
      <trkpt lat="48.19264" lon="-3.83506">
        <ele>101</ele>
        <time>2020-05-17T16:56:11.220Z</time>
      </trkpt>
      <trkpt lat="48.19264" lon="-3.83506">
        <ele>101</ele>
        <time>2020-05-17T16:56:12.220Z</time>
      </trkpt>
      <trkpt lat="48.19264" lon="-3.83507">
        <ele>101</ele>
        <time>2020-05-17T16:56:13.220Z</time>
      </trkpt>
      <trkpt lat="48.19265" lon="-3.83509">
        <ele>99</ele>
        <time>2020-05-17T16:56:14.220Z</time>
      </trkpt>
      <trkpt lat="48.19265" lon="-3.8351">
        <ele>99</ele>
        <time>2020-05-17T16:56:15.221Z</time>
      </trkpt>
      <trkpt lat="48.19264" lon="-3.83511">
        <ele>98</ele>
        <time>2020-05-17T16:56:16.221Z</time>
      </trkpt>
      <trkpt lat="48.19264" lon="-3.83511">
        <ele>98</ele>
        <time>2020-05-17T16:56:17.221Z</time>
      </trkpt>
      <trkpt lat="48.19263" lon="-3.83512">
        <ele>99</ele>
        <time>2020-05-17T16:56:18.221Z</time>
      </trkpt>
      <trkpt lat="48.19261" lon="-3.83514">
        <ele>99</ele>
        <time>2020-05-17T16:56:19.222Z</time>
      </trkpt>
      <trkpt lat="48.1926" lon="-3.83516">
        <ele>99</ele>
        <time>2020-05-17T16:56:20.222Z</time>
      </trkpt>
      <trkpt lat="48.19258" lon="-3.83519">
        <ele>99</ele>
        <time>2020-05-17T16:56:21.222Z</time>
      </trkpt>
      <trkpt lat="48.19255" lon="-3.83521">
        <ele>99</ele>
        <time>2020-05-17T16:56:22.222Z</time>
      </trkpt>
      <trkpt lat="48.19252" lon="-3.83524">
        <ele>100</ele>
        <time>2020-05-17T16:56:23.221Z</time>
      </trkpt>
      <trkpt lat="48.19247" lon="-3.83526">
        <ele>100</ele>
        <time>2020-05-17T16:56:24.222Z</time>
      </trkpt>
      <trkpt lat="48.19243" lon="-3.83527">
        <ele>100</ele>
        <time>2020-05-17T16:56:25.222Z</time>
      </trkpt>
      <trkpt lat="48.19239" lon="-3.83529">
        <ele>100</ele>
        <time>2020-05-17T16:56:26.222Z</time>
      </trkpt>
      <trkpt lat="48.19234" lon="-3.83531">
        <ele>100</ele>
        <time>2020-05-17T16:56:27.221Z</time>
      </trkpt>
      <trkpt lat="48.1923" lon="-3.83533">
        <ele>100</ele>
        <time>2020-05-17T16:56:28.222Z</time>
      </trkpt>
      <trkpt lat="48.19225" lon="-3.83535">
        <ele>100</ele>
        <time>2020-05-17T16:56:29.221Z</time>
      </trkpt>
      <trkpt lat="48.1922" lon="-3.83537">
        <ele>100</ele>
        <time>2020-05-17T16:56:30.222Z</time>
      </trkpt>
      <trkpt lat="48.19215" lon="-3.8354">
        <ele>100</ele>
        <time>2020-05-17T16:56:31.221Z</time>
      </trkpt>
      <trkpt lat="48.19211" lon="-3.83542">
        <ele>100</ele>
        <time>2020-05-17T16:56:32.222Z</time>
      </trkpt>
      <trkpt lat="48.19206" lon="-3.83546">
        <ele>100</ele>
        <time>2020-05-17T16:56:33.222Z</time>
      </trkpt>
      <trkpt lat="48.19202" lon="-3.83549">
        <ele>100</ele>
        <time>2020-05-17T16:56:34.222Z</time>
      </trkpt>
      <trkpt lat="48.19197" lon="-3.83552">
        <ele>100</ele>
        <time>2020-05-17T16:56:35.221Z</time>
      </trkpt>
      <trkpt lat="48.19192" lon="-3.83554">
        <ele>101</ele>
        <time>2020-05-17T16:56:36.222Z</time>
      </trkpt>
      <trkpt lat="48.19188" lon="-3.83556">
        <ele>101</ele>
        <time>2020-05-17T16:56:37.222Z</time>
      </trkpt>
      <trkpt lat="48.19183" lon="-3.83558">
        <ele>101</ele>
        <time>2020-05-17T16:56:38.222Z</time>
      </trkpt>
      <trkpt lat="48.19178" lon="-3.83559">
        <ele>101</ele>
        <time>2020-05-17T16:56:39.222Z</time>
      </trkpt>
      <trkpt lat="48.19173" lon="-3.8356">
        <ele>102</ele>
        <time>2020-05-17T16:56:40.221Z</time>
      </trkpt>
      <trkpt lat="48.19168" lon="-3.8356">
        <ele>102</ele>
        <time>2020-05-17T16:56:41.221Z</time>
      </trkpt>
      <trkpt lat="48.19163" lon="-3.83559">
        <ele>102</ele>
        <time>2020-05-17T16:56:42.222Z</time>
      </trkpt>
      <trkpt lat="48.19158" lon="-3.83558">
        <ele>102</ele>
        <time>2020-05-17T16:56:43.222Z</time>
      </trkpt>
      <trkpt lat="48.19153" lon="-3.83558">
        <ele>102</ele>
        <time>2020-05-17T16:56:44.221Z</time>
      </trkpt>
      <trkpt lat="48.19149" lon="-3.83557">
        <ele>101</ele>
        <time>2020-05-17T16:56:45.221Z</time>
      </trkpt>
      <trkpt lat="48.19143" lon="-3.83557">
        <ele>101</ele>
        <time>2020-05-17T16:56:46.221Z</time>
      </trkpt>
      <trkpt lat="48.19139" lon="-3.83556">
        <ele>101</ele>
        <time>2020-05-17T16:56:47.221Z</time>
      </trkpt>
      <trkpt lat="48.19133" lon="-3.83556">
        <ele>101</ele>
        <time>2020-05-17T16:56:48.222Z</time>
      </trkpt>
      <trkpt lat="48.19128" lon="-3.83557">
        <ele>101</ele>
        <time>2020-05-17T16:56:49.221Z</time>
      </trkpt>
      <trkpt lat="48.19124" lon="-3.83557">
        <ele>101</ele>
        <time>2020-05-17T16:56:50.221Z</time>
      </trkpt>
      <trkpt lat="48.19118" lon="-3.83559">
        <ele>101</ele>
        <time>2020-05-17T16:56:51.222Z</time>
      </trkpt>
      <trkpt lat="48.19114" lon="-3.8356">
        <ele>101</ele>
        <time>2020-05-17T16:56:52.222Z</time>
      </trkpt>
      <trkpt lat="48.19109" lon="-3.83562">
        <ele>101</ele>
        <time>2020-05-17T16:56:53.221Z</time>
      </trkpt>
      <trkpt lat="48.19104" lon="-3.83564">
        <ele>101</ele>
        <time>2020-05-17T16:56:54.222Z</time>
      </trkpt>
      <trkpt lat="48.191" lon="-3.83565">
        <ele>101</ele>
        <time>2020-05-17T16:56:55.222Z</time>
      </trkpt>
      <trkpt lat="48.19095" lon="-3.83567">
        <ele>102</ele>
        <time>2020-05-17T16:56:56.222Z</time>
      </trkpt>
      <trkpt lat="48.1909" lon="-3.83569">
        <ele>102</ele>
        <time>2020-05-17T16:56:57.222Z</time>
      </trkpt>
      <trkpt lat="48.19086" lon="-3.8357">
        <ele>102</ele>
        <time>2020-05-17T16:56:58.222Z</time>
      </trkpt>
      <trkpt lat="48.19081" lon="-3.83572">
        <ele>102</ele>
        <time>2020-05-17T16:56:59.222Z</time>
      </trkpt>
      <trkpt lat="48.19077" lon="-3.83574">
        <ele>102</ele>
        <time>2020-05-17T16:57:00.221Z</time>
      </trkpt>
      <trkpt lat="48.19073" lon="-3.83576">
        <ele>102</ele>
        <time>2020-05-17T16:57:01.222Z</time>
      </trkpt>
      <trkpt lat="48.1907" lon="-3.83578">
        <ele>102</ele>
        <time>2020-05-17T16:57:02.222Z</time>
      </trkpt>
      <trkpt lat="48.19067" lon="-3.83582">
        <ele>102</ele>
        <time>2020-05-17T16:57:03.222Z</time>
      </trkpt>
      <trkpt lat="48.19064" lon="-3.83586">
        <ele>102</ele>
        <time>2020-05-17T16:57:04.222Z</time>
      </trkpt>
      <trkpt lat="48.19062" lon="-3.83591">
        <ele>102</ele>
        <time>2020-05-17T16:57:05.222Z</time>
      </trkpt>
      <trkpt lat="48.1906" lon="-3.83596">
        <ele>102</ele>
        <time>2020-05-17T16:57:06.222Z</time>
      </trkpt>
      <trkpt lat="48.19059" lon="-3.83602">
        <ele>102</ele>
        <time>2020-05-17T16:57:07.222Z</time>
      </trkpt>
      <trkpt lat="48.19058" lon="-3.83608">
        <ele>102</ele>
        <time>2020-05-17T16:57:08.222Z</time>
      </trkpt>
      <trkpt lat="48.19057" lon="-3.83614">
        <ele>102</ele>
        <time>2020-05-17T16:57:09.222Z</time>
      </trkpt>
      <trkpt lat="48.19056" lon="-3.83619">
        <ele>103</ele>
        <time>2020-05-17T16:57:10.222Z</time>
      </trkpt>
      <trkpt lat="48.19054" lon="-3.83623">
        <ele>103</ele>
        <time>2020-05-17T16:57:11.222Z</time>
      </trkpt>
      <trkpt lat="48.19052" lon="-3.83627">
        <ele>104</ele>
        <time>2020-05-17T16:57:12.222Z</time>
      </trkpt>
      <trkpt lat="48.19049" lon="-3.8363">
        <ele>104</ele>
        <time>2020-05-17T16:57:13.221Z</time>
      </trkpt>
      <trkpt lat="48.19045" lon="-3.83632">
        <ele>104</ele>
        <time>2020-05-17T16:57:14.221Z</time>
      </trkpt>
      <trkpt lat="48.19041" lon="-3.83634">
        <ele>104</ele>
        <time>2020-05-17T16:57:15.222Z</time>
      </trkpt>
      <trkpt lat="48.19035" lon="-3.83634">
        <ele>105</ele>
        <time>2020-05-17T16:57:16.222Z</time>
      </trkpt>
      <trkpt lat="48.19029" lon="-3.83635">
        <ele>105</ele>
        <time>2020-05-17T16:57:17.222Z</time>
      </trkpt>
      <trkpt lat="48.19023" lon="-3.83636">
        <ele>105</ele>
        <time>2020-05-17T16:57:18.222Z</time>
      </trkpt>
      <trkpt lat="48.19018" lon="-3.83636">
        <ele>105</ele>
        <time>2020-05-17T16:57:19.222Z</time>
      </trkpt>
      <trkpt lat="48.19013" lon="-3.83637">
        <ele>104</ele>
        <time>2020-05-17T16:57:20.222Z</time>
      </trkpt>
      <trkpt lat="48.19007" lon="-3.83637">
        <ele>104</ele>
        <time>2020-05-17T16:57:21.222Z</time>
      </trkpt>
      <trkpt lat="48.19002" lon="-3.83638">
        <ele>104</ele>
        <time>2020-05-17T16:57:22.222Z</time>
      </trkpt>
      <trkpt lat="48.18997" lon="-3.83639">
        <ele>103</ele>
        <time>2020-05-17T16:57:23.222Z</time>
      </trkpt>
      <trkpt lat="48.18991" lon="-3.83641">
        <ele>103</ele>
        <time>2020-05-17T16:57:24.221Z</time>
      </trkpt>
      <trkpt lat="48.18984" lon="-3.83642">
        <ele>103</ele>
        <time>2020-05-17T16:57:25.221Z</time>
      </trkpt>
      <trkpt lat="48.18977" lon="-3.83644">
        <ele>103</ele>
        <time>2020-05-17T16:57:26.221Z</time>
      </trkpt>
      <trkpt lat="48.1897" lon="-3.83645">
        <ele>102</ele>
        <time>2020-05-17T16:57:27.222Z</time>
      </trkpt>
      <trkpt lat="48.18963" lon="-3.83646">
        <ele>102</ele>
        <time>2020-05-17T16:57:28.222Z</time>
      </trkpt>
      <trkpt lat="48.18957" lon="-3.83647">
        <ele>102</ele>
        <time>2020-05-17T16:57:29.222Z</time>
      </trkpt>
      <trkpt lat="48.18951" lon="-3.83649">
        <ele>102</ele>
        <time>2020-05-17T16:57:30.222Z</time>
      </trkpt>
      <trkpt lat="48.18945" lon="-3.83651">
        <ele>102</ele>
        <time>2020-05-17T16:57:31.221Z</time>
      </trkpt>
      <trkpt lat="48.18939" lon="-3.83654">
        <ele>101</ele>
        <time>2020-05-17T16:57:32.222Z</time>
      </trkpt>
      <trkpt lat="48.18934" lon="-3.83657">
        <ele>101</ele>
        <time>2020-05-17T16:57:33.222Z</time>
      </trkpt>
      <trkpt lat="48.18929" lon="-3.8366">
        <ele>101</ele>
        <time>2020-05-17T16:57:34.222Z</time>
      </trkpt>
      <trkpt lat="48.18925" lon="-3.83663">
        <ele>101</ele>
        <time>2020-05-17T16:57:35.222Z</time>
      </trkpt>
      <trkpt lat="48.18923" lon="-3.83664">
        <ele>101</ele>
        <time>2020-05-17T16:57:36.222Z</time>
      </trkpt>
      <trkpt lat="48.1892" lon="-3.83665">
        <ele>101</ele>
        <time>2020-05-17T16:57:37.221Z</time>
      </trkpt>
      <trkpt lat="48.18919" lon="-3.83666">
        <ele>101</ele>
        <time>2020-05-17T16:57:38.221Z</time>
      </trkpt>
      <trkpt lat="48.18918" lon="-3.83667">
        <ele>101</ele>
        <time>2020-05-17T16:57:39.222Z</time>
      </trkpt>
      <trkpt lat="48.18916" lon="-3.83669">
        <ele>102</ele>
        <time>2020-05-17T16:57:40.221Z</time>
      </trkpt>
      <trkpt lat="48.18915" lon="-3.83671">
        <ele>102</ele>
        <time>2020-05-17T16:57:41.222Z</time>
      </trkpt>
      <trkpt lat="48.18915" lon="-3.83672">
        <ele>102</ele>
        <time>2020-05-17T16:57:42.222Z</time>
      </trkpt>
      <trkpt lat="48.18914" lon="-3.83674">
        <ele>102</ele>
        <time>2020-05-17T16:57:43.222Z</time>
      </trkpt>
      <trkpt lat="48.18913" lon="-3.83677">
        <ele>102</ele>
        <time>2020-05-17T16:57:44.222Z</time>
      </trkpt>
      <trkpt lat="48.18912" lon="-3.8368">
        <ele>102</ele>
        <time>2020-05-17T16:57:45.222Z</time>
      </trkpt>
      <trkpt lat="48.18911" lon="-3.83684">
        <ele>101</ele>
        <time>2020-05-17T16:57:46.221Z</time>
      </trkpt>
      <trkpt lat="48.1891" lon="-3.83687">
        <ele>101</ele>
        <time>2020-05-17T16:57:47.222Z</time>
      </trkpt>
      <trkpt lat="48.18909" lon="-3.8369">
        <ele>101</ele>
        <time>2020-05-17T16:57:48.222Z</time>
      </trkpt>
      <trkpt lat="48.18908" lon="-3.83693">
        <ele>101</ele>
        <time>2020-05-17T16:57:49.222Z</time>
      </trkpt>
      <trkpt lat="48.18907" lon="-3.83696">
        <ele>100</ele>
        <time>2020-05-17T16:57:50.222Z</time>
      </trkpt>
      <trkpt lat="48.18905" lon="-3.837">
        <ele>100</ele>
        <time>2020-05-17T16:57:51.221Z</time>
      </trkpt>
      <trkpt lat="48.18904" lon="-3.83703">
        <ele>100</ele>
        <time>2020-05-17T16:57:52.221Z</time>
      </trkpt>
      <trkpt lat="48.18902" lon="-3.83706">
        <ele>100</ele>
        <time>2020-05-17T16:57:53.221Z</time>
      </trkpt>
      <trkpt lat="48.18901" lon="-3.8371">
        <ele>100</ele>
        <time>2020-05-17T16:57:54.222Z</time>
      </trkpt>
      <trkpt lat="48.18899" lon="-3.83714">
        <ele>100</ele>
        <time>2020-05-17T16:57:55.222Z</time>
      </trkpt>
      <trkpt lat="48.18897" lon="-3.83718">
        <ele>99</ele>
        <time>2020-05-17T16:57:56.221Z</time>
      </trkpt>
      <trkpt lat="48.18894" lon="-3.83723">
        <ele>100</ele>
        <time>2020-05-17T16:57:57.222Z</time>
      </trkpt>
      <trkpt lat="48.18892" lon="-3.83727">
        <ele>100</ele>
        <time>2020-05-17T16:57:58.222Z</time>
      </trkpt>
      <trkpt lat="48.1889" lon="-3.83731">
        <ele>100</ele>
        <time>2020-05-17T16:57:59.221Z</time>
      </trkpt>
      <trkpt lat="48.18888" lon="-3.83735">
        <ele>100</ele>
        <time>2020-05-17T16:58:00.222Z</time>
      </trkpt>
      <trkpt lat="48.18886" lon="-3.8374">
        <ele>100</ele>
        <time>2020-05-17T16:58:01.221Z</time>
      </trkpt>
      <trkpt lat="48.18884" lon="-3.83745">
        <ele>100</ele>
        <time>2020-05-17T16:58:02.221Z</time>
      </trkpt>
      <trkpt lat="48.18882" lon="-3.83749">
        <ele>101</ele>
        <time>2020-05-17T16:58:03.221Z</time>
      </trkpt>
      <trkpt lat="48.1888" lon="-3.83752">
        <ele>101</ele>
        <time>2020-05-17T16:58:04.222Z</time>
      </trkpt>
      <trkpt lat="48.18879" lon="-3.83756">
        <ele>101</ele>
        <time>2020-05-17T16:58:05.221Z</time>
      </trkpt>
      <trkpt lat="48.18877" lon="-3.8376">
        <ele>102</ele>
        <time>2020-05-17T16:58:06.221Z</time>
      </trkpt>
      <trkpt lat="48.18874" lon="-3.83764">
        <ele>102</ele>
        <time>2020-05-17T16:58:07.221Z</time>
      </trkpt>
      <trkpt lat="48.18872" lon="-3.83768">
        <ele>102</ele>
        <time>2020-05-17T16:58:08.221Z</time>
      </trkpt>
      <trkpt lat="48.18869" lon="-3.83772">
        <ele>102</ele>
        <time>2020-05-17T16:58:09.221Z</time>
      </trkpt>
      <trkpt lat="48.18868" lon="-3.83776">
        <ele>102</ele>
        <time>2020-05-17T16:58:10.222Z</time>
      </trkpt>
      <trkpt lat="48.18866" lon="-3.83779">
        <ele>103</ele>
        <time>2020-05-17T16:58:11.222Z</time>
      </trkpt>
      <trkpt lat="48.18865" lon="-3.83782">
        <ele>103</ele>
        <time>2020-05-17T16:58:12.222Z</time>
      </trkpt>
      <trkpt lat="48.18863" lon="-3.83785">
        <ele>103</ele>
        <time>2020-05-17T16:58:13.221Z</time>
      </trkpt>
      <trkpt lat="48.18862" lon="-3.83787">
        <ele>103</ele>
        <time>2020-05-17T16:58:14.222Z</time>
      </trkpt>
      <trkpt lat="48.18862" lon="-3.8379">
        <ele>103</ele>
        <time>2020-05-17T16:58:15.222Z</time>
      </trkpt>
      <trkpt lat="48.1886" lon="-3.83792">
        <ele>103</ele>
        <time>2020-05-17T16:58:16.222Z</time>
      </trkpt>
      <trkpt lat="48.1886" lon="-3.83792">
        <ele>103</ele>
        <time>2020-05-17T16:58:17.221Z</time>
      </trkpt>
      <trkpt lat="48.18859" lon="-3.83793">
        <ele>103</ele>
        <time>2020-05-17T16:58:18.222Z</time>
      </trkpt>
      <trkpt lat="48.18859" lon="-3.83793">
        <ele>103</ele>
        <time>2020-05-17T16:58:19.221Z</time>
      </trkpt>
      <trkpt lat="48.18859" lon="-3.83793">
        <ele>103</ele>
        <time>2020-05-17T16:58:20.222Z</time>
      </trkpt>
      <trkpt lat="48.18858" lon="-3.83793">
        <ele>103</ele>
        <time>2020-05-17T16:58:21.222Z</time>
      </trkpt>
      <trkpt lat="48.18858" lon="-3.83792">
        <ele>103</ele>
        <time>2020-05-17T16:58:22.222Z</time>
      </trkpt>
      <trkpt lat="48.18857" lon="-3.83792">
        <ele>103</ele>
        <time>2020-05-17T16:58:23.221Z</time>
      </trkpt>
      <trkpt lat="48.18856" lon="-3.83791">
        <ele>103</ele>
        <time>2020-05-17T16:58:24.221Z</time>
      </trkpt>
      <trkpt lat="48.18855" lon="-3.8379">
        <ele>103</ele>
        <time>2020-05-17T16:58:25.222Z</time>
      </trkpt>
      <trkpt lat="48.18853" lon="-3.83789">
        <ele>103</ele>
        <time>2020-05-17T16:58:26.222Z</time>
      </trkpt>
      <trkpt lat="48.18852" lon="-3.83787">
        <ele>102</ele>
        <time>2020-05-17T16:58:27.222Z</time>
      </trkpt>
      <trkpt lat="48.18853" lon="-3.83788">
        <ele>101</ele>
        <time>2020-05-17T16:58:28.224Z</time>
      </trkpt>
      <trkpt lat="48.18854" lon="-3.83789">
        <ele>101</ele>
        <time>2020-05-17T16:58:29.224Z</time>
      </trkpt>
      <trkpt lat="48.18854" lon="-3.83787">
        <ele>98</ele>
        <time>2020-05-17T16:58:30.224Z</time>
      </trkpt>
      <trkpt lat="48.18854" lon="-3.83787">
        <ele>97</ele>
        <time>2020-05-17T16:58:31.223Z</time>
      </trkpt>
      <trkpt lat="48.18854" lon="-3.83787">
        <ele>97</ele>
        <time>2020-05-17T16:58:32.223Z</time>
      </trkpt>
      <trkpt lat="48.18853" lon="-3.83787">
        <ele>96</ele>
        <time>2020-05-17T16:58:33.223Z</time>
      </trkpt>
      <trkpt lat="48.1885" lon="-3.83786">
        <ele>96</ele>
        <time>2020-05-17T16:58:34.224Z</time>
      </trkpt>
      <trkpt lat="48.18848" lon="-3.83784">
        <ele>96</ele>
        <time>2020-05-17T16:58:35.224Z</time>
      </trkpt>
      <trkpt lat="48.18845" lon="-3.83783">
        <ele>97</ele>
        <time>2020-05-17T16:58:36.224Z</time>
      </trkpt>
      <trkpt lat="48.18842" lon="-3.83782">
        <ele>97</ele>
        <time>2020-05-17T16:58:37.224Z</time>
      </trkpt>
      <trkpt lat="48.18839" lon="-3.8378">
        <ele>97</ele>
        <time>2020-05-17T16:58:38.224Z</time>
      </trkpt>
      <trkpt lat="48.18835" lon="-3.83778">
        <ele>97</ele>
        <time>2020-05-17T16:58:39.223Z</time>
      </trkpt>
      <trkpt lat="48.18832" lon="-3.83776">
        <ele>98</ele>
        <time>2020-05-17T16:58:40.224Z</time>
      </trkpt>
      <trkpt lat="48.18829" lon="-3.83774">
        <ele>98</ele>
        <time>2020-05-17T16:58:41.224Z</time>
      </trkpt>
      <trkpt lat="48.18827" lon="-3.83773">
        <ele>99</ele>
        <time>2020-05-17T16:58:42.224Z</time>
      </trkpt>
      <trkpt lat="48.18824" lon="-3.83772">
        <ele>99</ele>
        <time>2020-05-17T16:58:43.223Z</time>
      </trkpt>
      <trkpt lat="48.18821" lon="-3.8377">
        <ele>99</ele>
        <time>2020-05-17T16:58:44.224Z</time>
      </trkpt>
      <trkpt lat="48.18817" lon="-3.83769">
        <ele>100</ele>
        <time>2020-05-17T16:58:45.224Z</time>
      </trkpt>
      <trkpt lat="48.18814" lon="-3.83767">
        <ele>100</ele>
        <time>2020-05-17T16:58:46.223Z</time>
      </trkpt>
      <trkpt lat="48.18812" lon="-3.83766">
        <ele>100</ele>
        <time>2020-05-17T16:58:47.223Z</time>
      </trkpt>
      <trkpt lat="48.18808" lon="-3.83764">
        <ele>101</ele>
        <time>2020-05-17T16:58:48.224Z</time>
      </trkpt>
      <trkpt lat="48.18805" lon="-3.83763">
        <ele>101</ele>
        <time>2020-05-17T16:58:49.224Z</time>
      </trkpt>
      <trkpt lat="48.18801" lon="-3.83761">
        <ele>101</ele>
        <time>2020-05-17T16:58:50.224Z</time>
      </trkpt>
      <trkpt lat="48.18798" lon="-3.8376">
        <ele>101</ele>
        <time>2020-05-17T16:58:51.224Z</time>
      </trkpt>
      <trkpt lat="48.18795" lon="-3.83759">
        <ele>101</ele>
        <time>2020-05-17T16:58:52.224Z</time>
      </trkpt>
      <trkpt lat="48.18792" lon="-3.83758">
        <ele>101</ele>
        <time>2020-05-17T16:58:53.224Z</time>
      </trkpt>
      <trkpt lat="48.18789" lon="-3.83756">
        <ele>101</ele>
        <time>2020-05-17T16:58:54.223Z</time>
      </trkpt>
      <trkpt lat="48.18786" lon="-3.83754">
        <ele>101</ele>
        <time>2020-05-17T16:58:55.224Z</time>
      </trkpt>
      <trkpt lat="48.18783" lon="-3.83753">
        <ele>101</ele>
        <time>2020-05-17T16:58:56.224Z</time>
      </trkpt>
      <trkpt lat="48.1878" lon="-3.83751">
        <ele>102</ele>
        <time>2020-05-17T16:58:57.224Z</time>
      </trkpt>
      <trkpt lat="48.18777" lon="-3.8375">
        <ele>102</ele>
        <time>2020-05-17T16:58:58.224Z</time>
      </trkpt>
      <trkpt lat="48.18773" lon="-3.83748">
        <ele>102</ele>
        <time>2020-05-17T16:58:59.223Z</time>
      </trkpt>
      <trkpt lat="48.18769" lon="-3.83746">
        <ele>102</ele>
        <time>2020-05-17T16:59:00.224Z</time>
      </trkpt>
      <trkpt lat="48.18767" lon="-3.83744">
        <ele>102</ele>
        <time>2020-05-17T16:59:01.224Z</time>
      </trkpt>
      <trkpt lat="48.18763" lon="-3.83743">
        <ele>102</ele>
        <time>2020-05-17T16:59:02.224Z</time>
      </trkpt>
      <trkpt lat="48.18761" lon="-3.83741">
        <ele>103</ele>
        <time>2020-05-17T16:59:03.224Z</time>
      </trkpt>
      <trkpt lat="48.18758" lon="-3.8374">
        <ele>103</ele>
        <time>2020-05-17T16:59:04.224Z</time>
      </trkpt>
      <trkpt lat="48.18754" lon="-3.83738">
        <ele>102</ele>
        <time>2020-05-17T16:59:05.224Z</time>
      </trkpt>
      <trkpt lat="48.1875" lon="-3.83736">
        <ele>102</ele>
        <time>2020-05-17T16:59:06.224Z</time>
      </trkpt>
      <trkpt lat="48.18746" lon="-3.83734">
        <ele>102</ele>
        <time>2020-05-17T16:59:07.224Z</time>
      </trkpt>
      <trkpt lat="48.18743" lon="-3.83733">
        <ele>102</ele>
        <time>2020-05-17T16:59:08.224Z</time>
      </trkpt>
      <trkpt lat="48.18739" lon="-3.83731">
        <ele>102</ele>
        <time>2020-05-17T16:59:09.224Z</time>
      </trkpt>
      <trkpt lat="48.18735" lon="-3.83729">
        <ele>103</ele>
        <time>2020-05-17T16:59:10.223Z</time>
      </trkpt>
      <trkpt lat="48.18731" lon="-3.83728">
        <ele>103</ele>
        <time>2020-05-17T16:59:11.224Z</time>
      </trkpt>
      <trkpt lat="48.18727" lon="-3.83726">
        <ele>103</ele>
        <time>2020-05-17T16:59:12.223Z</time>
      </trkpt>
      <trkpt lat="48.18724" lon="-3.83724">
        <ele>103</ele>
        <time>2020-05-17T16:59:13.224Z</time>
      </trkpt>
      <trkpt lat="48.18719" lon="-3.83722">
        <ele>103</ele>
        <time>2020-05-17T16:59:14.224Z</time>
      </trkpt>
      <trkpt lat="48.18715" lon="-3.8372">
        <ele>104</ele>
        <time>2020-05-17T16:59:15.223Z</time>
      </trkpt>
      <trkpt lat="48.18712" lon="-3.83719">
        <ele>104</ele>
        <time>2020-05-17T16:59:16.224Z</time>
      </trkpt>
      <trkpt lat="48.18708" lon="-3.83717">
        <ele>104</ele>
        <time>2020-05-17T16:59:17.224Z</time>
      </trkpt>
      <trkpt lat="48.18704" lon="-3.83716">
        <ele>105</ele>
        <time>2020-05-17T16:59:18.224Z</time>
      </trkpt>
      <trkpt lat="48.187" lon="-3.83714">
        <ele>105</ele>
        <time>2020-05-17T16:59:19.224Z</time>
      </trkpt>
      <trkpt lat="48.18696" lon="-3.83713">
        <ele>105</ele>
        <time>2020-05-17T16:59:20.224Z</time>
      </trkpt>
      <trkpt lat="48.18692" lon="-3.83711">
        <ele>105</ele>
        <time>2020-05-17T16:59:21.223Z</time>
      </trkpt>
      <trkpt lat="48.18688" lon="-3.83709">
        <ele>105</ele>
        <time>2020-05-17T16:59:22.224Z</time>
      </trkpt>
      <trkpt lat="48.18684" lon="-3.83708">
        <ele>105</ele>
        <time>2020-05-17T16:59:23.224Z</time>
      </trkpt>
      <trkpt lat="48.1868" lon="-3.83706">
        <ele>105</ele>
        <time>2020-05-17T16:59:24.224Z</time>
      </trkpt>
      <trkpt lat="48.18676" lon="-3.83705">
        <ele>105</ele>
        <time>2020-05-17T16:59:25.224Z</time>
      </trkpt>
      <trkpt lat="48.18672" lon="-3.83703">
        <ele>105</ele>
        <time>2020-05-17T16:59:26.224Z</time>
      </trkpt>
      <trkpt lat="48.18668" lon="-3.83702">
        <ele>105</ele>
        <time>2020-05-17T16:59:27.223Z</time>
      </trkpt>
      <trkpt lat="48.18665" lon="-3.837">
        <ele>105</ele>
        <time>2020-05-17T16:59:28.223Z</time>
      </trkpt>
      <trkpt lat="48.18661" lon="-3.83699">
        <ele>106</ele>
        <time>2020-05-17T16:59:29.224Z</time>
      </trkpt>
      <trkpt lat="48.18658" lon="-3.83698">
        <ele>106</ele>
        <time>2020-05-17T16:59:30.224Z</time>
      </trkpt>
      <trkpt lat="48.18655" lon="-3.83697">
        <ele>106</ele>
        <time>2020-05-17T16:59:31.224Z</time>
      </trkpt>
      <trkpt lat="48.18653" lon="-3.83696">
        <ele>105</ele>
        <time>2020-05-17T16:59:32.223Z</time>
      </trkpt>
      <trkpt lat="48.1865" lon="-3.83695">
        <ele>105</ele>
        <time>2020-05-17T16:59:33.224Z</time>
      </trkpt>
      <trkpt lat="48.18646" lon="-3.83692">
        <ele>105</ele>
        <time>2020-05-17T16:59:34.224Z</time>
      </trkpt>
      <trkpt lat="48.18643" lon="-3.83691">
        <ele>105</ele>
        <time>2020-05-17T16:59:35.224Z</time>
      </trkpt>
      <trkpt lat="48.18641" lon="-3.83689">
        <ele>105</ele>
        <time>2020-05-17T16:59:36.224Z</time>
      </trkpt>
      <trkpt lat="48.18639" lon="-3.83687">
        <ele>105</ele>
        <time>2020-05-17T16:59:37.224Z</time>
      </trkpt>
      <trkpt lat="48.18636" lon="-3.83685">
        <ele>104</ele>
        <time>2020-05-17T16:59:38.224Z</time>
      </trkpt>
      <trkpt lat="48.18633" lon="-3.83683">
        <ele>104</ele>
        <time>2020-05-17T16:59:39.224Z</time>
      </trkpt>
      <trkpt lat="48.1863" lon="-3.83682">
        <ele>104</ele>
        <time>2020-05-17T16:59:40.224Z</time>
      </trkpt>
      <trkpt lat="48.18627" lon="-3.83681">
        <ele>104</ele>
        <time>2020-05-17T16:59:41.223Z</time>
      </trkpt>
      <trkpt lat="48.18625" lon="-3.8368">
        <ele>104</ele>
        <time>2020-05-17T16:59:42.224Z</time>
      </trkpt>
      <trkpt lat="48.18622" lon="-3.83679">
        <ele>104</ele>
        <time>2020-05-17T16:59:43.224Z</time>
      </trkpt>
      <trkpt lat="48.1862" lon="-3.83677">
        <ele>104</ele>
        <time>2020-05-17T16:59:44.223Z</time>
      </trkpt>
      <trkpt lat="48.18617" lon="-3.83676">
        <ele>104</ele>
        <time>2020-05-17T16:59:45.224Z</time>
      </trkpt>
      <trkpt lat="48.18615" lon="-3.83675">
        <ele>104</ele>
        <time>2020-05-17T16:59:46.224Z</time>
      </trkpt>
      <trkpt lat="48.18613" lon="-3.83674">
        <ele>104</ele>
        <time>2020-05-17T16:59:47.224Z</time>
      </trkpt>
      <trkpt lat="48.18611" lon="-3.83674">
        <ele>104</ele>
        <time>2020-05-17T16:59:48.223Z</time>
      </trkpt>
      <trkpt lat="48.18609" lon="-3.83673">
        <ele>104</ele>
        <time>2020-05-17T16:59:49.223Z</time>
      </trkpt>
      <trkpt lat="48.18608" lon="-3.83672">
        <ele>104</ele>
        <time>2020-05-17T16:59:50.224Z</time>
      </trkpt>
      <trkpt lat="48.18608" lon="-3.83672">
        <ele>104</ele>
        <time>2020-05-17T16:59:51.224Z</time>
      </trkpt>
      <trkpt lat="48.18608" lon="-3.83673">
        <ele>104</ele>
        <time>2020-05-17T16:59:52.224Z</time>
      </trkpt>
      <trkpt lat="48.18608" lon="-3.83673">
        <ele>104</ele>
        <time>2020-05-17T16:59:53.224Z</time>
      </trkpt>
      <trkpt lat="48.18606" lon="-3.83672">
        <ele>107</ele>
        <time>2020-05-17T16:59:54.225Z</time>
      </trkpt>
      <trkpt lat="48.18604" lon="-3.83672">
        <ele>107</ele>
        <time>2020-05-17T16:59:55.225Z</time>
      </trkpt>
      <trkpt lat="48.18603" lon="-3.83672">
        <ele>107</ele>
        <time>2020-05-17T16:59:56.224Z</time>
      </trkpt>
      <trkpt lat="48.18602" lon="-3.83671">
        <ele>107</ele>
        <time>2020-05-17T16:59:57.224Z</time>
      </trkpt>
      <trkpt lat="48.18601" lon="-3.83671">
        <ele>107</ele>
        <time>2020-05-17T16:59:58.225Z</time>
      </trkpt>
      <trkpt lat="48.186" lon="-3.83672">
        <ele>107</ele>
        <time>2020-05-17T16:59:59.225Z</time>
      </trkpt>
      <trkpt lat="48.18599" lon="-3.83672">
        <ele>107</ele>
        <time>2020-05-17T17:00:00.225Z</time>
      </trkpt>
      <trkpt lat="48.18599" lon="-3.83672">
        <ele>107</ele>
        <time>2020-05-17T17:00:01.225Z</time>
      </trkpt>
      <trkpt lat="48.18598" lon="-3.83672">
        <ele>107</ele>
        <time>2020-05-17T17:00:02.225Z</time>
      </trkpt>
      <trkpt lat="48.18597" lon="-3.83673">
        <ele>106</ele>
        <time>2020-05-17T17:00:03.225Z</time>
      </trkpt>
      <trkpt lat="48.18596" lon="-3.83672">
        <ele>106</ele>
        <time>2020-05-17T17:00:04.226Z</time>
      </trkpt>
      <trkpt lat="48.18594" lon="-3.83671">
        <ele>106</ele>
        <time>2020-05-17T17:00:05.225Z</time>
      </trkpt>
      <trkpt lat="48.18592" lon="-3.8367">
        <ele>105</ele>
        <time>2020-05-17T17:00:06.226Z</time>
      </trkpt>
      <trkpt lat="48.1859" lon="-3.83669">
        <ele>105</ele>
        <time>2020-05-17T17:00:07.225Z</time>
      </trkpt>
      <trkpt lat="48.18587" lon="-3.83667">
        <ele>106</ele>
        <time>2020-05-17T17:00:08.225Z</time>
      </trkpt>
      <trkpt lat="48.18585" lon="-3.83666">
        <ele>106</ele>
        <time>2020-05-17T17:00:09.226Z</time>
      </trkpt>
      <trkpt lat="48.18581" lon="-3.83664">
        <ele>106</ele>
        <time>2020-05-17T17:00:10.226Z</time>
      </trkpt>
      <trkpt lat="48.18578" lon="-3.83662">
        <ele>106</ele>
        <time>2020-05-17T17:00:11.226Z</time>
      </trkpt>
      <trkpt lat="48.18574" lon="-3.8366">
        <ele>106</ele>
        <time>2020-05-17T17:00:12.225Z</time>
      </trkpt>
      <trkpt lat="48.18571" lon="-3.83659">
        <ele>106</ele>
        <time>2020-05-17T17:00:13.226Z</time>
      </trkpt>
      <trkpt lat="48.18567" lon="-3.83657">
        <ele>106</ele>
        <time>2020-05-17T17:00:14.225Z</time>
      </trkpt>
      <trkpt lat="48.18564" lon="-3.83655">
        <ele>107</ele>
        <time>2020-05-17T17:00:15.225Z</time>
      </trkpt>
      <trkpt lat="48.18561" lon="-3.83653">
        <ele>107</ele>
        <time>2020-05-17T17:00:16.225Z</time>
      </trkpt>
      <trkpt lat="48.18557" lon="-3.83651">
        <ele>107</ele>
        <time>2020-05-17T17:00:17.225Z</time>
      </trkpt>
      <trkpt lat="48.18554" lon="-3.83649">
        <ele>108</ele>
        <time>2020-05-17T17:00:18.225Z</time>
      </trkpt>
      <trkpt lat="48.18551" lon="-3.83647">
        <ele>108</ele>
        <time>2020-05-17T17:00:19.226Z</time>
      </trkpt>
      <trkpt lat="48.18548" lon="-3.83645">
        <ele>108</ele>
        <time>2020-05-17T17:00:20.225Z</time>
      </trkpt>
      <trkpt lat="48.18545" lon="-3.83644">
        <ele>107</ele>
        <time>2020-05-17T17:00:21.225Z</time>
      </trkpt>
      <trkpt lat="48.18542" lon="-3.83642">
        <ele>107</ele>
        <time>2020-05-17T17:00:22.226Z</time>
      </trkpt>
      <trkpt lat="48.1854" lon="-3.8364">
        <ele>107</ele>
        <time>2020-05-17T17:00:23.226Z</time>
      </trkpt>
      <trkpt lat="48.18537" lon="-3.83638">
        <ele>107</ele>
        <time>2020-05-17T17:00:24.226Z</time>
      </trkpt>
      <trkpt lat="48.18535" lon="-3.83635">
        <ele>108</ele>
        <time>2020-05-17T17:00:25.226Z</time>
      </trkpt>
      <trkpt lat="48.18534" lon="-3.83632">
        <ele>108</ele>
        <time>2020-05-17T17:00:26.225Z</time>
      </trkpt>
      <trkpt lat="48.18533" lon="-3.83628">
        <ele>108</ele>
        <time>2020-05-17T17:00:27.226Z</time>
      </trkpt>
      <trkpt lat="48.18534" lon="-3.83624">
        <ele>107</ele>
        <time>2020-05-17T17:00:28.226Z</time>
      </trkpt>
      <trkpt lat="48.18535" lon="-3.83619">
        <ele>107</ele>
        <time>2020-05-17T17:00:29.226Z</time>
      </trkpt>
      <trkpt lat="48.18537" lon="-3.83614">
        <ele>107</ele>
        <time>2020-05-17T17:00:30.225Z</time>
      </trkpt>
      <trkpt lat="48.18539" lon="-3.8361">
        <ele>107</ele>
        <time>2020-05-17T17:00:31.226Z</time>
      </trkpt>
      <trkpt lat="48.18541" lon="-3.83604">
        <ele>107</ele>
        <time>2020-05-17T17:00:32.226Z</time>
      </trkpt>
      <trkpt lat="48.18544" lon="-3.83599">
        <ele>106</ele>
        <time>2020-05-17T17:00:33.226Z</time>
      </trkpt>
      <trkpt lat="48.18546" lon="-3.83593">
        <ele>107</ele>
        <time>2020-05-17T17:00:34.225Z</time>
      </trkpt>
      <trkpt lat="48.18548" lon="-3.83587">
        <ele>107</ele>
        <time>2020-05-17T17:00:35.225Z</time>
      </trkpt>
      <trkpt lat="48.1855" lon="-3.83581">
        <ele>107</ele>
        <time>2020-05-17T17:00:36.226Z</time>
      </trkpt>
      <trkpt lat="48.18553" lon="-3.83575">
        <ele>106</ele>
        <time>2020-05-17T17:00:37.226Z</time>
      </trkpt>
      <trkpt lat="48.18555" lon="-3.83568">
        <ele>106</ele>
        <time>2020-05-17T17:00:38.225Z</time>
      </trkpt>
      <trkpt lat="48.18558" lon="-3.83561">
        <ele>106</ele>
        <time>2020-05-17T17:00:39.226Z</time>
      </trkpt>
      <trkpt lat="48.18561" lon="-3.83554">
        <ele>106</ele>
        <time>2020-05-17T17:00:40.226Z</time>
      </trkpt>
      <trkpt lat="48.18564" lon="-3.83547">
        <ele>106</ele>
        <time>2020-05-17T17:00:41.226Z</time>
      </trkpt>
      <trkpt lat="48.18566" lon="-3.8354">
        <ele>106</ele>
        <time>2020-05-17T17:00:42.226Z</time>
      </trkpt>
      <trkpt lat="48.18569" lon="-3.83532">
        <ele>106</ele>
        <time>2020-05-17T17:00:43.225Z</time>
      </trkpt>
      <trkpt lat="48.18572" lon="-3.83525">
        <ele>105</ele>
        <time>2020-05-17T17:00:44.225Z</time>
      </trkpt>
      <trkpt lat="48.18574" lon="-3.83517">
        <ele>105</ele>
        <time>2020-05-17T17:00:45.225Z</time>
      </trkpt>
      <trkpt lat="48.18577" lon="-3.83509">
        <ele>105</ele>
        <time>2020-05-17T17:00:46.226Z</time>
      </trkpt>
      <trkpt lat="48.1858" lon="-3.83501">
        <ele>105</ele>
        <time>2020-05-17T17:00:47.225Z</time>
      </trkpt>
      <trkpt lat="48.18582" lon="-3.83493">
        <ele>105</ele>
        <time>2020-05-17T17:00:48.226Z</time>
      </trkpt>
      <trkpt lat="48.18585" lon="-3.83484">
        <ele>104</ele>
        <time>2020-05-17T17:00:49.226Z</time>
      </trkpt>
      <trkpt lat="48.18587" lon="-3.83476">
        <ele>104</ele>
        <time>2020-05-17T17:00:50.226Z</time>
      </trkpt>
      <trkpt lat="48.1859" lon="-3.83467">
        <ele>104</ele>
        <time>2020-05-17T17:00:51.226Z</time>
      </trkpt>
      <trkpt lat="48.18592" lon="-3.83458">
        <ele>103</ele>
        <time>2020-05-17T17:00:52.225Z</time>
      </trkpt>
      <trkpt lat="48.18595" lon="-3.83449">
        <ele>103</ele>
        <time>2020-05-17T17:00:53.226Z</time>
      </trkpt>
      <trkpt lat="48.18597" lon="-3.8344">
        <ele>102</ele>
        <time>2020-05-17T17:00:54.225Z</time>
      </trkpt>
      <trkpt lat="48.18599" lon="-3.83431">
        <ele>102</ele>
        <time>2020-05-17T17:00:55.225Z</time>
      </trkpt>
      <trkpt lat="48.18602" lon="-3.8342">
        <ele>102</ele>
        <time>2020-05-17T17:00:56.226Z</time>
      </trkpt>
      <trkpt lat="48.18604" lon="-3.83413">
        <ele>102</ele>
        <time>2020-05-17T17:00:57.226Z</time>
      </trkpt>
      <trkpt lat="48.18606" lon="-3.83404">
        <ele>102</ele>
        <time>2020-05-17T17:00:58.226Z</time>
      </trkpt>
      <trkpt lat="48.18608" lon="-3.83394">
        <ele>101</ele>
        <time>2020-05-17T17:00:59.225Z</time>
      </trkpt>
      <trkpt lat="48.18611" lon="-3.83385">
        <ele>101</ele>
        <time>2020-05-17T17:01:00.226Z</time>
      </trkpt>
      <trkpt lat="48.18613" lon="-3.83375">
        <ele>101</ele>
        <time>2020-05-17T17:01:01.225Z</time>
      </trkpt>
      <trkpt lat="48.18614" lon="-3.83366">
        <ele>101</ele>
        <time>2020-05-17T17:01:02.226Z</time>
      </trkpt>
      <trkpt lat="48.18616" lon="-3.83356">
        <ele>101</ele>
        <time>2020-05-17T17:01:03.225Z</time>
      </trkpt>
      <trkpt lat="48.18618" lon="-3.83346">
        <ele>101</ele>
        <time>2020-05-17T17:01:04.226Z</time>
      </trkpt>
      <trkpt lat="48.1862" lon="-3.83335">
        <ele>101</ele>
        <time>2020-05-17T17:01:05.226Z</time>
      </trkpt>
      <trkpt lat="48.18622" lon="-3.83325">
        <ele>101</ele>
        <time>2020-05-17T17:01:06.226Z</time>
      </trkpt>
      <trkpt lat="48.18624" lon="-3.83314">
        <ele>102</ele>
        <time>2020-05-17T17:01:07.225Z</time>
      </trkpt>
      <trkpt lat="48.18626" lon="-3.83304">
        <ele>102</ele>
        <time>2020-05-17T17:01:08.226Z</time>
      </trkpt>
      <trkpt lat="48.18628" lon="-3.83293">
        <ele>102</ele>
        <time>2020-05-17T17:01:09.225Z</time>
      </trkpt>
      <trkpt lat="48.1863" lon="-3.83281">
        <ele>101</ele>
        <time>2020-05-17T17:01:10.225Z</time>
      </trkpt>
      <trkpt lat="48.18632" lon="-3.8327">
        <ele>101</ele>
        <time>2020-05-17T17:01:11.225Z</time>
      </trkpt>
      <trkpt lat="48.18633" lon="-3.83261">
        <ele>100</ele>
        <time>2020-05-17T17:01:12.226Z</time>
      </trkpt>
      <trkpt lat="48.18635" lon="-3.8325">
        <ele>100</ele>
        <time>2020-05-17T17:01:13.225Z</time>
      </trkpt>
      <trkpt lat="48.18636" lon="-3.83239">
        <ele>100</ele>
        <time>2020-05-17T17:01:14.226Z</time>
      </trkpt>
      <trkpt lat="48.18638" lon="-3.83225">
        <ele>100</ele>
        <time>2020-05-17T17:01:15.225Z</time>
      </trkpt>
      <trkpt lat="48.1864" lon="-3.83213">
        <ele>100</ele>
        <time>2020-05-17T17:01:16.226Z</time>
      </trkpt>
      <trkpt lat="48.18641" lon="-3.83203">
        <ele>99</ele>
        <time>2020-05-17T17:01:17.225Z</time>
      </trkpt>
      <trkpt lat="48.18643" lon="-3.83191">
        <ele>99</ele>
        <time>2020-05-17T17:01:18.226Z</time>
      </trkpt>
      <trkpt lat="48.18644" lon="-3.83178">
        <ele>100</ele>
        <time>2020-05-17T17:01:19.226Z</time>
      </trkpt>
      <trkpt lat="48.18647" lon="-3.83162">
        <ele>99</ele>
        <time>2020-05-17T17:01:20.226Z</time>
      </trkpt>
      <trkpt lat="48.18648" lon="-3.83152">
        <ele>99</ele>
        <time>2020-05-17T17:01:21.226Z</time>
      </trkpt>
      <trkpt lat="48.1865" lon="-3.83139">
        <ele>98</ele>
        <time>2020-05-17T17:01:22.225Z</time>
      </trkpt>
      <trkpt lat="48.18652" lon="-3.83126">
        <ele>98</ele>
        <time>2020-05-17T17:01:23.226Z</time>
      </trkpt>
      <trkpt lat="48.18653" lon="-3.83113">
        <ele>97</ele>
        <time>2020-05-17T17:01:24.225Z</time>
      </trkpt>
      <trkpt lat="48.18655" lon="-3.831">
        <ele>96</ele>
        <time>2020-05-17T17:01:25.226Z</time>
      </trkpt>
      <trkpt lat="48.18657" lon="-3.83088">
        <ele>96</ele>
        <time>2020-05-17T17:01:26.226Z</time>
      </trkpt>
      <trkpt lat="48.18658" lon="-3.83076">
        <ele>95</ele>
        <time>2020-05-17T17:01:27.226Z</time>
      </trkpt>
      <trkpt lat="48.1866" lon="-3.83065">
        <ele>95</ele>
        <time>2020-05-17T17:01:28.225Z</time>
      </trkpt>
      <trkpt lat="48.18661" lon="-3.83053">
        <ele>95</ele>
        <time>2020-05-17T17:01:29.225Z</time>
      </trkpt>
      <trkpt lat="48.18663" lon="-3.83042">
        <ele>95</ele>
        <time>2020-05-17T17:01:30.226Z</time>
      </trkpt>
      <trkpt lat="48.18664" lon="-3.83032">
        <ele>95</ele>
        <time>2020-05-17T17:01:31.225Z</time>
      </trkpt>
      <trkpt lat="48.18666" lon="-3.83023">
        <ele>95</ele>
        <time>2020-05-17T17:01:32.225Z</time>
      </trkpt>
      <trkpt lat="48.18667" lon="-3.83014">
        <ele>95</ele>
        <time>2020-05-17T17:01:33.226Z</time>
      </trkpt>
      <trkpt lat="48.18667" lon="-3.83006">
        <ele>94</ele>
        <time>2020-05-17T17:01:34.225Z</time>
      </trkpt>
      <trkpt lat="48.18667" lon="-3.82999">
        <ele>94</ele>
        <time>2020-05-17T17:01:35.226Z</time>
      </trkpt>
      <trkpt lat="48.18665" lon="-3.82993">
        <ele>94</ele>
        <time>2020-05-17T17:01:36.225Z</time>
      </trkpt>
      <trkpt lat="48.18663" lon="-3.82988">
        <ele>95</ele>
        <time>2020-05-17T17:01:37.226Z</time>
      </trkpt>
      <trkpt lat="48.1866" lon="-3.82983">
        <ele>95</ele>
        <time>2020-05-17T17:01:38.226Z</time>
      </trkpt>
      <trkpt lat="48.18657" lon="-3.82978">
        <ele>95</ele>
        <time>2020-05-17T17:01:39.226Z</time>
      </trkpt>
      <trkpt lat="48.18654" lon="-3.82972">
        <ele>95</ele>
        <time>2020-05-17T17:01:40.226Z</time>
      </trkpt>
      <trkpt lat="48.1865" lon="-3.82967">
        <ele>95</ele>
        <time>2020-05-17T17:01:41.226Z</time>
      </trkpt>
      <trkpt lat="48.18647" lon="-3.82961">
        <ele>95</ele>
        <time>2020-05-17T17:01:42.226Z</time>
      </trkpt>
      <trkpt lat="48.18643" lon="-3.82955">
        <ele>94</ele>
        <time>2020-05-17T17:01:43.226Z</time>
      </trkpt>
      <trkpt lat="48.18638" lon="-3.82947">
        <ele>94</ele>
        <time>2020-05-17T17:01:44.226Z</time>
      </trkpt>
      <trkpt lat="48.18633" lon="-3.8294">
        <ele>94</ele>
        <time>2020-05-17T17:01:45.226Z</time>
      </trkpt>
      <trkpt lat="48.18629" lon="-3.82932">
        <ele>94</ele>
        <time>2020-05-17T17:01:46.226Z</time>
      </trkpt>
      <trkpt lat="48.18624" lon="-3.82925">
        <ele>94</ele>
        <time>2020-05-17T17:01:47.225Z</time>
      </trkpt>
      <trkpt lat="48.18618" lon="-3.82918">
        <ele>94</ele>
        <time>2020-05-17T17:01:48.225Z</time>
      </trkpt>
      <trkpt lat="48.18613" lon="-3.82912">
        <ele>94</ele>
        <time>2020-05-17T17:01:49.225Z</time>
      </trkpt>
      <trkpt lat="48.1861" lon="-3.82906">
        <ele>94</ele>
        <time>2020-05-17T17:01:50.225Z</time>
      </trkpt>
      <trkpt lat="48.18607" lon="-3.82901">
        <ele>94</ele>
        <time>2020-05-17T17:01:51.226Z</time>
      </trkpt>
      <trkpt lat="48.18604" lon="-3.82897">
        <ele>94</ele>
        <time>2020-05-17T17:01:52.226Z</time>
      </trkpt>
      <trkpt lat="48.18601" lon="-3.82894">
        <ele>95</ele>
        <time>2020-05-17T17:01:53.226Z</time>
      </trkpt>
      <trkpt lat="48.18599" lon="-3.82891">
        <ele>95</ele>
        <time>2020-05-17T17:01:54.226Z</time>
      </trkpt>
      <trkpt lat="48.18596" lon="-3.82888">
        <ele>96</ele>
        <time>2020-05-17T17:01:55.226Z</time>
      </trkpt>
      <trkpt lat="48.18594" lon="-3.82885">
        <ele>96</ele>
        <time>2020-05-17T17:01:56.226Z</time>
      </trkpt>
      <trkpt lat="48.18592" lon="-3.82883">
        <ele>96</ele>
        <time>2020-05-17T17:01:57.225Z</time>
      </trkpt>
      <trkpt lat="48.18589" lon="-3.8288">
        <ele>96</ele>
        <time>2020-05-17T17:01:58.226Z</time>
      </trkpt>
      <trkpt lat="48.18588" lon="-3.82879">
        <ele>96</ele>
        <time>2020-05-17T17:01:59.226Z</time>
      </trkpt>
      <trkpt lat="48.18585" lon="-3.82878">
        <ele>96</ele>
        <time>2020-05-17T17:02:00.226Z</time>
      </trkpt>
      <trkpt lat="48.18583" lon="-3.82877">
        <ele>96</ele>
        <time>2020-05-17T17:02:01.226Z</time>
      </trkpt>
      <trkpt lat="48.18581" lon="-3.82875">
        <ele>97</ele>
        <time>2020-05-17T17:02:02.226Z</time>
      </trkpt>
      <trkpt lat="48.18579" lon="-3.82875">
        <ele>97</ele>
        <time>2020-05-17T17:02:03.226Z</time>
      </trkpt>
      <trkpt lat="48.18576" lon="-3.82873">
        <ele>98</ele>
        <time>2020-05-17T17:02:04.226Z</time>
      </trkpt>
      <trkpt lat="48.18574" lon="-3.82872">
        <ele>98</ele>
        <time>2020-05-17T17:02:05.225Z</time>
      </trkpt>
      <trkpt lat="48.18569" lon="-3.82869">
        <ele>99</ele>
        <time>2020-05-17T17:02:06.225Z</time>
      </trkpt>
      <trkpt lat="48.18564" lon="-3.82866">
        <ele>99</ele>
        <time>2020-05-17T17:02:07.226Z</time>
      </trkpt>
      <trkpt lat="48.1856" lon="-3.82864">
        <ele>99</ele>
        <time>2020-05-17T17:02:08.226Z</time>
      </trkpt>
      <trkpt lat="48.18554" lon="-3.82862">
        <ele>100</ele>
        <time>2020-05-17T17:02:09.225Z</time>
      </trkpt>
      <trkpt lat="48.18549" lon="-3.82861">
        <ele>100</ele>
        <time>2020-05-17T17:02:10.226Z</time>
      </trkpt>
      <trkpt lat="48.18542" lon="-3.8286">
        <ele>100</ele>
        <time>2020-05-17T17:02:11.225Z</time>
      </trkpt>
      <trkpt lat="48.18536" lon="-3.82858">
        <ele>100</ele>
        <time>2020-05-17T17:02:12.225Z</time>
      </trkpt>
      <trkpt lat="48.18531" lon="-3.82857">
        <ele>100</ele>
        <time>2020-05-17T17:02:13.226Z</time>
      </trkpt>
      <trkpt lat="48.18525" lon="-3.82857">
        <ele>100</ele>
        <time>2020-05-17T17:02:14.226Z</time>
      </trkpt>
      <trkpt lat="48.18518" lon="-3.82855">
        <ele>99</ele>
        <time>2020-05-17T17:02:15.226Z</time>
      </trkpt>
      <trkpt lat="48.18513" lon="-3.82855">
        <ele>99</ele>
        <time>2020-05-17T17:02:16.225Z</time>
      </trkpt>
      <trkpt lat="48.18507" lon="-3.82854">
        <ele>99</ele>
        <time>2020-05-17T17:02:17.226Z</time>
      </trkpt>
      <trkpt lat="48.18501" lon="-3.82855">
        <ele>98</ele>
        <time>2020-05-17T17:02:18.225Z</time>
      </trkpt>
      <trkpt lat="48.18495" lon="-3.82856">
        <ele>98</ele>
        <time>2020-05-17T17:02:19.225Z</time>
      </trkpt>
      <trkpt lat="48.18489" lon="-3.82858">
        <ele>97</ele>
        <time>2020-05-17T17:02:20.225Z</time>
      </trkpt>
      <trkpt lat="48.18483" lon="-3.8286">
        <ele>97</ele>
        <time>2020-05-17T17:02:21.226Z</time>
      </trkpt>
      <trkpt lat="48.18478" lon="-3.82863">
        <ele>97</ele>
        <time>2020-05-17T17:02:22.226Z</time>
      </trkpt>
      <trkpt lat="48.18472" lon="-3.82866">
        <ele>96</ele>
        <time>2020-05-17T17:02:23.225Z</time>
      </trkpt>
      <trkpt lat="48.18466" lon="-3.8287">
        <ele>96</ele>
        <time>2020-05-17T17:02:24.226Z</time>
      </trkpt>
      <trkpt lat="48.1846" lon="-3.82873">
        <ele>95</ele>
        <time>2020-05-17T17:02:25.226Z</time>
      </trkpt>
      <trkpt lat="48.18455" lon="-3.82876">
        <ele>94</ele>
        <time>2020-05-17T17:02:26.225Z</time>
      </trkpt>
      <trkpt lat="48.1845" lon="-3.8288">
        <ele>94</ele>
        <time>2020-05-17T17:02:27.225Z</time>
      </trkpt>
      <trkpt lat="48.18446" lon="-3.82884">
        <ele>93</ele>
        <time>2020-05-17T17:02:28.225Z</time>
      </trkpt>
      <trkpt lat="48.1844" lon="-3.82886">
        <ele>93</ele>
        <time>2020-05-17T17:02:29.226Z</time>
      </trkpt>
      <trkpt lat="48.18435" lon="-3.82889">
        <ele>93</ele>
        <time>2020-05-17T17:02:30.225Z</time>
      </trkpt>
      <trkpt lat="48.18429" lon="-3.82894">
        <ele>93</ele>
        <time>2020-05-17T17:02:31.226Z</time>
      </trkpt>
      <trkpt lat="48.18425" lon="-3.82897">
        <ele>93</ele>
        <time>2020-05-17T17:02:32.226Z</time>
      </trkpt>
      <trkpt lat="48.1842" lon="-3.82901">
        <ele>93</ele>
        <time>2020-05-17T17:02:33.226Z</time>
      </trkpt>
      <trkpt lat="48.18414" lon="-3.82903">
        <ele>93</ele>
        <time>2020-05-17T17:02:34.225Z</time>
      </trkpt>
      <trkpt lat="48.1841" lon="-3.82906">
        <ele>93</ele>
        <time>2020-05-17T17:02:35.226Z</time>
      </trkpt>
      <trkpt lat="48.18405" lon="-3.82909">
        <ele>94</ele>
        <time>2020-05-17T17:02:36.226Z</time>
      </trkpt>
      <trkpt lat="48.18401" lon="-3.82912">
        <ele>94</ele>
        <time>2020-05-17T17:02:37.226Z</time>
      </trkpt>
      <trkpt lat="48.18395" lon="-3.82916">
        <ele>94</ele>
        <time>2020-05-17T17:02:38.226Z</time>
      </trkpt>
      <trkpt lat="48.18389" lon="-3.8292">
        <ele>95</ele>
        <time>2020-05-17T17:02:39.226Z</time>
      </trkpt>
      <trkpt lat="48.18382" lon="-3.82926">
        <ele>95</ele>
        <time>2020-05-17T17:02:40.226Z</time>
      </trkpt>
      <trkpt lat="48.18377" lon="-3.8293">
        <ele>95</ele>
        <time>2020-05-17T17:02:41.225Z</time>
      </trkpt>
      <trkpt lat="48.18371" lon="-3.82934">
        <ele>96</ele>
        <time>2020-05-17T17:02:42.226Z</time>
      </trkpt>
      <trkpt lat="48.18366" lon="-3.82937">
        <ele>96</ele>
        <time>2020-05-17T17:02:43.226Z</time>
      </trkpt>
      <trkpt lat="48.18361" lon="-3.82941">
        <ele>96</ele>
        <time>2020-05-17T17:02:44.226Z</time>
      </trkpt>
      <trkpt lat="48.18355" lon="-3.82946">
        <ele>97</ele>
        <time>2020-05-17T17:02:45.226Z</time>
      </trkpt>
      <trkpt lat="48.1835" lon="-3.82951">
        <ele>97</ele>
        <time>2020-05-17T17:02:46.226Z</time>
      </trkpt>
      <trkpt lat="48.18345" lon="-3.82955">
        <ele>97</ele>
        <time>2020-05-17T17:02:47.226Z</time>
      </trkpt>
      <trkpt lat="48.18341" lon="-3.82958">
        <ele>97</ele>
        <time>2020-05-17T17:02:48.226Z</time>
      </trkpt>
      <trkpt lat="48.18336" lon="-3.82963">
        <ele>97</ele>
        <time>2020-05-17T17:02:49.225Z</time>
      </trkpt>
      <trkpt lat="48.1833" lon="-3.82968">
        <ele>98</ele>
        <time>2020-05-17T17:02:50.226Z</time>
      </trkpt>
      <trkpt lat="48.18325" lon="-3.82972">
        <ele>97</ele>
        <time>2020-05-17T17:02:51.226Z</time>
      </trkpt>
      <trkpt lat="48.1832" lon="-3.82975">
        <ele>97</ele>
        <time>2020-05-17T17:02:52.226Z</time>
      </trkpt>
      <trkpt lat="48.18316" lon="-3.82977">
        <ele>97</ele>
        <time>2020-05-17T17:02:53.225Z</time>
      </trkpt>
      <trkpt lat="48.18312" lon="-3.82979">
        <ele>97</ele>
        <time>2020-05-17T17:02:54.226Z</time>
      </trkpt>
      <trkpt lat="48.18307" lon="-3.82981">
        <ele>97</ele>
        <time>2020-05-17T17:02:55.225Z</time>
      </trkpt>
      <trkpt lat="48.18301" lon="-3.82984">
        <ele>97</ele>
        <time>2020-05-17T17:02:56.226Z</time>
      </trkpt>
      <trkpt lat="48.18297" lon="-3.82985">
        <ele>97</ele>
        <time>2020-05-17T17:02:57.226Z</time>
      </trkpt>
      <trkpt lat="48.18292" lon="-3.82986">
        <ele>96</ele>
        <time>2020-05-17T17:02:58.226Z</time>
      </trkpt>
      <trkpt lat="48.18286" lon="-3.82988">
        <ele>96</ele>
        <time>2020-05-17T17:02:59.225Z</time>
      </trkpt>
      <trkpt lat="48.1828" lon="-3.82989">
        <ele>96</ele>
        <time>2020-05-17T17:03:00.226Z</time>
      </trkpt>
      <trkpt lat="48.18275" lon="-3.8299">
        <ele>96</ele>
        <time>2020-05-17T17:03:01.225Z</time>
      </trkpt>
      <trkpt lat="48.1827" lon="-3.82991">
        <ele>96</ele>
        <time>2020-05-17T17:03:02.226Z</time>
      </trkpt>
      <trkpt lat="48.18266" lon="-3.82992">
        <ele>95</ele>
        <time>2020-05-17T17:03:03.226Z</time>
      </trkpt>
      <trkpt lat="48.1826" lon="-3.82993">
        <ele>95</ele>
        <time>2020-05-17T17:03:04.226Z</time>
      </trkpt>
      <trkpt lat="48.18255" lon="-3.82994">
        <ele>95</ele>
        <time>2020-05-17T17:03:05.225Z</time>
      </trkpt>
      <trkpt lat="48.1825" lon="-3.82995">
        <ele>95</ele>
        <time>2020-05-17T17:03:06.226Z</time>
      </trkpt>
      <trkpt lat="48.18245" lon="-3.82996">
        <ele>95</ele>
        <time>2020-05-17T17:03:07.225Z</time>
      </trkpt>
      <trkpt lat="48.18241" lon="-3.82996">
        <ele>95</ele>
        <time>2020-05-17T17:03:08.226Z</time>
      </trkpt>
      <trkpt lat="48.18236" lon="-3.82998">
        <ele>95</ele>
        <time>2020-05-17T17:03:09.226Z</time>
      </trkpt>
      <trkpt lat="48.1823" lon="-3.83">
        <ele>94</ele>
        <time>2020-05-17T17:03:10.226Z</time>
      </trkpt>
      <trkpt lat="48.18225" lon="-3.83001">
        <ele>94</ele>
        <time>2020-05-17T17:03:11.225Z</time>
      </trkpt>
      <trkpt lat="48.18221" lon="-3.83003">
        <ele>94</ele>
        <time>2020-05-17T17:03:12.225Z</time>
      </trkpt>
      <trkpt lat="48.18215" lon="-3.83006">
        <ele>94</ele>
        <time>2020-05-17T17:03:13.226Z</time>
      </trkpt>
      <trkpt lat="48.18209" lon="-3.83009">
        <ele>94</ele>
        <time>2020-05-17T17:03:14.226Z</time>
      </trkpt>
      <trkpt lat="48.18204" lon="-3.83012">
        <ele>94</ele>
        <time>2020-05-17T17:03:15.225Z</time>
      </trkpt>
      <trkpt lat="48.182" lon="-3.83016">
        <ele>94</ele>
        <time>2020-05-17T17:03:16.226Z</time>
      </trkpt>
      <trkpt lat="48.18195" lon="-3.83019">
        <ele>94</ele>
        <time>2020-05-17T17:03:17.226Z</time>
      </trkpt>
      <trkpt lat="48.18192" lon="-3.83022">
        <ele>94</ele>
        <time>2020-05-17T17:03:18.226Z</time>
      </trkpt>
      <trkpt lat="48.18184" lon="-3.83026">
        <ele>94</ele>
        <time>2020-05-17T17:03:19.226Z</time>
      </trkpt>
      <trkpt lat="48.18178" lon="-3.8303">
        <ele>94</ele>
        <time>2020-05-17T17:03:20.225Z</time>
      </trkpt>
      <trkpt lat="48.18173" lon="-3.83035">
        <ele>93</ele>
        <time>2020-05-17T17:03:21.225Z</time>
      </trkpt>
      <trkpt lat="48.18168" lon="-3.83038">
        <ele>93</ele>
        <time>2020-05-17T17:03:22.226Z</time>
      </trkpt>
      <trkpt lat="48.18164" lon="-3.83043">
        <ele>93</ele>
        <time>2020-05-17T17:03:23.225Z</time>
      </trkpt>
      <trkpt lat="48.1816" lon="-3.83047">
        <ele>93</ele>
        <time>2020-05-17T17:03:24.226Z</time>
      </trkpt>
      <trkpt lat="48.18155" lon="-3.83051">
        <ele>93</ele>
        <time>2020-05-17T17:03:25.226Z</time>
      </trkpt>
      <trkpt lat="48.18149" lon="-3.83056">
        <ele>93</ele>
        <time>2020-05-17T17:03:26.226Z</time>
      </trkpt>
      <trkpt lat="48.18145" lon="-3.8306">
        <ele>93</ele>
        <time>2020-05-17T17:03:27.226Z</time>
      </trkpt>
      <trkpt lat="48.18142" lon="-3.83064">
        <ele>93</ele>
        <time>2020-05-17T17:03:28.225Z</time>
      </trkpt>
      <trkpt lat="48.18137" lon="-3.83067">
        <ele>93</ele>
        <time>2020-05-17T17:03:29.226Z</time>
      </trkpt>
      <trkpt lat="48.18133" lon="-3.83071">
        <ele>93</ele>
        <time>2020-05-17T17:03:30.226Z</time>
      </trkpt>
      <trkpt lat="48.18129" lon="-3.83074">
        <ele>93</ele>
        <time>2020-05-17T17:03:31.226Z</time>
      </trkpt>
      <trkpt lat="48.18125" lon="-3.83077">
        <ele>93</ele>
        <time>2020-05-17T17:03:32.226Z</time>
      </trkpt>
      <trkpt lat="48.18122" lon="-3.8308">
        <ele>93</ele>
        <time>2020-05-17T17:03:33.226Z</time>
      </trkpt>
      <trkpt lat="48.18117" lon="-3.83085">
        <ele>93</ele>
        <time>2020-05-17T17:03:34.225Z</time>
      </trkpt>
      <trkpt lat="48.18114" lon="-3.83089">
        <ele>93</ele>
        <time>2020-05-17T17:03:35.225Z</time>
      </trkpt>
      <trkpt lat="48.1811" lon="-3.83093">
        <ele>93</ele>
        <time>2020-05-17T17:03:36.226Z</time>
      </trkpt>
      <trkpt lat="48.18106" lon="-3.83097">
        <ele>94</ele>
        <time>2020-05-17T17:03:37.225Z</time>
      </trkpt>
      <trkpt lat="48.18102" lon="-3.831">
        <ele>93</ele>
        <time>2020-05-17T17:03:38.226Z</time>
      </trkpt>
      <trkpt lat="48.18098" lon="-3.83104">
        <ele>93</ele>
        <time>2020-05-17T17:03:39.226Z</time>
      </trkpt>
      <trkpt lat="48.18095" lon="-3.83108">
        <ele>93</ele>
        <time>2020-05-17T17:03:40.226Z</time>
      </trkpt>
      <trkpt lat="48.18091" lon="-3.83113">
        <ele>93</ele>
        <time>2020-05-17T17:03:41.225Z</time>
      </trkpt>
      <trkpt lat="48.18088" lon="-3.83117">
        <ele>93</ele>
        <time>2020-05-17T17:03:42.226Z</time>
      </trkpt>
      <trkpt lat="48.18085" lon="-3.83122">
        <ele>93</ele>
        <time>2020-05-17T17:03:43.226Z</time>
      </trkpt>
      <trkpt lat="48.18079" lon="-3.8313">
        <ele>93</ele>
        <time>2020-05-17T17:03:44.225Z</time>
      </trkpt>
      <trkpt lat="48.18074" lon="-3.83139">
        <ele>93</ele>
        <time>2020-05-17T17:03:45.226Z</time>
      </trkpt>
      <trkpt lat="48.18069" lon="-3.83145">
        <ele>92</ele>
        <time>2020-05-17T17:03:46.226Z</time>
      </trkpt>
      <trkpt lat="48.18064" lon="-3.8315">
        <ele>92</ele>
        <time>2020-05-17T17:03:47.226Z</time>
      </trkpt>
      <trkpt lat="48.1806" lon="-3.83155">
        <ele>92</ele>
        <time>2020-05-17T17:03:48.226Z</time>
      </trkpt>
      <trkpt lat="48.18055" lon="-3.8316">
        <ele>92</ele>
        <time>2020-05-17T17:03:49.226Z</time>
      </trkpt>
      <trkpt lat="48.18051" lon="-3.83165">
        <ele>92</ele>
        <time>2020-05-17T17:03:50.226Z</time>
      </trkpt>
      <trkpt lat="48.18047" lon="-3.8317">
        <ele>92</ele>
        <time>2020-05-17T17:03:51.226Z</time>
      </trkpt>
      <trkpt lat="48.18044" lon="-3.83176">
        <ele>92</ele>
        <time>2020-05-17T17:03:52.225Z</time>
      </trkpt>
      <trkpt lat="48.18039" lon="-3.83184">
        <ele>92</ele>
        <time>2020-05-17T17:03:53.226Z</time>
      </trkpt>
      <trkpt lat="48.18034" lon="-3.83192">
        <ele>92</ele>
        <time>2020-05-17T17:03:54.225Z</time>
      </trkpt>
      <trkpt lat="48.18029" lon="-3.83199">
        <ele>92</ele>
        <time>2020-05-17T17:03:55.226Z</time>
      </trkpt>
      <trkpt lat="48.18023" lon="-3.83206">
        <ele>92</ele>
        <time>2020-05-17T17:03:56.226Z</time>
      </trkpt>
      <trkpt lat="48.18018" lon="-3.83214">
        <ele>92</ele>
        <time>2020-05-17T17:03:57.225Z</time>
      </trkpt>
      <trkpt lat="48.18015" lon="-3.83217">
        <ele>92</ele>
        <time>2020-05-17T17:03:58.226Z</time>
      </trkpt>
      <trkpt lat="48.18011" lon="-3.83223">
        <ele>92</ele>
        <time>2020-05-17T17:03:59.226Z</time>
      </trkpt>
      <trkpt lat="48.18007" lon="-3.83228">
        <ele>92</ele>
        <time>2020-05-17T17:04:00.226Z</time>
      </trkpt>
      <trkpt lat="48.18003" lon="-3.83231">
        <ele>92</ele>
        <time>2020-05-17T17:04:01.226Z</time>
      </trkpt>
      <trkpt lat="48.17999" lon="-3.83233">
        <ele>92</ele>
        <time>2020-05-17T17:04:02.225Z</time>
      </trkpt>
      <trkpt lat="48.17995" lon="-3.83235">
        <ele>92</ele>
        <time>2020-05-17T17:04:03.226Z</time>
      </trkpt>
      <trkpt lat="48.17991" lon="-3.83237">
        <ele>92</ele>
        <time>2020-05-17T17:04:04.226Z</time>
      </trkpt>
      <trkpt lat="48.17985" lon="-3.83238">
        <ele>92</ele>
        <time>2020-05-17T17:04:05.226Z</time>
      </trkpt>
      <trkpt lat="48.17979" lon="-3.8324">
        <ele>92</ele>
        <time>2020-05-17T17:04:06.225Z</time>
      </trkpt>
      <trkpt lat="48.17973" lon="-3.83241">
        <ele>92</ele>
        <time>2020-05-17T17:04:07.225Z</time>
      </trkpt>
      <trkpt lat="48.17968" lon="-3.83241">
        <ele>92</ele>
        <time>2020-05-17T17:04:08.225Z</time>
      </trkpt>
      <trkpt lat="48.17963" lon="-3.83243">
        <ele>92</ele>
        <time>2020-05-17T17:04:09.226Z</time>
      </trkpt>
      <trkpt lat="48.17953" lon="-3.83244">
        <ele>93</ele>
        <time>2020-05-17T17:04:10.226Z</time>
      </trkpt>
      <trkpt lat="48.17945" lon="-3.83247">
        <ele>93</ele>
        <time>2020-05-17T17:04:11.225Z</time>
      </trkpt>
      <trkpt lat="48.17938" lon="-3.83248">
        <ele>93</ele>
        <time>2020-05-17T17:04:12.225Z</time>
      </trkpt>
      <trkpt lat="48.1793" lon="-3.8325">
        <ele>93</ele>
        <time>2020-05-17T17:04:13.225Z</time>
      </trkpt>
      <trkpt lat="48.17923" lon="-3.83251">
        <ele>93</ele>
        <time>2020-05-17T17:04:14.226Z</time>
      </trkpt>
      <trkpt lat="48.17917" lon="-3.83253">
        <ele>93</ele>
        <time>2020-05-17T17:04:15.226Z</time>
      </trkpt>
      <trkpt lat="48.17913" lon="-3.83254">
        <ele>93</ele>
        <time>2020-05-17T17:04:16.226Z</time>
      </trkpt>
      <trkpt lat="48.17908" lon="-3.83256">
        <ele>93</ele>
        <time>2020-05-17T17:04:17.226Z</time>
      </trkpt>
      <trkpt lat="48.17903" lon="-3.83258">
        <ele>94</ele>
        <time>2020-05-17T17:04:18.225Z</time>
      </trkpt>
      <trkpt lat="48.17899" lon="-3.83261">
        <ele>94</ele>
        <time>2020-05-17T17:04:19.226Z</time>
      </trkpt>
      <trkpt lat="48.17894" lon="-3.83263">
        <ele>94</ele>
        <time>2020-05-17T17:04:20.226Z</time>
      </trkpt>
      <trkpt lat="48.17889" lon="-3.83266">
        <ele>94</ele>
        <time>2020-05-17T17:04:21.225Z</time>
      </trkpt>
      <trkpt lat="48.17884" lon="-3.8327">
        <ele>94</ele>
        <time>2020-05-17T17:04:22.225Z</time>
      </trkpt>
      <trkpt lat="48.1788" lon="-3.83273">
        <ele>94</ele>
        <time>2020-05-17T17:04:23.226Z</time>
      </trkpt>
      <trkpt lat="48.17875" lon="-3.83277">
        <ele>94</ele>
        <time>2020-05-17T17:04:24.226Z</time>
      </trkpt>
      <trkpt lat="48.17871" lon="-3.8328">
        <ele>94</ele>
        <time>2020-05-17T17:04:25.226Z</time>
      </trkpt>
      <trkpt lat="48.17867" lon="-3.83285">
        <ele>94</ele>
        <time>2020-05-17T17:04:26.225Z</time>
      </trkpt>
      <trkpt lat="48.17865" lon="-3.83289">
        <ele>94</ele>
        <time>2020-05-17T17:04:27.226Z</time>
      </trkpt>
      <trkpt lat="48.17861" lon="-3.83294">
        <ele>94</ele>
        <time>2020-05-17T17:04:28.225Z</time>
      </trkpt>
      <trkpt lat="48.17857" lon="-3.83301">
        <ele>94</ele>
        <time>2020-05-17T17:04:29.226Z</time>
      </trkpt>
      <trkpt lat="48.17854" lon="-3.83307">
        <ele>94</ele>
        <time>2020-05-17T17:04:30.226Z</time>
      </trkpt>
      <trkpt lat="48.17851" lon="-3.83312">
        <ele>94</ele>
        <time>2020-05-17T17:04:31.226Z</time>
      </trkpt>
      <trkpt lat="48.17848" lon="-3.83318">
        <ele>94</ele>
        <time>2020-05-17T17:04:32.225Z</time>
      </trkpt>
      <trkpt lat="48.17845" lon="-3.83325">
        <ele>94</ele>
        <time>2020-05-17T17:04:33.226Z</time>
      </trkpt>
      <trkpt lat="48.17842" lon="-3.83332">
        <ele>94</ele>
        <time>2020-05-17T17:04:34.225Z</time>
      </trkpt>
      <trkpt lat="48.17835" lon="-3.83343">
        <ele>94</ele>
        <time>2020-05-17T17:04:35.225Z</time>
      </trkpt>
      <trkpt lat="48.17832" lon="-3.83353">
        <ele>94</ele>
        <time>2020-05-17T17:04:36.226Z</time>
      </trkpt>
      <trkpt lat="48.17829" lon="-3.83362">
        <ele>94</ele>
        <time>2020-05-17T17:04:37.226Z</time>
      </trkpt>
      <trkpt lat="48.17827" lon="-3.8337">
        <ele>94</ele>
        <time>2020-05-17T17:04:38.225Z</time>
      </trkpt>
      <trkpt lat="48.17823" lon="-3.83378">
        <ele>94</ele>
        <time>2020-05-17T17:04:39.226Z</time>
      </trkpt>
      <trkpt lat="48.1782" lon="-3.83386">
        <ele>93</ele>
        <time>2020-05-17T17:04:40.226Z</time>
      </trkpt>
      <trkpt lat="48.17816" lon="-3.83394">
        <ele>93</ele>
        <time>2020-05-17T17:04:41.226Z</time>
      </trkpt>
      <trkpt lat="48.17811" lon="-3.83401">
        <ele>93</ele>
        <time>2020-05-17T17:04:42.225Z</time>
      </trkpt>
      <trkpt lat="48.17806" lon="-3.83408">
        <ele>92</ele>
        <time>2020-05-17T17:04:43.226Z</time>
      </trkpt>
      <trkpt lat="48.17802" lon="-3.83415">
        <ele>92</ele>
        <time>2020-05-17T17:04:44.226Z</time>
      </trkpt>
      <trkpt lat="48.17797" lon="-3.83421">
        <ele>91</ele>
        <time>2020-05-17T17:04:45.225Z</time>
      </trkpt>
      <trkpt lat="48.17792" lon="-3.83428">
        <ele>91</ele>
        <time>2020-05-17T17:04:46.226Z</time>
      </trkpt>
      <trkpt lat="48.17787" lon="-3.83433">
        <ele>90</ele>
        <time>2020-05-17T17:04:47.226Z</time>
      </trkpt>
      <trkpt lat="48.17783" lon="-3.83436">
        <ele>90</ele>
        <time>2020-05-17T17:04:48.226Z</time>
      </trkpt>
      <trkpt lat="48.17777" lon="-3.83442">
        <ele>90</ele>
        <time>2020-05-17T17:04:49.225Z</time>
      </trkpt>
      <trkpt lat="48.17773" lon="-3.83446">
        <ele>89</ele>
        <time>2020-05-17T17:04:50.226Z</time>
      </trkpt>
      <trkpt lat="48.17767" lon="-3.83451">
        <ele>89</ele>
        <time>2020-05-17T17:04:51.226Z</time>
      </trkpt>
      <trkpt lat="48.17762" lon="-3.83454">
        <ele>88</ele>
        <time>2020-05-17T17:04:52.226Z</time>
      </trkpt>
      <trkpt lat="48.17756" lon="-3.83459">
        <ele>88</ele>
        <time>2020-05-17T17:04:53.226Z</time>
      </trkpt>
      <trkpt lat="48.17752" lon="-3.83462">
        <ele>87</ele>
        <time>2020-05-17T17:04:54.226Z</time>
      </trkpt>
      <trkpt lat="48.17746" lon="-3.83466">
        <ele>87</ele>
        <time>2020-05-17T17:04:55.226Z</time>
      </trkpt>
      <trkpt lat="48.17741" lon="-3.83469">
        <ele>87</ele>
        <time>2020-05-17T17:04:56.225Z</time>
      </trkpt>
      <trkpt lat="48.17735" lon="-3.83471">
        <ele>87</ele>
        <time>2020-05-17T17:04:57.225Z</time>
      </trkpt>
      <trkpt lat="48.17731" lon="-3.83472">
        <ele>86</ele>
        <time>2020-05-17T17:04:58.226Z</time>
      </trkpt>
      <trkpt lat="48.17727" lon="-3.8347">
        <ele>86</ele>
        <time>2020-05-17T17:04:59.225Z</time>
      </trkpt>
      <trkpt lat="48.17724" lon="-3.83466">
        <ele>86</ele>
        <time>2020-05-17T17:05:00.226Z</time>
      </trkpt>
      <trkpt lat="48.1772" lon="-3.83459">
        <ele>86</ele>
        <time>2020-05-17T17:05:01.226Z</time>
      </trkpt>
      <trkpt lat="48.17718" lon="-3.83451">
        <ele>85</ele>
        <time>2020-05-17T17:05:02.225Z</time>
      </trkpt>
      <trkpt lat="48.17715" lon="-3.83445">
        <ele>85</ele>
        <time>2020-05-17T17:05:03.225Z</time>
      </trkpt>
      <trkpt lat="48.17712" lon="-3.83434">
        <ele>84</ele>
        <time>2020-05-17T17:05:04.226Z</time>
      </trkpt>
      <trkpt lat="48.17708" lon="-3.83425">
        <ele>84</ele>
        <time>2020-05-17T17:05:05.226Z</time>
      </trkpt>
      <trkpt lat="48.17704" lon="-3.83415">
        <ele>83</ele>
        <time>2020-05-17T17:05:06.225Z</time>
      </trkpt>
      <trkpt lat="48.17701" lon="-3.83409">
        <ele>83</ele>
        <time>2020-05-17T17:05:07.226Z</time>
      </trkpt>
      <trkpt lat="48.17697" lon="-3.83401">
        <ele>82</ele>
        <time>2020-05-17T17:05:08.226Z</time>
      </trkpt>
      <trkpt lat="48.17693" lon="-3.83393">
        <ele>82</ele>
        <time>2020-05-17T17:05:09.226Z</time>
      </trkpt>
      <trkpt lat="48.17689" lon="-3.83386">
        <ele>81</ele>
        <time>2020-05-17T17:05:10.226Z</time>
      </trkpt>
      <trkpt lat="48.17685" lon="-3.83379">
        <ele>81</ele>
        <time>2020-05-17T17:05:11.225Z</time>
      </trkpt>
      <trkpt lat="48.17681" lon="-3.83374">
        <ele>80</ele>
        <time>2020-05-17T17:05:12.225Z</time>
      </trkpt>
      <trkpt lat="48.17677" lon="-3.83368">
        <ele>80</ele>
        <time>2020-05-17T17:05:13.226Z</time>
      </trkpt>
      <trkpt lat="48.17672" lon="-3.8336">
        <ele>80</ele>
        <time>2020-05-17T17:05:14.226Z</time>
      </trkpt>
      <trkpt lat="48.17668" lon="-3.83355">
        <ele>80</ele>
        <time>2020-05-17T17:05:15.226Z</time>
      </trkpt>
      <trkpt lat="48.17665" lon="-3.83349">
        <ele>79</ele>
        <time>2020-05-17T17:05:16.226Z</time>
      </trkpt>
      <trkpt lat="48.17661" lon="-3.83345">
        <ele>79</ele>
        <time>2020-05-17T17:05:17.226Z</time>
      </trkpt>
      <trkpt lat="48.17658" lon="-3.8334">
        <ele>78</ele>
        <time>2020-05-17T17:05:18.226Z</time>
      </trkpt>
      <trkpt lat="48.17655" lon="-3.83335">
        <ele>78</ele>
        <time>2020-05-17T17:05:19.225Z</time>
      </trkpt>
      <trkpt lat="48.17651" lon="-3.83331">
        <ele>78</ele>
        <time>2020-05-17T17:05:20.226Z</time>
      </trkpt>
      <trkpt lat="48.17649" lon="-3.83328">
        <ele>78</ele>
        <time>2020-05-17T17:05:21.226Z</time>
      </trkpt>
      <trkpt lat="48.17645" lon="-3.83325">
        <ele>78</ele>
        <time>2020-05-17T17:05:22.226Z</time>
      </trkpt>
      <trkpt lat="48.17642" lon="-3.83321">
        <ele>78</ele>
        <time>2020-05-17T17:05:23.226Z</time>
      </trkpt>
      <trkpt lat="48.17639" lon="-3.83317">
        <ele>78</ele>
        <time>2020-05-17T17:05:24.226Z</time>
      </trkpt>
      <trkpt lat="48.17635" lon="-3.83314">
        <ele>78</ele>
        <time>2020-05-17T17:05:25.226Z</time>
      </trkpt>
      <trkpt lat="48.17632" lon="-3.83311">
        <ele>77</ele>
        <time>2020-05-17T17:05:26.226Z</time>
      </trkpt>
      <trkpt lat="48.1763" lon="-3.83308">
        <ele>77</ele>
        <time>2020-05-17T17:05:27.225Z</time>
      </trkpt>
      <trkpt lat="48.17627" lon="-3.83304">
        <ele>77</ele>
        <time>2020-05-17T17:05:28.225Z</time>
      </trkpt>
      <trkpt lat="48.17624" lon="-3.83301">
        <ele>77</ele>
        <time>2020-05-17T17:05:29.226Z</time>
      </trkpt>
      <trkpt lat="48.17621" lon="-3.83299">
        <ele>77</ele>
        <time>2020-05-17T17:05:30.226Z</time>
      </trkpt>
      <trkpt lat="48.17618" lon="-3.83297">
        <ele>77</ele>
        <time>2020-05-17T17:05:31.226Z</time>
      </trkpt>
      <trkpt lat="48.17616" lon="-3.83296">
        <ele>77</ele>
        <time>2020-05-17T17:05:32.225Z</time>
      </trkpt>
      <trkpt lat="48.17613" lon="-3.83295">
        <ele>77</ele>
        <time>2020-05-17T17:05:33.226Z</time>
      </trkpt>
      <trkpt lat="48.1761" lon="-3.83293">
        <ele>78</ele>
        <time>2020-05-17T17:05:34.225Z</time>
      </trkpt>
      <trkpt lat="48.17607" lon="-3.83291">
        <ele>78</ele>
        <time>2020-05-17T17:05:35.226Z</time>
      </trkpt>
      <trkpt lat="48.17605" lon="-3.83289">
        <ele>78</ele>
        <time>2020-05-17T17:05:36.225Z</time>
      </trkpt>
      <trkpt lat="48.17603" lon="-3.83286">
        <ele>78</ele>
        <time>2020-05-17T17:05:37.226Z</time>
      </trkpt>
      <trkpt lat="48.176" lon="-3.83283">
        <ele>78</ele>
        <time>2020-05-17T17:05:38.226Z</time>
      </trkpt>
      <trkpt lat="48.17598" lon="-3.83279">
        <ele>78</ele>
        <time>2020-05-17T17:05:39.226Z</time>
      </trkpt>
      <trkpt lat="48.17596" lon="-3.83276">
        <ele>78</ele>
        <time>2020-05-17T17:05:40.225Z</time>
      </trkpt>
      <trkpt lat="48.17594" lon="-3.83273">
        <ele>78</ele>
        <time>2020-05-17T17:05:41.226Z</time>
      </trkpt>
      <trkpt lat="48.17592" lon="-3.83269">
        <ele>78</ele>
        <time>2020-05-17T17:05:42.226Z</time>
      </trkpt>
      <trkpt lat="48.1759" lon="-3.83267">
        <ele>78</ele>
        <time>2020-05-17T17:05:43.226Z</time>
      </trkpt>
      <trkpt lat="48.17587" lon="-3.83263">
        <ele>79</ele>
        <time>2020-05-17T17:05:44.225Z</time>
      </trkpt>
      <trkpt lat="48.17584" lon="-3.83261">
        <ele>79</ele>
        <time>2020-05-17T17:05:45.225Z</time>
      </trkpt>
      <trkpt lat="48.17582" lon="-3.8326">
        <ele>80</ele>
        <time>2020-05-17T17:05:46.226Z</time>
      </trkpt>
      <trkpt lat="48.1758" lon="-3.83258">
        <ele>80</ele>
        <time>2020-05-17T17:05:47.226Z</time>
      </trkpt>
      <trkpt lat="48.17577" lon="-3.83256">
        <ele>80</ele>
        <time>2020-05-17T17:05:48.225Z</time>
      </trkpt>
      <trkpt lat="48.17575" lon="-3.83255">
        <ele>81</ele>
        <time>2020-05-17T17:05:49.226Z</time>
      </trkpt>
      <trkpt lat="48.17572" lon="-3.83253">
        <ele>81</ele>
        <time>2020-05-17T17:05:50.225Z</time>
      </trkpt>
      <trkpt lat="48.1757" lon="-3.8325">
        <ele>81</ele>
        <time>2020-05-17T17:05:51.226Z</time>
      </trkpt>
      <trkpt lat="48.17567" lon="-3.83248">
        <ele>81</ele>
        <time>2020-05-17T17:05:52.226Z</time>
      </trkpt>
      <trkpt lat="48.17564" lon="-3.83246">
        <ele>82</ele>
        <time>2020-05-17T17:05:53.225Z</time>
      </trkpt>
      <trkpt lat="48.17562" lon="-3.83243">
        <ele>82</ele>
        <time>2020-05-17T17:05:54.225Z</time>
      </trkpt>
      <trkpt lat="48.17559" lon="-3.83242">
        <ele>82</ele>
        <time>2020-05-17T17:05:55.225Z</time>
      </trkpt>
      <trkpt lat="48.17556" lon="-3.8324">
        <ele>82</ele>
        <time>2020-05-17T17:05:56.226Z</time>
      </trkpt>
      <trkpt lat="48.17553" lon="-3.83238">
        <ele>82</ele>
        <time>2020-05-17T17:05:57.225Z</time>
      </trkpt>
      <trkpt lat="48.17549" lon="-3.83236">
        <ele>83</ele>
        <time>2020-05-17T17:05:58.226Z</time>
      </trkpt>
      <trkpt lat="48.17546" lon="-3.83234">
        <ele>83</ele>
        <time>2020-05-17T17:05:59.226Z</time>
      </trkpt>
      <trkpt lat="48.17542" lon="-3.83233">
        <ele>84</ele>
        <time>2020-05-17T17:06:00.226Z</time>
      </trkpt>
      <trkpt lat="48.17539" lon="-3.83231">
        <ele>84</ele>
        <time>2020-05-17T17:06:01.225Z</time>
      </trkpt>
      <trkpt lat="48.17536" lon="-3.83229">
        <ele>85</ele>
        <time>2020-05-17T17:06:02.226Z</time>
      </trkpt>
      <trkpt lat="48.17534" lon="-3.83227">
        <ele>85</ele>
        <time>2020-05-17T17:06:03.225Z</time>
      </trkpt>
      <trkpt lat="48.1753" lon="-3.83225">
        <ele>86</ele>
        <time>2020-05-17T17:06:04.226Z</time>
      </trkpt>
      <trkpt lat="48.17527" lon="-3.83223">
        <ele>86</ele>
        <time>2020-05-17T17:06:05.226Z</time>
      </trkpt>
      <trkpt lat="48.17523" lon="-3.83221">
        <ele>86</ele>
        <time>2020-05-17T17:06:06.226Z</time>
      </trkpt>
      <trkpt lat="48.17521" lon="-3.83219">
        <ele>87</ele>
        <time>2020-05-17T17:06:07.226Z</time>
      </trkpt>
      <trkpt lat="48.17518" lon="-3.83217">
        <ele>87</ele>
        <time>2020-05-17T17:06:08.225Z</time>
      </trkpt>
      <trkpt lat="48.17514" lon="-3.83215">
        <ele>87</ele>
        <time>2020-05-17T17:06:09.226Z</time>
      </trkpt>
      <trkpt lat="48.17511" lon="-3.83213">
        <ele>88</ele>
        <time>2020-05-17T17:06:10.226Z</time>
      </trkpt>
      <trkpt lat="48.17507" lon="-3.83211">
        <ele>88</ele>
        <time>2020-05-17T17:06:11.226Z</time>
      </trkpt>
      <trkpt lat="48.17504" lon="-3.83209">
        <ele>88</ele>
        <time>2020-05-17T17:06:12.225Z</time>
      </trkpt>
      <trkpt lat="48.17501" lon="-3.83207">
        <ele>88</ele>
        <time>2020-05-17T17:06:13.225Z</time>
      </trkpt>
      <trkpt lat="48.17497" lon="-3.83205">
        <ele>88</ele>
        <time>2020-05-17T17:06:14.226Z</time>
      </trkpt>
      <trkpt lat="48.17493" lon="-3.83202">
        <ele>88</ele>
        <time>2020-05-17T17:06:15.226Z</time>
      </trkpt>
      <trkpt lat="48.1749" lon="-3.832">
        <ele>89</ele>
        <time>2020-05-17T17:06:16.225Z</time>
      </trkpt>
      <trkpt lat="48.17486" lon="-3.83198">
        <ele>89</ele>
        <time>2020-05-17T17:06:17.226Z</time>
      </trkpt>
      <trkpt lat="48.17483" lon="-3.83196">
        <ele>89</ele>
        <time>2020-05-17T17:06:18.225Z</time>
      </trkpt>
      <trkpt lat="48.17479" lon="-3.83194">
        <ele>89</ele>
        <time>2020-05-17T17:06:19.225Z</time>
      </trkpt>
      <trkpt lat="48.17476" lon="-3.83192">
        <ele>89</ele>
        <time>2020-05-17T17:06:20.226Z</time>
      </trkpt>
      <trkpt lat="48.17473" lon="-3.8319">
        <ele>89</ele>
        <time>2020-05-17T17:06:21.225Z</time>
      </trkpt>
      <trkpt lat="48.1747" lon="-3.83188">
        <ele>89</ele>
        <time>2020-05-17T17:06:22.225Z</time>
      </trkpt>
      <trkpt lat="48.17466" lon="-3.83186">
        <ele>89</ele>
        <time>2020-05-17T17:06:23.226Z</time>
      </trkpt>
      <trkpt lat="48.17463" lon="-3.83184">
        <ele>89</ele>
        <time>2020-05-17T17:06:24.226Z</time>
      </trkpt>
      <trkpt lat="48.17459" lon="-3.83181">
        <ele>89</ele>
        <time>2020-05-17T17:06:25.225Z</time>
      </trkpt>
      <trkpt lat="48.17456" lon="-3.83179">
        <ele>90</ele>
        <time>2020-05-17T17:06:26.226Z</time>
      </trkpt>
      <trkpt lat="48.17453" lon="-3.83178">
        <ele>90</ele>
        <time>2020-05-17T17:06:27.225Z</time>
      </trkpt>
      <trkpt lat="48.1745" lon="-3.83176">
        <ele>90</ele>
        <time>2020-05-17T17:06:28.226Z</time>
      </trkpt>
      <trkpt lat="48.17447" lon="-3.83175">
        <ele>90</ele>
        <time>2020-05-17T17:06:29.226Z</time>
      </trkpt>
      <trkpt lat="48.17444" lon="-3.83175">
        <ele>90</ele>
        <time>2020-05-17T17:06:30.225Z</time>
      </trkpt>
      <trkpt lat="48.17441" lon="-3.83174">
        <ele>90</ele>
        <time>2020-05-17T17:06:31.226Z</time>
      </trkpt>
      <trkpt lat="48.17439" lon="-3.83173">
        <ele>90</ele>
        <time>2020-05-17T17:06:32.225Z</time>
      </trkpt>
      <trkpt lat="48.17438" lon="-3.83172">
        <ele>89</ele>
        <time>2020-05-17T17:06:33.226Z</time>
      </trkpt>
      <trkpt lat="48.17438" lon="-3.83171">
        <ele>89</ele>
        <time>2020-05-17T17:06:34.226Z</time>
      </trkpt>
      <trkpt lat="48.17438" lon="-3.8317">
        <ele>89</ele>
        <time>2020-05-17T17:06:35.226Z</time>
      </trkpt>
      <trkpt lat="48.17438" lon="-3.83169">
        <ele>89</ele>
        <time>2020-05-17T17:06:36.226Z</time>
      </trkpt>
      <trkpt lat="48.17438" lon="-3.83169">
        <ele>89</ele>
        <time>2020-05-17T17:06:37.225Z</time>
      </trkpt>
    </trkseg>
  </trk>
</gpx>